<?xml version="1.0" encoding="UTF-8" standalone="no" ?>
<gpx xmlns="http://www.topografix.com/GPX/1/1" xmlns:xsi="http://www.w3.org/2001/XMLSchema-instance" xsi:schemaLocation="http://www.topografix.com/GPX/1/1 http://www.topografix.com/GPX/1/1/gpx.xsd" version="1.1" creator="VisuGPX - https://www.visugpx.com">
  <metadata>
    <name>Le tour du Mézenc 23 Juillet 2009</name>
    <desc><![CDATA[Le tour du Mézenc 23 Juillet 2009
531 m de dénivelé et 16.78 km]]></desc>
  </metadata>
  <trk>
    <name><![CDATA[20090723mezenc]]></name>
    <trkseg>
      <trkpt lat="44.93756" lon="4.20394">
        <ele>1328.655029</ele>
        <time>2009-07-23T08:04:01Z</time>
      </trkpt>
      <trkpt lat="44.93749" lon="4.20403">
        <ele>1327.935059</ele>
        <time>2009-07-23T08:04:06Z</time>
      </trkpt>
      <trkpt lat="44.93742" lon="4.20411">
        <ele>1327.636719</ele>
        <time>2009-07-23T08:04:13Z</time>
      </trkpt>
      <trkpt lat="44.93751" lon="4.20404">
        <ele>1327.727539</ele>
        <time>2009-07-23T08:05:07Z</time>
      </trkpt>
      <trkpt lat="44.93749" lon="4.20419">
        <ele>1326.415039</ele>
        <time>2009-07-23T08:05:39Z</time>
      </trkpt>
      <trkpt lat="44.93758" lon="4.20419">
        <ele>1326.232544</ele>
        <time>2009-07-23T08:06:31Z</time>
      </trkpt>
      <trkpt lat="44.93769" lon="4.20418">
        <ele>1326.125</ele>
        <time>2009-07-23T08:06:41Z</time>
      </trkpt>
      <trkpt lat="44.93778" lon="4.2042">
        <ele>1325.77002</ele>
        <time>2009-07-23T08:06:54Z</time>
      </trkpt>
      <trkpt lat="44.93788" lon="4.20417">
        <ele>1325.844971</ele>
        <time>2009-07-23T08:07:09Z</time>
      </trkpt>
      <trkpt lat="44.93778" lon="4.20414">
        <ele>1326.282471</ele>
        <time>2009-07-23T08:09:29Z</time>
      </trkpt>
      <trkpt lat="44.93767" lon="4.20417">
        <ele>1326.22998</ele>
        <time>2009-07-23T08:09:38Z</time>
      </trkpt>
      <trkpt lat="44.93758" lon="4.20419">
        <ele>1326.244995</ele>
        <time>2009-07-23T08:09:49Z</time>
      </trkpt>
      <trkpt lat="44.93748" lon="4.20421">
        <ele>1326.172485</ele>
        <time>2009-07-23T08:10:06Z</time>
      </trkpt>
      <trkpt lat="44.93739" lon="4.20421">
        <ele>1327.036377</ele>
        <time>2009-07-23T08:10:22Z</time>
      </trkpt>
      <trkpt lat="44.93729" lon="4.20419">
        <ele>1328.187134</ele>
        <time>2009-07-23T08:10:31Z</time>
      </trkpt>
      <trkpt lat="44.9372" lon="4.20415">
        <ele>1329.417847</ele>
        <time>2009-07-23T08:10:42Z</time>
      </trkpt>
      <trkpt lat="44.9371" lon="4.20409">
        <ele>1330.919678</ele>
        <time>2009-07-23T08:10:54Z</time>
      </trkpt>
      <trkpt lat="44.93702" lon="4.20404">
        <ele>1332.175537</ele>
        <time>2009-07-23T08:11:03Z</time>
      </trkpt>
      <trkpt lat="44.93694" lon="4.20395">
        <ele>1333.811035</ele>
        <time>2009-07-23T08:11:13Z</time>
      </trkpt>
      <trkpt lat="44.93687" lon="4.20385">
        <ele>1335.603271</ele>
        <time>2009-07-23T08:11:23Z</time>
      </trkpt>
      <trkpt lat="44.93683" lon="4.20371">
        <ele>1337.263916</ele>
        <time>2009-07-23T08:11:32Z</time>
      </trkpt>
      <trkpt lat="44.9368" lon="4.20359">
        <ele>1338.390015</ele>
        <time>2009-07-23T08:11:40Z</time>
      </trkpt>
      <trkpt lat="44.93679" lon="4.20345">
        <ele>1339.132568</ele>
        <time>2009-07-23T08:11:48Z</time>
      </trkpt>
      <trkpt lat="44.93679" lon="4.20332">
        <ele>1339.905029</ele>
        <time>2009-07-23T08:11:56Z</time>
      </trkpt>
      <trkpt lat="44.93678" lon="4.20318">
        <ele>1340.651245</ele>
        <time>2009-07-23T08:12:04Z</time>
      </trkpt>
      <trkpt lat="44.93677" lon="4.20304">
        <ele>1341.359985</ele>
        <time>2009-07-23T08:12:13Z</time>
      </trkpt>
      <trkpt lat="44.93675" lon="4.20291">
        <ele>1341.734985</ele>
        <time>2009-07-23T08:12:27Z</time>
      </trkpt>
      <trkpt lat="44.93672" lon="4.20279">
        <ele>1342.199951</ele>
        <time>2009-07-23T08:12:35Z</time>
      </trkpt>
      <trkpt lat="44.93671" lon="4.20265">
        <ele>1342.305054</ele>
        <time>2009-07-23T08:12:42Z</time>
      </trkpt>
      <trkpt lat="44.9367" lon="4.20252">
        <ele>1342.515015</ele>
        <time>2009-07-23T08:12:51Z</time>
      </trkpt>
      <trkpt lat="44.93667" lon="4.20238">
        <ele>1342.864868</ele>
        <time>2009-07-23T08:13:00Z</time>
      </trkpt>
      <trkpt lat="44.93664" lon="4.20225">
        <ele>1343.295166</ele>
        <time>2009-07-23T08:13:10Z</time>
      </trkpt>
      <trkpt lat="44.93659" lon="4.20212">
        <ele>1343.951538</ele>
        <time>2009-07-23T08:13:19Z</time>
      </trkpt>
      <trkpt lat="44.93655" lon="4.202">
        <ele>1344.618408</ele>
        <time>2009-07-23T08:13:28Z</time>
      </trkpt>
      <trkpt lat="44.93651" lon="4.20187">
        <ele>1345.229248</ele>
        <time>2009-07-23T08:13:37Z</time>
      </trkpt>
      <trkpt lat="44.93646" lon="4.20174">
        <ele>1345.72998</ele>
        <time>2009-07-23T08:13:45Z</time>
      </trkpt>
      <trkpt lat="44.93642" lon="4.20162">
        <ele>1345.964966</ele>
        <time>2009-07-23T08:13:53Z</time>
      </trkpt>
      <trkpt lat="44.93637" lon="4.2015">
        <ele>1346.217529</ele>
        <time>2009-07-23T08:14:01Z</time>
      </trkpt>
      <trkpt lat="44.93633" lon="4.20138">
        <ele>1346.36499</ele>
        <time>2009-07-23T08:14:10Z</time>
      </trkpt>
      <trkpt lat="44.93628" lon="4.20125">
        <ele>1346.692505</ele>
        <time>2009-07-23T08:14:19Z</time>
      </trkpt>
      <trkpt lat="44.93626" lon="4.20112">
        <ele>1346.645264</ele>
        <time>2009-07-23T08:14:27Z</time>
      </trkpt>
      <trkpt lat="44.93622" lon="4.20099">
        <ele>1346.687012</ele>
        <time>2009-07-23T08:14:35Z</time>
      </trkpt>
      <trkpt lat="44.93619" lon="4.20086">
        <ele>1346.735718</ele>
        <time>2009-07-23T08:14:43Z</time>
      </trkpt>
      <trkpt lat="44.93617" lon="4.20071">
        <ele>1346.647461</ele>
        <time>2009-07-23T08:14:50Z</time>
      </trkpt>
      <trkpt lat="44.93615" lon="4.20057">
        <ele>1346.439941</ele>
        <time>2009-07-23T08:14:58Z</time>
      </trkpt>
      <trkpt lat="44.93615" lon="4.20043">
        <ele>1346.14502</ele>
        <time>2009-07-23T08:15:05Z</time>
      </trkpt>
      <trkpt lat="44.93612" lon="4.2003">
        <ele>1346.310059</ele>
        <time>2009-07-23T08:15:13Z</time>
      </trkpt>
      <trkpt lat="44.9361" lon="4.20016">
        <ele>1346.26001</ele>
        <time>2009-07-23T08:15:21Z</time>
      </trkpt>
      <trkpt lat="44.9361" lon="4.20003">
        <ele>1346.071289</ele>
        <time>2009-07-23T08:15:35Z</time>
      </trkpt>
      <trkpt lat="44.9361" lon="4.19988">
        <ele>1345.95752</ele>
        <time>2009-07-23T08:15:43Z</time>
      </trkpt>
      <trkpt lat="44.93608" lon="4.19975">
        <ele>1346.355591</ele>
        <time>2009-07-23T08:15:51Z</time>
      </trkpt>
      <trkpt lat="44.93608" lon="4.19962">
        <ele>1346.71228</ele>
        <time>2009-07-23T08:15:59Z</time>
      </trkpt>
      <trkpt lat="44.9361" lon="4.19946">
        <ele>1347.014038</ele>
        <time>2009-07-23T08:16:08Z</time>
      </trkpt>
      <trkpt lat="44.93609" lon="4.19933">
        <ele>1347.409912</ele>
        <time>2009-07-23T08:16:16Z</time>
      </trkpt>
      <trkpt lat="44.93611" lon="4.19919">
        <ele>1347.660034</ele>
        <time>2009-07-23T08:16:22Z</time>
      </trkpt>
      <trkpt lat="44.93612" lon="4.19905">
        <ele>1348.047485</ele>
        <time>2009-07-23T08:16:30Z</time>
      </trkpt>
      <trkpt lat="44.93611" lon="4.19891">
        <ele>1348.60498</ele>
        <time>2009-07-23T08:16:39Z</time>
      </trkpt>
      <trkpt lat="44.9361" lon="4.19876">
        <ele>1349.109985</ele>
        <time>2009-07-23T08:16:48Z</time>
      </trkpt>
      <trkpt lat="44.93609" lon="4.19863">
        <ele>1349.640015</ele>
        <time>2009-07-23T08:16:58Z</time>
      </trkpt>
      <trkpt lat="44.93608" lon="4.19848">
        <ele>1350.547485</ele>
        <time>2009-07-23T08:17:07Z</time>
      </trkpt>
      <trkpt lat="44.93606" lon="4.19833">
        <ele>1351.617554</ele>
        <time>2009-07-23T08:17:16Z</time>
      </trkpt>
      <trkpt lat="44.93605" lon="4.19819">
        <ele>1352.660034</ele>
        <time>2009-07-23T08:17:24Z</time>
      </trkpt>
      <trkpt lat="44.93602" lon="4.19805">
        <ele>1353.692505</ele>
        <time>2009-07-23T08:17:32Z</time>
      </trkpt>
      <trkpt lat="44.93599" lon="4.19791">
        <ele>1354.910034</ele>
        <time>2009-07-23T08:17:40Z</time>
      </trkpt>
      <trkpt lat="44.93597" lon="4.19778">
        <ele>1356.162354</ele>
        <time>2009-07-23T08:17:48Z</time>
      </trkpt>
      <trkpt lat="44.93596" lon="4.19764">
        <ele>1357.439697</ele>
        <time>2009-07-23T08:17:56Z</time>
      </trkpt>
      <trkpt lat="44.93596" lon="4.1975">
        <ele>1358.646973</ele>
        <time>2009-07-23T08:18:03Z</time>
      </trkpt>
      <trkpt lat="44.93592" lon="4.19738">
        <ele>1359.89209</ele>
        <time>2009-07-23T08:18:12Z</time>
      </trkpt>
      <trkpt lat="44.93586" lon="4.19725">
        <ele>1361.171265</ele>
        <time>2009-07-23T08:18:21Z</time>
      </trkpt>
      <trkpt lat="44.9358" lon="4.19714">
        <ele>1362.331299</ele>
        <time>2009-07-23T08:18:30Z</time>
      </trkpt>
      <trkpt lat="44.93575" lon="4.19703">
        <ele>1363.36377</ele>
        <time>2009-07-23T08:18:39Z</time>
      </trkpt>
      <trkpt lat="44.93568" lon="4.19692">
        <ele>1364.346191</ele>
        <time>2009-07-23T08:18:48Z</time>
      </trkpt>
      <trkpt lat="44.93564" lon="4.19679">
        <ele>1365.420044</ele>
        <time>2009-07-23T08:18:57Z</time>
      </trkpt>
      <trkpt lat="44.9356" lon="4.19668">
        <ele>1366.42749</ele>
        <time>2009-07-23T08:19:06Z</time>
      </trkpt>
      <trkpt lat="44.93555" lon="4.19656">
        <ele>1367.272461</ele>
        <time>2009-07-23T08:19:15Z</time>
      </trkpt>
      <trkpt lat="44.9355" lon="4.19644">
        <ele>1368.099976</ele>
        <time>2009-07-23T08:19:24Z</time>
      </trkpt>
      <trkpt lat="44.93546" lon="4.19633">
        <ele>1368.934937</ele>
        <time>2009-07-23T08:19:33Z</time>
      </trkpt>
      <trkpt lat="44.93543" lon="4.1962">
        <ele>1369.800049</ele>
        <time>2009-07-23T08:19:41Z</time>
      </trkpt>
      <trkpt lat="44.93539" lon="4.19608">
        <ele>1370.670044</ele>
        <time>2009-07-23T08:19:50Z</time>
      </trkpt>
      <trkpt lat="44.93535" lon="4.19595">
        <ele>1371.688599</ele>
        <time>2009-07-23T08:19:59Z</time>
      </trkpt>
      <trkpt lat="44.93532" lon="4.19582">
        <ele>1372.730591</ele>
        <time>2009-07-23T08:20:08Z</time>
      </trkpt>
      <trkpt lat="44.93527" lon="4.19571">
        <ele>1373.681519</ele>
        <time>2009-07-23T08:20:17Z</time>
      </trkpt>
      <trkpt lat="44.93522" lon="4.19559">
        <ele>1374.586304</ele>
        <time>2009-07-23T08:20:26Z</time>
      </trkpt>
      <trkpt lat="44.93519" lon="4.19547">
        <ele>1375.524658</ele>
        <time>2009-07-23T08:20:34Z</time>
      </trkpt>
      <trkpt lat="44.93517" lon="4.19534">
        <ele>1376.380005</ele>
        <time>2009-07-23T08:20:42Z</time>
      </trkpt>
      <trkpt lat="44.93515" lon="4.1952">
        <ele>1377.285034</ele>
        <time>2009-07-23T08:20:51Z</time>
      </trkpt>
      <trkpt lat="44.93513" lon="4.19506">
        <ele>1378.125</ele>
        <time>2009-07-23T08:20:59Z</time>
      </trkpt>
      <trkpt lat="44.9351" lon="4.19493">
        <ele>1378.974976</ele>
        <time>2009-07-23T08:21:08Z</time>
      </trkpt>
      <trkpt lat="44.93508" lon="4.1948">
        <ele>1379.765015</ele>
        <time>2009-07-23T08:21:16Z</time>
      </trkpt>
      <trkpt lat="44.93506" lon="4.19467">
        <ele>1380.567383</ele>
        <time>2009-07-23T08:21:25Z</time>
      </trkpt>
      <trkpt lat="44.93504" lon="4.19453">
        <ele>1381.359497</ele>
        <time>2009-07-23T08:21:34Z</time>
      </trkpt>
      <trkpt lat="44.93502" lon="4.1944">
        <ele>1382.17395</ele>
        <time>2009-07-23T08:21:42Z</time>
      </trkpt>
      <trkpt lat="44.93501" lon="4.19426">
        <ele>1383.013062</ele>
        <time>2009-07-23T08:21:50Z</time>
      </trkpt>
      <trkpt lat="44.93499" lon="4.19413">
        <ele>1383.869751</ele>
        <time>2009-07-23T08:21:58Z</time>
      </trkpt>
      <trkpt lat="44.93496" lon="4.19399">
        <ele>1384.334717</ele>
        <time>2009-07-23T08:22:06Z</time>
      </trkpt>
      <trkpt lat="44.93493" lon="4.19387">
        <ele>1384.819946</ele>
        <time>2009-07-23T08:22:15Z</time>
      </trkpt>
      <trkpt lat="44.93488" lon="4.19373">
        <ele>1385.344971</ele>
        <time>2009-07-23T08:22:24Z</time>
      </trkpt>
      <trkpt lat="44.93484" lon="4.19361">
        <ele>1385.844971</ele>
        <time>2009-07-23T08:22:33Z</time>
      </trkpt>
      <trkpt lat="44.93481" lon="4.19348">
        <ele>1386.290039</ele>
        <time>2009-07-23T08:22:41Z</time>
      </trkpt>
      <trkpt lat="44.93478" lon="4.19335">
        <ele>1386.665649</ele>
        <time>2009-07-23T08:22:50Z</time>
      </trkpt>
      <trkpt lat="44.93473" lon="4.19323">
        <ele>1387.06189</ele>
        <time>2009-07-23T08:22:58Z</time>
      </trkpt>
      <trkpt lat="44.93467" lon="4.19311">
        <ele>1387.540039</ele>
        <time>2009-07-23T08:23:06Z</time>
      </trkpt>
      <trkpt lat="44.93463" lon="4.19299">
        <ele>1388.013428</ele>
        <time>2009-07-23T08:23:14Z</time>
      </trkpt>
      <trkpt lat="44.93458" lon="4.19288">
        <ele>1388.54895</ele>
        <time>2009-07-23T08:23:22Z</time>
      </trkpt>
      <trkpt lat="44.93453" lon="4.19275">
        <ele>1388.996216</ele>
        <time>2009-07-23T08:23:31Z</time>
      </trkpt>
      <trkpt lat="44.93449" lon="4.19263">
        <ele>1389.402466</ele>
        <time>2009-07-23T08:23:40Z</time>
      </trkpt>
      <trkpt lat="44.93444" lon="4.19251">
        <ele>1389.790039</ele>
        <time>2009-07-23T08:23:48Z</time>
      </trkpt>
      <trkpt lat="44.93439" lon="4.19239">
        <ele>1390.234985</ele>
        <time>2009-07-23T08:23:56Z</time>
      </trkpt>
      <trkpt lat="44.93433" lon="4.19227">
        <ele>1390.696289</ele>
        <time>2009-07-23T08:24:05Z</time>
      </trkpt>
      <trkpt lat="44.93427" lon="4.19214">
        <ele>1391.209106</ele>
        <time>2009-07-23T08:24:14Z</time>
      </trkpt>
      <trkpt lat="44.93421" lon="4.19202">
        <ele>1391.813354</ele>
        <time>2009-07-23T08:24:23Z</time>
      </trkpt>
      <trkpt lat="44.93417" lon="4.1919">
        <ele>1392.370605</ele>
        <time>2009-07-23T08:24:42Z</time>
      </trkpt>
      <trkpt lat="44.9341" lon="4.1918">
        <ele>1393.055542</ele>
        <time>2009-07-23T08:26:52Z</time>
      </trkpt>
      <trkpt lat="44.93404" lon="4.19169">
        <ele>1393.853027</ele>
        <time>2009-07-23T08:27:13Z</time>
      </trkpt>
      <trkpt lat="44.93401" lon="4.19156">
        <ele>1394.537109</ele>
        <time>2009-07-23T08:27:22Z</time>
      </trkpt>
      <trkpt lat="44.93396" lon="4.19144">
        <ele>1395.234375</ele>
        <time>2009-07-23T08:27:32Z</time>
      </trkpt>
      <trkpt lat="44.93391" lon="4.19132">
        <ele>1395.938232</ele>
        <time>2009-07-23T08:27:41Z</time>
      </trkpt>
      <trkpt lat="44.93387" lon="4.19118">
        <ele>1396.706909</ele>
        <time>2009-07-23T08:27:51Z</time>
      </trkpt>
      <trkpt lat="44.93383" lon="4.19106">
        <ele>1397.462891</ele>
        <time>2009-07-23T08:28:00Z</time>
      </trkpt>
      <trkpt lat="44.93376" lon="4.19096">
        <ele>1398.415894</ele>
        <time>2009-07-23T08:28:09Z</time>
      </trkpt>
      <trkpt lat="44.93368" lon="4.19088">
        <ele>1399.517456</ele>
        <time>2009-07-23T08:28:18Z</time>
      </trkpt>
      <trkpt lat="44.9336" lon="4.19084">
        <ele>1400.557495</ele>
        <time>2009-07-23T08:28:27Z</time>
      </trkpt>
      <trkpt lat="44.93349" lon="4.19084">
        <ele>1401.45752</ele>
        <time>2009-07-23T08:28:36Z</time>
      </trkpt>
      <trkpt lat="44.9334" lon="4.19087">
        <ele>1402.125</ele>
        <time>2009-07-23T08:28:44Z</time>
      </trkpt>
      <trkpt lat="44.93331" lon="4.19094">
        <ele>1402.70752</ele>
        <time>2009-07-23T08:28:53Z</time>
      </trkpt>
      <trkpt lat="44.93323" lon="4.19099">
        <ele>1403.307495</ele>
        <time>2009-07-23T08:29:01Z</time>
      </trkpt>
      <trkpt lat="44.93314" lon="4.19105">
        <ele>1403.978638</ele>
        <time>2009-07-23T08:29:10Z</time>
      </trkpt>
      <trkpt lat="44.93305" lon="4.19111">
        <ele>1404.69165</ele>
        <time>2009-07-23T08:29:19Z</time>
      </trkpt>
      <trkpt lat="44.93296" lon="4.19116">
        <ele>1405.377197</ele>
        <time>2009-07-23T08:29:27Z</time>
      </trkpt>
      <trkpt lat="44.93287" lon="4.19121">
        <ele>1406.067871</ele>
        <time>2009-07-23T08:29:34Z</time>
      </trkpt>
      <trkpt lat="44.93279" lon="4.19127">
        <ele>1406.591675</ele>
        <time>2009-07-23T08:29:44Z</time>
      </trkpt>
      <trkpt lat="44.93269" lon="4.19132">
        <ele>1407.30249</ele>
        <time>2009-07-23T08:29:53Z</time>
      </trkpt>
      <trkpt lat="44.9326" lon="4.19138">
        <ele>1408.01123</ele>
        <time>2009-07-23T08:30:01Z</time>
      </trkpt>
      <trkpt lat="44.93251" lon="4.19143">
        <ele>1408.72876</ele>
        <time>2009-07-23T08:30:10Z</time>
      </trkpt>
      <trkpt lat="44.93242" lon="4.19149">
        <ele>1409.463745</ele>
        <time>2009-07-23T08:30:19Z</time>
      </trkpt>
      <trkpt lat="44.93231" lon="4.19152">
        <ele>1410.434937</ele>
        <time>2009-07-23T08:30:28Z</time>
      </trkpt>
      <trkpt lat="44.93222" lon="4.19153">
        <ele>1411.290039</ele>
        <time>2009-07-23T08:30:36Z</time>
      </trkpt>
      <trkpt lat="44.93212" lon="4.19149">
        <ele>1412.348755</ele>
        <time>2009-07-23T08:30:44Z</time>
      </trkpt>
      <trkpt lat="44.93204" lon="4.19141">
        <ele>1413.420044</ele>
        <time>2009-07-23T08:30:53Z</time>
      </trkpt>
      <trkpt lat="44.93199" lon="4.19131">
        <ele>1414.438721</ele>
        <time>2009-07-23T08:31:01Z</time>
      </trkpt>
      <trkpt lat="44.93193" lon="4.19118">
        <ele>1415.557495</ele>
        <time>2009-07-23T08:31:11Z</time>
      </trkpt>
      <trkpt lat="44.93189" lon="4.19105">
        <ele>1416.55127</ele>
        <time>2009-07-23T08:31:20Z</time>
      </trkpt>
      <trkpt lat="44.93187" lon="4.19091">
        <ele>1417.435059</ele>
        <time>2009-07-23T08:31:29Z</time>
      </trkpt>
      <trkpt lat="44.93182" lon="4.19079">
        <ele>1418.319946</ele>
        <time>2009-07-23T08:31:37Z</time>
      </trkpt>
      <trkpt lat="44.93178" lon="4.19067">
        <ele>1419.273071</ele>
        <time>2009-07-23T08:31:47Z</time>
      </trkpt>
      <trkpt lat="44.93173" lon="4.19054">
        <ele>1420.253662</ele>
        <time>2009-07-23T08:31:56Z</time>
      </trkpt>
      <trkpt lat="44.9317" lon="4.19042">
        <ele>1421.135254</ele>
        <time>2009-07-23T08:32:06Z</time>
      </trkpt>
      <trkpt lat="44.93166" lon="4.1903">
        <ele>1422.158325</ele>
        <time>2009-07-23T08:32:46Z</time>
      </trkpt>
      <trkpt lat="44.93161" lon="4.19018">
        <ele>1423.13855</ele>
        <time>2009-07-23T08:32:55Z</time>
      </trkpt>
      <trkpt lat="44.93155" lon="4.19007">
        <ele>1424.06189</ele>
        <time>2009-07-23T08:33:05Z</time>
      </trkpt>
      <trkpt lat="44.93148" lon="4.18998">
        <ele>1425.066406</ele>
        <time>2009-07-23T08:33:14Z</time>
      </trkpt>
      <trkpt lat="44.93137" lon="4.18994">
        <ele>1426.232056</ele>
        <time>2009-07-23T08:33:23Z</time>
      </trkpt>
      <trkpt lat="44.93127" lon="4.18997">
        <ele>1427.213379</ele>
        <time>2009-07-23T08:33:32Z</time>
      </trkpt>
      <trkpt lat="44.93119" lon="4.19005">
        <ele>1427.950439</ele>
        <time>2009-07-23T08:33:43Z</time>
      </trkpt>
      <trkpt lat="44.93111" lon="4.19015">
        <ele>1428.549927</ele>
        <time>2009-07-23T08:33:53Z</time>
      </trkpt>
      <trkpt lat="44.93104" lon="4.19023">
        <ele>1429.056885</ele>
        <time>2009-07-23T08:34:03Z</time>
      </trkpt>
      <trkpt lat="44.93095" lon="4.19029">
        <ele>1429.588623</ele>
        <time>2009-07-23T08:34:18Z</time>
      </trkpt>
      <trkpt lat="44.93087" lon="4.19037">
        <ele>1430.158081</ele>
        <time>2009-07-23T08:34:25Z</time>
      </trkpt>
      <trkpt lat="44.93079" lon="4.19045">
        <ele>1430.708618</ele>
        <time>2009-07-23T08:34:36Z</time>
      </trkpt>
      <trkpt lat="44.9307" lon="4.19052">
        <ele>1431.283325</ele>
        <time>2009-07-23T08:34:45Z</time>
      </trkpt>
      <trkpt lat="44.93063" lon="4.19061">
        <ele>1431.538574</ele>
        <time>2009-07-23T08:34:55Z</time>
      </trkpt>
      <trkpt lat="44.93055" lon="4.1907">
        <ele>1432.000488</ele>
        <time>2009-07-23T08:35:02Z</time>
      </trkpt>
      <trkpt lat="44.93046" lon="4.19078">
        <ele>1432.440063</ele>
        <time>2009-07-23T08:35:10Z</time>
      </trkpt>
      <trkpt lat="44.93037" lon="4.19086">
        <ele>1433.308716</ele>
        <time>2009-07-23T08:35:19Z</time>
      </trkpt>
      <trkpt lat="44.93029" lon="4.19096">
        <ele>1433.818726</ele>
        <time>2009-07-23T08:35:28Z</time>
      </trkpt>
      <trkpt lat="44.93021" lon="4.19104">
        <ele>1434.441284</ele>
        <time>2009-07-23T08:35:37Z</time>
      </trkpt>
      <trkpt lat="44.93014" lon="4.19112">
        <ele>1435.037476</ele>
        <time>2009-07-23T08:35:45Z</time>
      </trkpt>
      <trkpt lat="44.93005" lon="4.19118">
        <ele>1435.821289</ele>
        <time>2009-07-23T08:35:52Z</time>
      </trkpt>
      <trkpt lat="44.92998" lon="4.19128">
        <ele>1436.263916</ele>
        <time>2009-07-23T08:36:02Z</time>
      </trkpt>
      <trkpt lat="44.92989" lon="4.19134">
        <ele>1436.881836</ele>
        <time>2009-07-23T08:36:12Z</time>
      </trkpt>
      <trkpt lat="44.92979" lon="4.19136">
        <ele>1437.917725</ele>
        <time>2009-07-23T08:36:18Z</time>
      </trkpt>
      <trkpt lat="44.9297" lon="4.19135">
        <ele>1439.046387</ele>
        <time>2009-07-23T08:36:25Z</time>
      </trkpt>
      <trkpt lat="44.92961" lon="4.19132">
        <ele>1440.256104</ele>
        <time>2009-07-23T08:36:31Z</time>
      </trkpt>
      <trkpt lat="44.92954" lon="4.19122">
        <ele>1441.61499</ele>
        <time>2009-07-23T08:36:40Z</time>
      </trkpt>
      <trkpt lat="44.9295" lon="4.1911">
        <ele>1442.857544</ele>
        <time>2009-07-23T08:36:51Z</time>
      </trkpt>
      <trkpt lat="44.92949" lon="4.19096">
        <ele>1443.869995</ele>
        <time>2009-07-23T08:37:04Z</time>
      </trkpt>
      <trkpt lat="44.92939" lon="4.191">
        <ele>1444.682495</ele>
        <time>2009-07-23T08:37:42Z</time>
      </trkpt>
      <trkpt lat="44.92929" lon="4.19105">
        <ele>1445.38501</ele>
        <time>2009-07-23T08:37:53Z</time>
      </trkpt>
      <trkpt lat="44.92919" lon="4.19108">
        <ele>1446.320068</ele>
        <time>2009-07-23T08:38:03Z</time>
      </trkpt>
      <trkpt lat="44.9291" lon="4.19108">
        <ele>1447.326294</ele>
        <time>2009-07-23T08:38:13Z</time>
      </trkpt>
      <trkpt lat="44.929" lon="4.19113">
        <ele>1447.944702</ele>
        <time>2009-07-23T08:38:23Z</time>
      </trkpt>
      <trkpt lat="44.9289" lon="4.19114">
        <ele>1448.787964</ele>
        <time>2009-07-23T08:38:32Z</time>
      </trkpt>
      <trkpt lat="44.9288" lon="4.19114">
        <ele>1449.773071</ele>
        <time>2009-07-23T08:38:45Z</time>
      </trkpt>
      <trkpt lat="44.92871" lon="4.19115">
        <ele>1450.547485</ele>
        <time>2009-07-23T08:38:57Z</time>
      </trkpt>
      <trkpt lat="44.9286" lon="4.19118">
        <ele>1451.048584</ele>
        <time>2009-07-23T08:39:08Z</time>
      </trkpt>
      <trkpt lat="44.9285" lon="4.19118">
        <ele>1451.612549</ele>
        <time>2009-07-23T08:39:15Z</time>
      </trkpt>
      <trkpt lat="44.9284" lon="4.1912">
        <ele>1451.960205</ele>
        <time>2009-07-23T08:39:24Z</time>
      </trkpt>
      <trkpt lat="44.9283" lon="4.19123">
        <ele>1452.124512</ele>
        <time>2009-07-23T08:39:35Z</time>
      </trkpt>
      <trkpt lat="44.9282" lon="4.19123">
        <ele>1452.605957</ele>
        <time>2009-07-23T08:39:44Z</time>
      </trkpt>
      <trkpt lat="44.9281" lon="4.19126">
        <ele>1452.792114</ele>
        <time>2009-07-23T08:39:54Z</time>
      </trkpt>
      <trkpt lat="44.92801" lon="4.19131">
        <ele>1452.678223</ele>
        <time>2009-07-23T08:40:04Z</time>
      </trkpt>
      <trkpt lat="44.9279" lon="4.19133">
        <ele>1452.756714</ele>
        <time>2009-07-23T08:40:14Z</time>
      </trkpt>
      <trkpt lat="44.9278" lon="4.19132">
        <ele>1453.307007</ele>
        <time>2009-07-23T08:40:24Z</time>
      </trkpt>
      <trkpt lat="44.92771" lon="4.19133">
        <ele>1453.719238</ele>
        <time>2009-07-23T08:40:32Z</time>
      </trkpt>
      <trkpt lat="44.92761" lon="4.19131">
        <ele>1454.681763</ele>
        <time>2009-07-23T08:40:40Z</time>
      </trkpt>
      <trkpt lat="44.92751" lon="4.19131">
        <ele>1455.307129</ele>
        <time>2009-07-23T08:40:47Z</time>
      </trkpt>
      <trkpt lat="44.9274" lon="4.19133">
        <ele>1455.607056</ele>
        <time>2009-07-23T08:40:58Z</time>
      </trkpt>
      <trkpt lat="44.9273" lon="4.19134">
        <ele>1456.055542</ele>
        <time>2009-07-23T08:41:10Z</time>
      </trkpt>
      <trkpt lat="44.92721" lon="4.19139">
        <ele>1455.809204</ele>
        <time>2009-07-23T08:41:20Z</time>
      </trkpt>
      <trkpt lat="44.92711" lon="4.1914">
        <ele>1456.013062</ele>
        <time>2009-07-23T08:41:31Z</time>
      </trkpt>
      <trkpt lat="44.92702" lon="4.19139">
        <ele>1456.673706</ele>
        <time>2009-07-23T08:41:40Z</time>
      </trkpt>
      <trkpt lat="44.92692" lon="4.19138">
        <ele>1457.214966</ele>
        <time>2009-07-23T08:41:53Z</time>
      </trkpt>
      <trkpt lat="44.92683" lon="4.19141">
        <ele>1457.197388</ele>
        <time>2009-07-23T08:42:05Z</time>
      </trkpt>
      <trkpt lat="44.92673" lon="4.19143">
        <ele>1457.459717</ele>
        <time>2009-07-23T08:42:18Z</time>
      </trkpt>
      <trkpt lat="44.92665" lon="4.19136">
        <ele>1458.576782</ele>
        <time>2009-07-23T08:42:26Z</time>
      </trkpt>
      <trkpt lat="44.92655" lon="4.19134">
        <ele>1459.17041</ele>
        <time>2009-07-23T08:42:35Z</time>
      </trkpt>
      <trkpt lat="44.92645" lon="4.19132">
        <ele>1459.763916</ele>
        <time>2009-07-23T08:42:45Z</time>
      </trkpt>
      <trkpt lat="44.92635" lon="4.19138">
        <ele>1459.675537</ele>
        <time>2009-07-23T08:42:58Z</time>
      </trkpt>
      <trkpt lat="44.92626" lon="4.1914">
        <ele>1459.851685</ele>
        <time>2009-07-23T08:43:06Z</time>
      </trkpt>
      <trkpt lat="44.92616" lon="4.19146">
        <ele>1459.810669</ele>
        <time>2009-07-23T08:43:16Z</time>
      </trkpt>
      <trkpt lat="44.92607" lon="4.19148">
        <ele>1460.119629</ele>
        <time>2009-07-23T08:43:23Z</time>
      </trkpt>
      <trkpt lat="44.92598" lon="4.19154">
        <ele>1460.044556</ele>
        <time>2009-07-23T08:43:32Z</time>
      </trkpt>
      <trkpt lat="44.92593" lon="4.19167">
        <ele>1459.415161</ele>
        <time>2009-07-23T08:43:45Z</time>
      </trkpt>
      <trkpt lat="44.92591" lon="4.1918">
        <ele>1458.510376</ele>
        <time>2009-07-23T08:43:55Z</time>
      </trkpt>
      <trkpt lat="44.92586" lon="4.19193">
        <ele>1457.974365</ele>
        <time>2009-07-23T08:44:05Z</time>
      </trkpt>
      <trkpt lat="44.92582" lon="4.19205">
        <ele>1457.835815</ele>
        <time>2009-07-23T08:44:15Z</time>
      </trkpt>
      <trkpt lat="44.92576" lon="4.19218">
        <ele>1457.804688</ele>
        <time>2009-07-23T08:44:25Z</time>
      </trkpt>
      <trkpt lat="44.92573" lon="4.1923">
        <ele>1457.543823</ele>
        <time>2009-07-23T08:44:35Z</time>
      </trkpt>
      <trkpt lat="44.92567" lon="4.19243">
        <ele>1457.428223</ele>
        <time>2009-07-23T08:44:49Z</time>
      </trkpt>
      <trkpt lat="44.92566" lon="4.19257">
        <ele>1456.940674</ele>
        <time>2009-07-23T08:45:00Z</time>
      </trkpt>
      <trkpt lat="44.92563" lon="4.1927">
        <ele>1456.881836</ele>
        <time>2009-07-23T08:45:09Z</time>
      </trkpt>
      <trkpt lat="44.92556" lon="4.1928">
        <ele>1457.155151</ele>
        <time>2009-07-23T08:45:17Z</time>
      </trkpt>
      <trkpt lat="44.92554" lon="4.19292">
        <ele>1457.116089</ele>
        <time>2009-07-23T08:45:26Z</time>
      </trkpt>
      <trkpt lat="44.92553" lon="4.19306">
        <ele>1456.916504</ele>
        <time>2009-07-23T08:45:37Z</time>
      </trkpt>
      <trkpt lat="44.92546" lon="4.19315">
        <ele>1457.369995</ele>
        <time>2009-07-23T08:45:46Z</time>
      </trkpt>
      <trkpt lat="44.92541" lon="4.19326">
        <ele>1457.901245</ele>
        <time>2009-07-23T08:46:02Z</time>
      </trkpt>
      <trkpt lat="44.92541" lon="4.1934">
        <ele>1458.09375</ele>
        <time>2009-07-23T08:46:17Z</time>
      </trkpt>
      <trkpt lat="44.9255" lon="4.19344">
        <ele>1457.35498</ele>
        <time>2009-07-23T08:46:31Z</time>
      </trkpt>
      <trkpt lat="44.92559" lon="4.19352">
        <ele>1456.565796</ele>
        <time>2009-07-23T08:46:52Z</time>
      </trkpt>
      <trkpt lat="44.92555" lon="4.19365">
        <ele>1457.103394</ele>
        <time>2009-07-23T08:47:03Z</time>
      </trkpt>
      <trkpt lat="44.92548" lon="4.19375">
        <ele>1457.963745</ele>
        <time>2009-07-23T08:47:29Z</time>
      </trkpt>
      <trkpt lat="44.9254" lon="4.19384">
        <ele>1458.934692</ele>
        <time>2009-07-23T08:47:48Z</time>
      </trkpt>
      <trkpt lat="44.92533" lon="4.19392">
        <ele>1460.324341</ele>
        <time>2009-07-23T08:48:04Z</time>
      </trkpt>
      <trkpt lat="44.92524" lon="4.19398">
        <ele>1461.895508</ele>
        <time>2009-07-23T08:48:16Z</time>
      </trkpt>
      <trkpt lat="44.92517" lon="4.19407">
        <ele>1463.895996</ele>
        <time>2009-07-23T08:48:27Z</time>
      </trkpt>
      <trkpt lat="44.92508" lon="4.19413">
        <ele>1465.932373</ele>
        <time>2009-07-23T08:48:40Z</time>
      </trkpt>
      <trkpt lat="44.92499" lon="4.19419">
        <ele>1467.827637</ele>
        <time>2009-07-23T08:48:56Z</time>
      </trkpt>
      <trkpt lat="44.92489" lon="4.19421">
        <ele>1468.626099</ele>
        <time>2009-07-23T08:49:06Z</time>
      </trkpt>
      <trkpt lat="44.9248" lon="4.19426">
        <ele>1469.887573</ele>
        <time>2009-07-23T08:49:22Z</time>
      </trkpt>
      <trkpt lat="44.92471" lon="4.1943">
        <ele>1470.839966</ele>
        <time>2009-07-23T08:49:33Z</time>
      </trkpt>
      <trkpt lat="44.92462" lon="4.19433">
        <ele>1471.778442</ele>
        <time>2009-07-23T08:49:43Z</time>
      </trkpt>
      <trkpt lat="44.92452" lon="4.1944">
        <ele>1472.928955</ele>
        <time>2009-07-23T08:49:53Z</time>
      </trkpt>
      <trkpt lat="44.92443" lon="4.19445">
        <ele>1474.688721</ele>
        <time>2009-07-23T08:50:09Z</time>
      </trkpt>
      <trkpt lat="44.92434" lon="4.19448">
        <ele>1475.758911</ele>
        <time>2009-07-23T08:50:22Z</time>
      </trkpt>
      <trkpt lat="44.92424" lon="4.19451">
        <ele>1476.988037</ele>
        <time>2009-07-23T08:50:33Z</time>
      </trkpt>
      <trkpt lat="44.92416" lon="4.19459">
        <ele>1479.251465</ele>
        <time>2009-07-23T08:50:48Z</time>
      </trkpt>
      <trkpt lat="44.92407" lon="4.19466">
        <ele>1480.674194</ele>
        <time>2009-07-23T08:50:57Z</time>
      </trkpt>
      <trkpt lat="44.924" lon="4.19476">
        <ele>1482.838989</ele>
        <time>2009-07-23T08:51:11Z</time>
      </trkpt>
      <trkpt lat="44.92391" lon="4.19483">
        <ele>1483.34021</ele>
        <time>2009-07-23T08:51:20Z</time>
      </trkpt>
      <trkpt lat="44.92383" lon="4.19488">
        <ele>1483.334106</ele>
        <time>2009-07-23T08:51:31Z</time>
      </trkpt>
      <trkpt lat="44.92373" lon="4.19491">
        <ele>1482.499512</ele>
        <time>2009-07-23T08:51:41Z</time>
      </trkpt>
      <trkpt lat="44.92365" lon="4.195">
        <ele>1482.745728</ele>
        <time>2009-07-23T08:51:53Z</time>
      </trkpt>
      <trkpt lat="44.92356" lon="4.19508">
        <ele>1483.483521</ele>
        <time>2009-07-23T08:52:02Z</time>
      </trkpt>
      <trkpt lat="44.92351" lon="4.19519">
        <ele>1484.388428</ele>
        <time>2009-07-23T08:52:14Z</time>
      </trkpt>
      <trkpt lat="44.92342" lon="4.19526">
        <ele>1484.583984</ele>
        <time>2009-07-23T08:52:23Z</time>
      </trkpt>
      <trkpt lat="44.92341" lon="4.1954">
        <ele>1485.71814</ele>
        <time>2009-07-23T08:52:43Z</time>
      </trkpt>
      <trkpt lat="44.92339" lon="4.19554">
        <ele>1486.645996</ele>
        <time>2009-07-23T08:52:54Z</time>
      </trkpt>
      <trkpt lat="44.9233" lon="4.19561">
        <ele>1486.115967</ele>
        <time>2009-07-23T08:53:09Z</time>
      </trkpt>
      <trkpt lat="44.92326" lon="4.19573">
        <ele>1486.731445</ele>
        <time>2009-07-23T08:53:20Z</time>
      </trkpt>
      <trkpt lat="44.92324" lon="4.19587">
        <ele>1487.57312</ele>
        <time>2009-07-23T08:53:32Z</time>
      </trkpt>
      <trkpt lat="44.92324" lon="4.19601">
        <ele>1489.024048</ele>
        <time>2009-07-23T08:53:48Z</time>
      </trkpt>
      <trkpt lat="44.92324" lon="4.19615">
        <ele>1490.290161</ele>
        <time>2009-07-23T08:53:59Z</time>
      </trkpt>
      <trkpt lat="44.92321" lon="4.19628">
        <ele>1490.513794</ele>
        <time>2009-07-23T08:54:09Z</time>
      </trkpt>
      <trkpt lat="44.92314" lon="4.19639">
        <ele>1491.177368</ele>
        <time>2009-07-23T08:54:20Z</time>
      </trkpt>
      <trkpt lat="44.92307" lon="4.19649">
        <ele>1491.857178</ele>
        <time>2009-07-23T08:54:30Z</time>
      </trkpt>
      <trkpt lat="44.92302" lon="4.19661">
        <ele>1492.590698</ele>
        <time>2009-07-23T08:54:44Z</time>
      </trkpt>
      <trkpt lat="44.92293" lon="4.19666">
        <ele>1492.382935</ele>
        <time>2009-07-23T08:55:07Z</time>
      </trkpt>
      <trkpt lat="44.92294" lon="4.19679">
        <ele>1493.516968</ele>
        <time>2009-07-23T08:56:27Z</time>
      </trkpt>
      <trkpt lat="44.92303" lon="4.19684">
        <ele>1494.76001</ele>
        <time>2009-07-23T08:57:16Z</time>
      </trkpt>
      <trkpt lat="44.92309" lon="4.19696">
        <ele>1495.985474</ele>
        <time>2009-07-23T08:57:30Z</time>
      </trkpt>
      <trkpt lat="44.92315" lon="4.19706">
        <ele>1496.70166</ele>
        <time>2009-07-23T08:57:41Z</time>
      </trkpt>
      <trkpt lat="44.92324" lon="4.19714">
        <ele>1497.869141</ele>
        <time>2009-07-23T08:57:53Z</time>
      </trkpt>
      <trkpt lat="44.92329" lon="4.19725">
        <ele>1498.099976</ele>
        <time>2009-07-23T08:58:03Z</time>
      </trkpt>
      <trkpt lat="44.92328" lon="4.19739">
        <ele>1497.44043</ele>
        <time>2009-07-23T08:58:12Z</time>
      </trkpt>
      <trkpt lat="44.92326" lon="4.19751">
        <ele>1496.894043</ele>
        <time>2009-07-23T08:58:23Z</time>
      </trkpt>
      <trkpt lat="44.92316" lon="4.19755">
        <ele>1496.847656</ele>
        <time>2009-07-23T08:58:36Z</time>
      </trkpt>
      <trkpt lat="44.92307" lon="4.19762">
        <ele>1496.089844</ele>
        <time>2009-07-23T08:58:47Z</time>
      </trkpt>
      <trkpt lat="44.92298" lon="4.19769">
        <ele>1495.555786</ele>
        <time>2009-07-23T08:58:58Z</time>
      </trkpt>
      <trkpt lat="44.9229" lon="4.19776">
        <ele>1495.193237</ele>
        <time>2009-07-23T08:59:04Z</time>
      </trkpt>
      <trkpt lat="44.92284" lon="4.19788">
        <ele>1494.924438</ele>
        <time>2009-07-23T08:59:13Z</time>
      </trkpt>
      <trkpt lat="44.92278" lon="4.19799">
        <ele>1494.864868</ele>
        <time>2009-07-23T08:59:21Z</time>
      </trkpt>
      <trkpt lat="44.92273" lon="4.19812">
        <ele>1494.942505</ele>
        <time>2009-07-23T08:59:30Z</time>
      </trkpt>
      <trkpt lat="44.92263" lon="4.19817">
        <ele>1495.538208</ele>
        <time>2009-07-23T08:59:39Z</time>
      </trkpt>
      <trkpt lat="44.92253" lon="4.1982">
        <ele>1496.240234</ele>
        <time>2009-07-23T08:59:45Z</time>
      </trkpt>
      <trkpt lat="44.92243" lon="4.19822">
        <ele>1496.971069</ele>
        <time>2009-07-23T08:59:52Z</time>
      </trkpt>
      <trkpt lat="44.92234" lon="4.19826">
        <ele>1497.640747</ele>
        <time>2009-07-23T08:59:59Z</time>
      </trkpt>
      <trkpt lat="44.92226" lon="4.19834">
        <ele>1498.364502</ele>
        <time>2009-07-23T09:00:12Z</time>
      </trkpt>
      <trkpt lat="44.92215" lon="4.19838">
        <ele>1499.41394</ele>
        <time>2009-07-23T09:00:20Z</time>
      </trkpt>
      <trkpt lat="44.92206" lon="4.19843">
        <ele>1500.397461</ele>
        <time>2009-07-23T09:00:28Z</time>
      </trkpt>
      <trkpt lat="44.92197" lon="4.19847">
        <ele>1501.405151</ele>
        <time>2009-07-23T09:00:37Z</time>
      </trkpt>
      <trkpt lat="44.92188" lon="4.19847">
        <ele>1502.381226</ele>
        <time>2009-07-23T09:00:45Z</time>
      </trkpt>
      <trkpt lat="44.92179" lon="4.19844">
        <ele>1503.244995</ele>
        <time>2009-07-23T09:00:58Z</time>
      </trkpt>
      <trkpt lat="44.9217" lon="4.1984">
        <ele>1504.339966</ele>
        <time>2009-07-23T09:01:06Z</time>
      </trkpt>
      <trkpt lat="44.92159" lon="4.1984">
        <ele>1505.882446</ele>
        <time>2009-07-23T09:01:15Z</time>
      </trkpt>
      <trkpt lat="44.92148" lon="4.19843">
        <ele>1507.342529</ele>
        <time>2009-07-23T09:01:24Z</time>
      </trkpt>
      <trkpt lat="44.92139" lon="4.19849">
        <ele>1508.737549</ele>
        <time>2009-07-23T09:01:36Z</time>
      </trkpt>
      <trkpt lat="44.92132" lon="4.19858">
        <ele>1510.040771</ele>
        <time>2009-07-23T09:01:55Z</time>
      </trkpt>
      <trkpt lat="44.92125" lon="4.19868">
        <ele>1511.275146</ele>
        <time>2009-07-23T09:02:04Z</time>
      </trkpt>
      <trkpt lat="44.92118" lon="4.1988">
        <ele>1512.557495</ele>
        <time>2009-07-23T09:02:17Z</time>
      </trkpt>
      <trkpt lat="44.9211" lon="4.19888">
        <ele>1514.03125</ele>
        <time>2009-07-23T09:02:35Z</time>
      </trkpt>
      <trkpt lat="44.92101" lon="4.19892">
        <ele>1515.441284</ele>
        <time>2009-07-23T09:02:47Z</time>
      </trkpt>
      <trkpt lat="44.92092" lon="4.199">
        <ele>1516.982544</ele>
        <time>2009-07-23T09:02:55Z</time>
      </trkpt>
      <trkpt lat="44.92085" lon="4.19908">
        <ele>1518.457397</ele>
        <time>2009-07-23T09:03:06Z</time>
      </trkpt>
      <trkpt lat="44.92075" lon="4.19913">
        <ele>1520.046021</ele>
        <time>2009-07-23T09:03:16Z</time>
      </trkpt>
      <trkpt lat="44.92065" lon="4.19917">
        <ele>1521.457397</ele>
        <time>2009-07-23T09:03:23Z</time>
      </trkpt>
      <trkpt lat="44.92055" lon="4.19919">
        <ele>1522.91394</ele>
        <time>2009-07-23T09:03:33Z</time>
      </trkpt>
      <trkpt lat="44.92046" lon="4.19915">
        <ele>1524.181763</ele>
        <time>2009-07-23T09:03:47Z</time>
      </trkpt>
      <trkpt lat="44.92038" lon="4.19907">
        <ele>1525.258057</ele>
        <time>2009-07-23T09:03:59Z</time>
      </trkpt>
      <trkpt lat="44.92032" lon="4.19897">
        <ele>1526.243286</ele>
        <time>2009-07-23T09:04:11Z</time>
      </trkpt>
      <trkpt lat="44.9203" lon="4.19883">
        <ele>1526.721802</ele>
        <time>2009-07-23T09:04:20Z</time>
      </trkpt>
      <trkpt lat="44.92027" lon="4.1987">
        <ele>1527.444092</ele>
        <time>2009-07-23T09:04:31Z</time>
      </trkpt>
      <trkpt lat="44.92029" lon="4.19856">
        <ele>1527.15918</ele>
        <time>2009-07-23T09:04:39Z</time>
      </trkpt>
      <trkpt lat="44.9203" lon="4.19842">
        <ele>1527.034668</ele>
        <time>2009-07-23T09:04:48Z</time>
      </trkpt>
      <trkpt lat="44.92026" lon="4.19829">
        <ele>1527.542603</ele>
        <time>2009-07-23T09:04:54Z</time>
      </trkpt>
      <trkpt lat="44.92022" lon="4.19817">
        <ele>1528.307251</ele>
        <time>2009-07-23T09:05:05Z</time>
      </trkpt>
      <trkpt lat="44.92021" lon="4.19803">
        <ele>1528.652466</ele>
        <time>2009-07-23T09:05:14Z</time>
      </trkpt>
      <trkpt lat="44.92014" lon="4.19793">
        <ele>1529.97998</ele>
        <time>2009-07-23T09:05:24Z</time>
      </trkpt>
      <trkpt lat="44.92013" lon="4.19778">
        <ele>1530.466309</ele>
        <time>2009-07-23T09:05:33Z</time>
      </trkpt>
      <trkpt lat="44.92011" lon="4.19763">
        <ele>1531.085083</ele>
        <time>2009-07-23T09:05:41Z</time>
      </trkpt>
      <trkpt lat="44.92008" lon="4.1975">
        <ele>1531.91748</ele>
        <time>2009-07-23T09:05:48Z</time>
      </trkpt>
      <trkpt lat="44.92012" lon="4.19738">
        <ele>1531.411499</ele>
        <time>2009-07-23T09:06:05Z</time>
      </trkpt>
      <trkpt lat="44.92016" lon="4.19723">
        <ele>1531.190186</ele>
        <time>2009-07-23T09:06:19Z</time>
      </trkpt>
      <trkpt lat="44.92019" lon="4.19711">
        <ele>1530.888794</ele>
        <time>2009-07-23T09:06:26Z</time>
      </trkpt>
      <trkpt lat="44.92018" lon="4.19697">
        <ele>1531.331543</ele>
        <time>2009-07-23T09:06:34Z</time>
      </trkpt>
      <trkpt lat="44.92025" lon="4.19688">
        <ele>1530.041748</ele>
        <time>2009-07-23T09:06:42Z</time>
      </trkpt>
      <trkpt lat="44.92031" lon="4.19676">
        <ele>1529.126953</ele>
        <time>2009-07-23T09:06:50Z</time>
      </trkpt>
      <trkpt lat="44.92032" lon="4.19662">
        <ele>1529.507324</ele>
        <time>2009-07-23T09:07:03Z</time>
      </trkpt>
      <trkpt lat="44.92039" lon="4.19653">
        <ele>1528.421875</ele>
        <time>2009-07-23T09:07:10Z</time>
      </trkpt>
      <trkpt lat="44.92045" lon="4.19643">
        <ele>1527.274902</ele>
        <time>2009-07-23T09:07:16Z</time>
      </trkpt>
      <trkpt lat="44.9205" lon="4.19631">
        <ele>1526.411255</ele>
        <time>2009-07-23T09:07:23Z</time>
      </trkpt>
      <trkpt lat="44.92052" lon="4.19617">
        <ele>1526.382202</ele>
        <time>2009-07-23T09:07:31Z</time>
      </trkpt>
      <trkpt lat="44.92052" lon="4.19603">
        <ele>1526.914551</ele>
        <time>2009-07-23T09:07:40Z</time>
      </trkpt>
      <trkpt lat="44.92053" lon="4.19585">
        <ele>1527.190063</ele>
        <time>2009-07-23T09:07:53Z</time>
      </trkpt>
      <trkpt lat="44.92054" lon="4.19571">
        <ele>1527.53418</ele>
        <time>2009-07-23T09:07:58Z</time>
      </trkpt>
      <trkpt lat="44.92046" lon="4.19562">
        <ele>1530.412842</ele>
        <time>2009-07-23T09:08:08Z</time>
      </trkpt>
      <trkpt lat="44.9205" lon="4.19548">
        <ele>1529.55127</ele>
        <time>2009-07-23T09:08:17Z</time>
      </trkpt>
      <trkpt lat="44.92054" lon="4.19535">
        <ele>1529.105469</ele>
        <time>2009-07-23T09:08:25Z</time>
      </trkpt>
      <trkpt lat="44.9206" lon="4.19521">
        <ele>1527.880493</ele>
        <time>2009-07-23T09:08:33Z</time>
      </trkpt>
      <trkpt lat="44.92055" lon="4.19509">
        <ele>1530.248535</ele>
        <time>2009-07-23T09:08:40Z</time>
      </trkpt>
      <trkpt lat="44.92054" lon="4.19494">
        <ele>1531.187378</ele>
        <time>2009-07-23T09:08:50Z</time>
      </trkpt>
      <trkpt lat="44.92051" lon="4.19482">
        <ele>1532.846924</ele>
        <time>2009-07-23T09:08:58Z</time>
      </trkpt>
      <trkpt lat="44.92053" lon="4.19468">
        <ele>1532.947388</ele>
        <time>2009-07-23T09:09:07Z</time>
      </trkpt>
      <trkpt lat="44.92053" lon="4.19454">
        <ele>1533.699219</ele>
        <time>2009-07-23T09:09:16Z</time>
      </trkpt>
      <trkpt lat="44.92054" lon="4.19441">
        <ele>1534.040771</ele>
        <time>2009-07-23T09:09:24Z</time>
      </trkpt>
      <trkpt lat="44.92044" lon="4.19432">
        <ele>1537.276733</ele>
        <time>2009-07-23T09:09:31Z</time>
      </trkpt>
      <trkpt lat="44.9204" lon="4.19418">
        <ele>1538.621948</ele>
        <time>2009-07-23T09:09:39Z</time>
      </trkpt>
      <trkpt lat="44.92039" lon="4.19405">
        <ele>1538.971924</ele>
        <time>2009-07-23T09:09:50Z</time>
      </trkpt>
      <trkpt lat="44.92039" lon="4.19391">
        <ele>1539.106445</ele>
        <time>2009-07-23T09:09:57Z</time>
      </trkpt>
      <trkpt lat="44.92035" lon="4.19379">
        <ele>1539.811646</ele>
        <time>2009-07-23T09:10:06Z</time>
      </trkpt>
      <trkpt lat="44.92029" lon="4.19368">
        <ele>1541.048096</ele>
        <time>2009-07-23T09:10:12Z</time>
      </trkpt>
      <trkpt lat="44.9203" lon="4.19354">
        <ele>1540.609619</ele>
        <time>2009-07-23T09:10:21Z</time>
      </trkpt>
      <trkpt lat="44.92031" lon="4.1934">
        <ele>1540.287354</ele>
        <time>2009-07-23T09:10:29Z</time>
      </trkpt>
      <trkpt lat="44.92028" lon="4.19327">
        <ele>1540.670776</ele>
        <time>2009-07-23T09:10:35Z</time>
      </trkpt>
      <trkpt lat="44.92022" lon="4.19316">
        <ele>1541.445313</ele>
        <time>2009-07-23T09:10:44Z</time>
      </trkpt>
      <trkpt lat="44.92014" lon="4.19307">
        <ele>1542.489014</ele>
        <time>2009-07-23T09:10:52Z</time>
      </trkpt>
      <trkpt lat="44.9201" lon="4.19293">
        <ele>1542.934448</ele>
        <time>2009-07-23T09:11:00Z</time>
      </trkpt>
      <trkpt lat="44.92005" lon="4.19281">
        <ele>1543.545654</ele>
        <time>2009-07-23T09:11:10Z</time>
      </trkpt>
      <trkpt lat="44.91998" lon="4.19269">
        <ele>1544.547241</ele>
        <time>2009-07-23T09:11:17Z</time>
      </trkpt>
      <trkpt lat="44.91994" lon="4.19255">
        <ele>1545.047852</ele>
        <time>2009-07-23T09:11:23Z</time>
      </trkpt>
      <trkpt lat="44.91993" lon="4.19241">
        <ele>1544.876587</ele>
        <time>2009-07-23T09:11:30Z</time>
      </trkpt>
      <trkpt lat="44.91991" lon="4.19228">
        <ele>1544.966309</ele>
        <time>2009-07-23T09:11:39Z</time>
      </trkpt>
      <trkpt lat="44.91984" lon="4.19216">
        <ele>1545.887451</ele>
        <time>2009-07-23T09:11:47Z</time>
      </trkpt>
      <trkpt lat="44.91977" lon="4.19208">
        <ele>1546.98877</ele>
        <time>2009-07-23T09:11:54Z</time>
      </trkpt>
      <trkpt lat="44.91975" lon="4.19193">
        <ele>1547.007568</ele>
        <time>2009-07-23T09:12:03Z</time>
      </trkpt>
      <trkpt lat="44.91972" lon="4.19181">
        <ele>1547.442505</ele>
        <time>2009-07-23T09:12:14Z</time>
      </trkpt>
      <trkpt lat="44.91968" lon="4.19167">
        <ele>1547.755005</ele>
        <time>2009-07-23T09:12:21Z</time>
      </trkpt>
      <trkpt lat="44.91969" lon="4.19154">
        <ele>1547.48999</ele>
        <time>2009-07-23T09:12:28Z</time>
      </trkpt>
      <trkpt lat="44.91966" lon="4.1914">
        <ele>1547.785034</ele>
        <time>2009-07-23T09:12:36Z</time>
      </trkpt>
      <trkpt lat="44.91966" lon="4.19127">
        <ele>1547.608765</ele>
        <time>2009-07-23T09:12:44Z</time>
      </trkpt>
      <trkpt lat="44.91961" lon="4.19114">
        <ele>1548.147461</ele>
        <time>2009-07-23T09:12:51Z</time>
      </trkpt>
      <trkpt lat="44.91959" lon="4.19101">
        <ele>1548.129761</ele>
        <time>2009-07-23T09:12:57Z</time>
      </trkpt>
      <trkpt lat="44.91959" lon="4.19087">
        <ele>1547.796265</ele>
        <time>2009-07-23T09:13:04Z</time>
      </trkpt>
      <trkpt lat="44.91952" lon="4.19075">
        <ele>1548.319336</ele>
        <time>2009-07-23T09:13:16Z</time>
      </trkpt>
      <trkpt lat="44.9195" lon="4.1906">
        <ele>1548.047974</ele>
        <time>2009-07-23T09:13:24Z</time>
      </trkpt>
      <trkpt lat="44.91949" lon="4.19046">
        <ele>1547.821533</ele>
        <time>2009-07-23T09:13:31Z</time>
      </trkpt>
      <trkpt lat="44.91945" lon="4.19034">
        <ele>1547.954956</ele>
        <time>2009-07-23T09:13:41Z</time>
      </trkpt>
      <trkpt lat="44.91942" lon="4.1902">
        <ele>1547.984985</ele>
        <time>2009-07-23T09:13:49Z</time>
      </trkpt>
      <trkpt lat="44.91936" lon="4.19009">
        <ele>1548.445068</ele>
        <time>2009-07-23T09:13:56Z</time>
      </trkpt>
      <trkpt lat="44.91931" lon="4.18998">
        <ele>1548.695068</ele>
        <time>2009-07-23T09:14:01Z</time>
      </trkpt>
      <trkpt lat="44.91927" lon="4.18986">
        <ele>1548.962524</ele>
        <time>2009-07-23T09:14:09Z</time>
      </trkpt>
      <trkpt lat="44.91924" lon="4.18973">
        <ele>1548.997437</ele>
        <time>2009-07-23T09:14:21Z</time>
      </trkpt>
      <trkpt lat="44.91917" lon="4.18963">
        <ele>1549.62207</ele>
        <time>2009-07-23T09:14:28Z</time>
      </trkpt>
      <trkpt lat="44.91912" lon="4.18951">
        <ele>1550.050293</ele>
        <time>2009-07-23T09:14:38Z</time>
      </trkpt>
      <trkpt lat="44.91911" lon="4.18937">
        <ele>1549.906982</ele>
        <time>2009-07-23T09:14:46Z</time>
      </trkpt>
      <trkpt lat="44.91909" lon="4.18924">
        <ele>1549.88269</ele>
        <time>2009-07-23T09:14:52Z</time>
      </trkpt>
      <trkpt lat="44.91907" lon="4.18911">
        <ele>1549.891479</ele>
        <time>2009-07-23T09:14:58Z</time>
      </trkpt>
      <trkpt lat="44.91903" lon="4.18898">
        <ele>1550.214111</ele>
        <time>2009-07-23T09:15:05Z</time>
      </trkpt>
      <trkpt lat="44.91901" lon="4.18884">
        <ele>1550.296631</ele>
        <time>2009-07-23T09:15:12Z</time>
      </trkpt>
      <trkpt lat="44.91894" lon="4.18873">
        <ele>1550.924927</ele>
        <time>2009-07-23T09:15:23Z</time>
      </trkpt>
      <trkpt lat="44.91892" lon="4.18858">
        <ele>1550.824951</ele>
        <time>2009-07-23T09:15:35Z</time>
      </trkpt>
      <trkpt lat="44.91887" lon="4.18847">
        <ele>1551.277466</ele>
        <time>2009-07-23T09:15:43Z</time>
      </trkpt>
      <trkpt lat="44.91884" lon="4.18833">
        <ele>1551.212524</ele>
        <time>2009-07-23T09:15:51Z</time>
      </trkpt>
      <trkpt lat="44.91877" lon="4.18823">
        <ele>1552.015015</ele>
        <time>2009-07-23T09:15:56Z</time>
      </trkpt>
      <trkpt lat="44.91882" lon="4.18811">
        <ele>1550.949951</ele>
        <time>2009-07-23T09:16:05Z</time>
      </trkpt>
      <trkpt lat="44.91882" lon="4.18797">
        <ele>1550.560059</ele>
        <time>2009-07-23T09:16:10Z</time>
      </trkpt>
      <trkpt lat="44.91876" lon="4.18786">
        <ele>1551.036011</ele>
        <time>2009-07-23T09:16:17Z</time>
      </trkpt>
      <trkpt lat="44.91867" lon="4.18781">
        <ele>1552.184326</ele>
        <time>2009-07-23T09:16:24Z</time>
      </trkpt>
      <trkpt lat="44.91858" lon="4.18776">
        <ele>1553.205322</ele>
        <time>2009-07-23T09:16:31Z</time>
      </trkpt>
      <trkpt lat="44.91856" lon="4.18761">
        <ele>1552.553345</ele>
        <time>2009-07-23T09:16:38Z</time>
      </trkpt>
      <trkpt lat="44.91848" lon="4.18753">
        <ele>1553.07251</ele>
        <time>2009-07-23T09:16:45Z</time>
      </trkpt>
      <trkpt lat="44.91845" lon="4.18741">
        <ele>1552.647339</ele>
        <time>2009-07-23T09:16:55Z</time>
      </trkpt>
      <trkpt lat="44.91838" lon="4.1873">
        <ele>1552.641602</ele>
        <time>2009-07-23T09:17:04Z</time>
      </trkpt>
      <trkpt lat="44.91834" lon="4.18717">
        <ele>1552.380249</ele>
        <time>2009-07-23T09:17:14Z</time>
      </trkpt>
      <trkpt lat="44.91826" lon="4.18707">
        <ele>1552.73938</ele>
        <time>2009-07-23T09:17:23Z</time>
      </trkpt>
      <trkpt lat="44.91816" lon="4.18704">
        <ele>1553.747192</ele>
        <time>2009-07-23T09:17:29Z</time>
      </trkpt>
      <trkpt lat="44.91812" lon="4.18692">
        <ele>1553.485962</ele>
        <time>2009-07-23T09:17:38Z</time>
      </trkpt>
      <trkpt lat="44.91809" lon="4.18679">
        <ele>1552.833496</ele>
        <time>2009-07-23T09:17:44Z</time>
      </trkpt>
      <trkpt lat="44.91802" lon="4.1867">
        <ele>1553.078369</ele>
        <time>2009-07-23T09:17:50Z</time>
      </trkpt>
      <trkpt lat="44.91795" lon="4.1866">
        <ele>1553.160278</ele>
        <time>2009-07-23T09:17:57Z</time>
      </trkpt>
      <trkpt lat="44.9179" lon="4.18648">
        <ele>1553.286621</ele>
        <time>2009-07-23T09:18:05Z</time>
      </trkpt>
      <trkpt lat="44.91783" lon="4.18638">
        <ele>1553.715088</ele>
        <time>2009-07-23T09:18:12Z</time>
      </trkpt>
      <trkpt lat="44.91778" lon="4.18626">
        <ele>1553.710815</ele>
        <time>2009-07-23T09:18:20Z</time>
      </trkpt>
      <trkpt lat="44.91769" lon="4.18619">
        <ele>1554.425781</ele>
        <time>2009-07-23T09:18:28Z</time>
      </trkpt>
      <trkpt lat="44.91765" lon="4.18606">
        <ele>1554.176025</ele>
        <time>2009-07-23T09:18:37Z</time>
      </trkpt>
      <trkpt lat="44.91762" lon="4.18593">
        <ele>1553.842529</ele>
        <time>2009-07-23T09:18:48Z</time>
      </trkpt>
      <trkpt lat="44.91758" lon="4.1858">
        <ele>1553.658691</ele>
        <time>2009-07-23T09:18:55Z</time>
      </trkpt>
      <trkpt lat="44.91754" lon="4.18567">
        <ele>1553.532471</ele>
        <time>2009-07-23T09:19:02Z</time>
      </trkpt>
      <trkpt lat="44.9175" lon="4.18555">
        <ele>1553.50769</ele>
        <time>2009-07-23T09:19:12Z</time>
      </trkpt>
      <trkpt lat="44.91746" lon="4.18542">
        <ele>1553.647217</ele>
        <time>2009-07-23T09:19:18Z</time>
      </trkpt>
      <trkpt lat="44.9174" lon="4.18531">
        <ele>1554.027466</ele>
        <time>2009-07-23T09:19:26Z</time>
      </trkpt>
      <trkpt lat="44.91733" lon="4.18522">
        <ele>1554.788574</ele>
        <time>2009-07-23T09:19:32Z</time>
      </trkpt>
      <trkpt lat="44.91727" lon="4.18511">
        <ele>1555.264038</ele>
        <time>2009-07-23T09:19:43Z</time>
      </trkpt>
      <trkpt lat="44.91723" lon="4.18498">
        <ele>1555.422363</ele>
        <time>2009-07-23T09:19:53Z</time>
      </trkpt>
      <trkpt lat="44.91714" lon="4.18491">
        <ele>1556.425903</ele>
        <time>2009-07-23T09:20:00Z</time>
      </trkpt>
      <trkpt lat="44.91713" lon="4.18477">
        <ele>1555.89209</ele>
        <time>2009-07-23T09:20:08Z</time>
      </trkpt>
      <trkpt lat="44.91709" lon="4.18465">
        <ele>1556.042114</ele>
        <time>2009-07-23T09:20:15Z</time>
      </trkpt>
      <trkpt lat="44.91703" lon="4.18454">
        <ele>1556.719482</ele>
        <time>2009-07-23T09:20:25Z</time>
      </trkpt>
      <trkpt lat="44.91701" lon="4.1844">
        <ele>1556.597412</ele>
        <time>2009-07-23T09:20:33Z</time>
      </trkpt>
      <trkpt lat="44.91696" lon="4.18428">
        <ele>1556.974365</ele>
        <time>2009-07-23T09:20:45Z</time>
      </trkpt>
      <trkpt lat="44.91694" lon="4.18416">
        <ele>1556.953003</ele>
        <time>2009-07-23T09:20:54Z</time>
      </trkpt>
      <trkpt lat="44.9169" lon="4.18403">
        <ele>1557.118042</ele>
        <time>2009-07-23T09:21:01Z</time>
      </trkpt>
      <trkpt lat="44.91693" lon="4.1839">
        <ele>1556.262451</ele>
        <time>2009-07-23T09:21:09Z</time>
      </trkpt>
      <trkpt lat="44.91692" lon="4.18376">
        <ele>1556.040039</ele>
        <time>2009-07-23T09:21:18Z</time>
      </trkpt>
      <trkpt lat="44.91683" lon="4.18369">
        <ele>1557.237549</ele>
        <time>2009-07-23T09:21:25Z</time>
      </trkpt>
      <trkpt lat="44.91675" lon="4.18363">
        <ele>1558.342529</ele>
        <time>2009-07-23T09:21:32Z</time>
      </trkpt>
      <trkpt lat="44.91671" lon="4.1835">
        <ele>1558.579956</ele>
        <time>2009-07-23T09:21:38Z</time>
      </trkpt>
      <trkpt lat="44.91668" lon="4.18336">
        <ele>1558.753662</ele>
        <time>2009-07-23T09:21:46Z</time>
      </trkpt>
      <trkpt lat="44.91662" lon="4.18324">
        <ele>1559.699951</ele>
        <time>2009-07-23T09:21:52Z</time>
      </trkpt>
      <trkpt lat="44.91656" lon="4.18313">
        <ele>1560.69751</ele>
        <time>2009-07-23T09:22:01Z</time>
      </trkpt>
      <trkpt lat="44.91654" lon="4.18299">
        <ele>1560.942505</ele>
        <time>2009-07-23T09:22:08Z</time>
      </trkpt>
      <trkpt lat="44.9165" lon="4.18285">
        <ele>1561.589966</ele>
        <time>2009-07-23T09:22:19Z</time>
      </trkpt>
      <trkpt lat="44.91645" lon="4.18275">
        <ele>1562.497559</ele>
        <time>2009-07-23T09:22:25Z</time>
      </trkpt>
      <trkpt lat="44.91639" lon="4.18264">
        <ele>1563.23999</ele>
        <time>2009-07-23T09:22:31Z</time>
      </trkpt>
      <trkpt lat="44.91632" lon="4.18253">
        <ele>1564.209961</ele>
        <time>2009-07-23T09:22:39Z</time>
      </trkpt>
      <trkpt lat="44.91635" lon="4.18239">
        <ele>1563.540039</ele>
        <time>2009-07-23T09:22:48Z</time>
      </trkpt>
      <trkpt lat="44.91636" lon="4.18226">
        <ele>1563.241211</ele>
        <time>2009-07-23T09:22:55Z</time>
      </trkpt>
      <trkpt lat="44.9163" lon="4.18214">
        <ele>1564.003784</ele>
        <time>2009-07-23T09:23:05Z</time>
      </trkpt>
      <trkpt lat="44.91622" lon="4.18206">
        <ele>1564.994995</ele>
        <time>2009-07-23T09:23:13Z</time>
      </trkpt>
      <trkpt lat="44.91619" lon="4.18194">
        <ele>1565.050049</ele>
        <time>2009-07-23T09:23:21Z</time>
      </trkpt>
      <trkpt lat="44.91614" lon="4.1818">
        <ele>1565.334961</ele>
        <time>2009-07-23T09:23:29Z</time>
      </trkpt>
      <trkpt lat="44.91611" lon="4.18167">
        <ele>1565.380005</ele>
        <time>2009-07-23T09:23:42Z</time>
      </trkpt>
      <trkpt lat="44.91608" lon="4.18154">
        <ele>1565.434937</ele>
        <time>2009-07-23T09:23:50Z</time>
      </trkpt>
      <trkpt lat="44.91602" lon="4.18143">
        <ele>1565.868774</ele>
        <time>2009-07-23T09:23:56Z</time>
      </trkpt>
      <trkpt lat="44.91604" lon="4.18129">
        <ele>1565.061279</ele>
        <time>2009-07-23T09:24:03Z</time>
      </trkpt>
      <trkpt lat="44.91602" lon="4.18115">
        <ele>1564.799438</ele>
        <time>2009-07-23T09:24:14Z</time>
      </trkpt>
      <trkpt lat="44.91596" lon="4.18102">
        <ele>1565.198853</ele>
        <time>2009-07-23T09:24:21Z</time>
      </trkpt>
      <trkpt lat="44.91598" lon="4.18088">
        <ele>1564.40271</ele>
        <time>2009-07-23T09:24:29Z</time>
      </trkpt>
      <trkpt lat="44.91596" lon="4.18075">
        <ele>1564.272461</ele>
        <time>2009-07-23T09:24:35Z</time>
      </trkpt>
      <trkpt lat="44.91596" lon="4.18061">
        <ele>1563.54126</ele>
        <time>2009-07-23T09:24:40Z</time>
      </trkpt>
      <trkpt lat="44.91599" lon="4.18048">
        <ele>1562.464966</ele>
        <time>2009-07-23T09:24:47Z</time>
      </trkpt>
      <trkpt lat="44.91599" lon="4.18035">
        <ele>1561.858765</ele>
        <time>2009-07-23T09:24:57Z</time>
      </trkpt>
      <trkpt lat="44.91598" lon="4.1802">
        <ele>1561.530029</ele>
        <time>2009-07-23T09:25:06Z</time>
      </trkpt>
      <trkpt lat="44.91592" lon="4.18007">
        <ele>1562.133789</ele>
        <time>2009-07-23T09:25:15Z</time>
      </trkpt>
      <trkpt lat="44.91585" lon="4.17996">
        <ele>1563.10498</ele>
        <time>2009-07-23T09:25:23Z</time>
      </trkpt>
      <trkpt lat="44.91583" lon="4.17983">
        <ele>1563.3125</ele>
        <time>2009-07-23T09:25:30Z</time>
      </trkpt>
      <trkpt lat="44.91585" lon="4.17969">
        <ele>1562.747559</ele>
        <time>2009-07-23T09:25:38Z</time>
      </trkpt>
      <trkpt lat="44.91587" lon="4.17956">
        <ele>1562.377197</ele>
        <time>2009-07-23T09:25:46Z</time>
      </trkpt>
      <trkpt lat="44.9159" lon="4.17943">
        <ele>1562.041382</ele>
        <time>2009-07-23T09:25:53Z</time>
      </trkpt>
      <trkpt lat="44.91594" lon="4.1793">
        <ele>1561.572998</ele>
        <time>2009-07-23T09:25:59Z</time>
      </trkpt>
      <trkpt lat="44.91596" lon="4.17917">
        <ele>1561.356201</ele>
        <time>2009-07-23T09:26:09Z</time>
      </trkpt>
      <trkpt lat="44.91596" lon="4.17902">
        <ele>1561.507935</ele>
        <time>2009-07-23T09:26:18Z</time>
      </trkpt>
      <trkpt lat="44.91599" lon="4.17889">
        <ele>1560.98584</ele>
        <time>2009-07-23T09:26:31Z</time>
      </trkpt>
      <trkpt lat="44.9159" lon="4.1789">
        <ele>1562.82959</ele>
        <time>2009-07-23T09:27:43Z</time>
      </trkpt>
      <trkpt lat="44.91583" lon="4.179">
        <ele>1563.897827</ele>
        <time>2009-07-23T09:39:31Z</time>
      </trkpt>
      <trkpt lat="44.91581" lon="4.17887">
        <ele>1564.319092</ele>
        <time>2009-07-23T09:41:39Z</time>
      </trkpt>
      <trkpt lat="44.91572" lon="4.17891">
        <ele>1565.045166</ele>
        <time>2009-07-23T09:41:59Z</time>
      </trkpt>
      <trkpt lat="44.91564" lon="4.179">
        <ele>1565.70166</ele>
        <time>2009-07-23T09:42:11Z</time>
      </trkpt>
      <trkpt lat="44.91555" lon="4.17905">
        <ele>1566.473022</ele>
        <time>2009-07-23T09:42:20Z</time>
      </trkpt>
      <trkpt lat="44.91549" lon="4.17917">
        <ele>1566.944336</ele>
        <time>2009-07-23T09:42:34Z</time>
      </trkpt>
      <trkpt lat="44.9154" lon="4.17923">
        <ele>1567.808594</ele>
        <time>2009-07-23T09:42:43Z</time>
      </trkpt>
      <trkpt lat="44.91534" lon="4.17933">
        <ele>1568.193726</ele>
        <time>2009-07-23T09:42:54Z</time>
      </trkpt>
      <trkpt lat="44.91526" lon="4.17943">
        <ele>1568.648682</ele>
        <time>2009-07-23T09:43:03Z</time>
      </trkpt>
      <trkpt lat="44.9152" lon="4.17954">
        <ele>1569.159546</ele>
        <time>2009-07-23T09:43:14Z</time>
      </trkpt>
      <trkpt lat="44.91513" lon="4.17963">
        <ele>1569.826172</ele>
        <time>2009-07-23T09:43:22Z</time>
      </trkpt>
      <trkpt lat="44.91505" lon="4.17969">
        <ele>1570.473633</ele>
        <time>2009-07-23T09:43:29Z</time>
      </trkpt>
      <trkpt lat="44.91501" lon="4.17982">
        <ele>1570.973877</ele>
        <time>2009-07-23T09:43:39Z</time>
      </trkpt>
      <trkpt lat="44.91495" lon="4.17993">
        <ele>1571.456299</ele>
        <time>2009-07-23T09:43:50Z</time>
      </trkpt>
      <trkpt lat="44.91488" lon="4.18003">
        <ele>1571.865234</ele>
        <time>2009-07-23T09:44:02Z</time>
      </trkpt>
      <trkpt lat="44.91482" lon="4.18014">
        <ele>1572.17395</ele>
        <time>2009-07-23T09:44:13Z</time>
      </trkpt>
      <trkpt lat="44.91474" lon="4.18023">
        <ele>1572.719971</ele>
        <time>2009-07-23T09:44:22Z</time>
      </trkpt>
      <trkpt lat="44.91469" lon="4.18035">
        <ele>1573.405029</ele>
        <time>2009-07-23T09:44:33Z</time>
      </trkpt>
      <trkpt lat="44.91463" lon="4.18045">
        <ele>1574.048706</ele>
        <time>2009-07-23T09:44:41Z</time>
      </trkpt>
      <trkpt lat="44.91456" lon="4.18056">
        <ele>1574.709961</ele>
        <time>2009-07-23T09:44:51Z</time>
      </trkpt>
      <trkpt lat="44.9145" lon="4.18067">
        <ele>1575.368774</ele>
        <time>2009-07-23T09:45:00Z</time>
      </trkpt>
      <trkpt lat="44.91444" lon="4.18078">
        <ele>1576.035889</ele>
        <time>2009-07-23T09:45:09Z</time>
      </trkpt>
      <trkpt lat="44.91442" lon="4.18091">
        <ele>1577.214111</ele>
        <time>2009-07-23T09:45:21Z</time>
      </trkpt>
      <trkpt lat="44.91437" lon="4.18103">
        <ele>1578.394165</ele>
        <time>2009-07-23T09:45:31Z</time>
      </trkpt>
      <trkpt lat="44.91429" lon="4.18109">
        <ele>1579.387085</ele>
        <time>2009-07-23T09:45:37Z</time>
      </trkpt>
      <trkpt lat="44.91422" lon="4.1812">
        <ele>1580.7323</ele>
        <time>2009-07-23T09:45:45Z</time>
      </trkpt>
      <trkpt lat="44.91416" lon="4.18131">
        <ele>1582.024414</ele>
        <time>2009-07-23T09:45:53Z</time>
      </trkpt>
      <trkpt lat="44.91411" lon="4.18142">
        <ele>1583.39502</ele>
        <time>2009-07-23T09:46:02Z</time>
      </trkpt>
      <trkpt lat="44.91406" lon="4.18154">
        <ele>1584.430054</ele>
        <time>2009-07-23T09:46:11Z</time>
      </trkpt>
      <trkpt lat="44.914" lon="4.18166">
        <ele>1585.60498</ele>
        <time>2009-07-23T09:46:22Z</time>
      </trkpt>
      <trkpt lat="44.91393" lon="4.18176">
        <ele>1586.344238</ele>
        <time>2009-07-23T09:46:29Z</time>
      </trkpt>
      <trkpt lat="44.91387" lon="4.18188">
        <ele>1587.278687</ele>
        <time>2009-07-23T09:46:37Z</time>
      </trkpt>
      <trkpt lat="44.91384" lon="4.18201">
        <ele>1588.180176</ele>
        <time>2009-07-23T09:46:47Z</time>
      </trkpt>
      <trkpt lat="44.91378" lon="4.18213">
        <ele>1589.137573</ele>
        <time>2009-07-23T09:46:57Z</time>
      </trkpt>
      <trkpt lat="44.91371" lon="4.18224">
        <ele>1589.98999</ele>
        <time>2009-07-23T09:47:12Z</time>
      </trkpt>
      <trkpt lat="44.91363" lon="4.18232">
        <ele>1590.67749</ele>
        <time>2009-07-23T09:47:19Z</time>
      </trkpt>
      <trkpt lat="44.91356" lon="4.18242">
        <ele>1591.469971</ele>
        <time>2009-07-23T09:47:29Z</time>
      </trkpt>
      <trkpt lat="44.91348" lon="4.18248">
        <ele>1591.932007</ele>
        <time>2009-07-23T09:47:38Z</time>
      </trkpt>
      <trkpt lat="44.9134" lon="4.18258">
        <ele>1592.57251</ele>
        <time>2009-07-23T09:47:51Z</time>
      </trkpt>
      <trkpt lat="44.91334" lon="4.18268">
        <ele>1593.324707</ele>
        <time>2009-07-23T09:47:56Z</time>
      </trkpt>
      <trkpt lat="44.91332" lon="4.18283">
        <ele>1594.566895</ele>
        <time>2009-07-23T09:48:11Z</time>
      </trkpt>
      <trkpt lat="44.91323" lon="4.18291">
        <ele>1595.37085</ele>
        <time>2009-07-23T09:48:16Z</time>
      </trkpt>
      <trkpt lat="44.91315" lon="4.18301">
        <ele>1596.451172</ele>
        <time>2009-07-23T09:48:33Z</time>
      </trkpt>
      <trkpt lat="44.91309" lon="4.18313">
        <ele>1597.653931</ele>
        <time>2009-07-23T09:48:44Z</time>
      </trkpt>
      <trkpt lat="44.91305" lon="4.18325">
        <ele>1598.819946</ele>
        <time>2009-07-23T09:48:54Z</time>
      </trkpt>
      <trkpt lat="44.91295" lon="4.18332">
        <ele>1599.643921</ele>
        <time>2009-07-23T09:49:04Z</time>
      </trkpt>
      <trkpt lat="44.91285" lon="4.18338">
        <ele>1600.430542</ele>
        <time>2009-07-23T09:49:14Z</time>
      </trkpt>
      <trkpt lat="44.91277" lon="4.18346">
        <ele>1601.47583</ele>
        <time>2009-07-23T09:49:30Z</time>
      </trkpt>
      <trkpt lat="44.91269" lon="4.18356">
        <ele>1602.779297</ele>
        <time>2009-07-23T09:49:40Z</time>
      </trkpt>
      <trkpt lat="44.9126" lon="4.18363">
        <ele>1603.699951</ele>
        <time>2009-07-23T09:49:50Z</time>
      </trkpt>
      <trkpt lat="44.91253" lon="4.18372">
        <ele>1604.97998</ele>
        <time>2009-07-23T09:50:01Z</time>
      </trkpt>
      <trkpt lat="44.91246" lon="4.18381">
        <ele>1606.150024</ele>
        <time>2009-07-23T09:50:10Z</time>
      </trkpt>
      <trkpt lat="44.91239" lon="4.1839">
        <ele>1607.337524</ele>
        <time>2009-07-23T09:50:21Z</time>
      </trkpt>
      <trkpt lat="44.91234" lon="4.18401">
        <ele>1608.901245</ele>
        <time>2009-07-23T09:50:30Z</time>
      </trkpt>
      <trkpt lat="44.91227" lon="4.1841">
        <ele>1610.217529</ele>
        <time>2009-07-23T09:50:39Z</time>
      </trkpt>
      <trkpt lat="44.91222" lon="4.18422">
        <ele>1611.905029</ele>
        <time>2009-07-23T09:50:53Z</time>
      </trkpt>
      <trkpt lat="44.91213" lon="4.18427">
        <ele>1612.665039</ele>
        <time>2009-07-23T09:50:58Z</time>
      </trkpt>
      <trkpt lat="44.9121" lon="4.1844">
        <ele>1614.412476</ele>
        <time>2009-07-23T09:51:16Z</time>
      </trkpt>
      <trkpt lat="44.91206" lon="4.18451">
        <ele>1615.974976</ele>
        <time>2009-07-23T09:51:31Z</time>
      </trkpt>
      <trkpt lat="44.91199" lon="4.18466">
        <ele>1617.67749</ele>
        <time>2009-07-23T09:51:40Z</time>
      </trkpt>
      <trkpt lat="44.9119" lon="4.18473">
        <ele>1618.41748</ele>
        <time>2009-07-23T09:51:49Z</time>
      </trkpt>
      <trkpt lat="44.91186" lon="4.18486">
        <ele>1619.94751</ele>
        <time>2009-07-23T09:51:58Z</time>
      </trkpt>
      <trkpt lat="44.9118" lon="4.18497">
        <ele>1621.3125</ele>
        <time>2009-07-23T09:52:07Z</time>
      </trkpt>
      <trkpt lat="44.91174" lon="4.18509">
        <ele>1622.690063</ele>
        <time>2009-07-23T09:52:16Z</time>
      </trkpt>
      <trkpt lat="44.91176" lon="4.18522">
        <ele>1624.579956</ele>
        <time>2009-07-23T09:52:32Z</time>
      </trkpt>
      <trkpt lat="44.91172" lon="4.18535">
        <ele>1626.311279</ele>
        <time>2009-07-23T09:52:44Z</time>
      </trkpt>
      <trkpt lat="44.91163" lon="4.18544">
        <ele>1627.444946</ele>
        <time>2009-07-23T09:52:52Z</time>
      </trkpt>
      <trkpt lat="44.91155" lon="4.18553">
        <ele>1628.569946</ele>
        <time>2009-07-23T09:53:03Z</time>
      </trkpt>
      <trkpt lat="44.91148" lon="4.18561">
        <ele>1629.594971</ele>
        <time>2009-07-23T09:53:15Z</time>
      </trkpt>
      <trkpt lat="44.9114" lon="4.18571">
        <ele>1630.882568</ele>
        <time>2009-07-23T09:53:30Z</time>
      </trkpt>
      <trkpt lat="44.91133" lon="4.1858">
        <ele>1632.068237</ele>
        <time>2009-07-23T09:53:39Z</time>
      </trkpt>
      <trkpt lat="44.91125" lon="4.18587">
        <ele>1632.934692</ele>
        <time>2009-07-23T09:53:46Z</time>
      </trkpt>
      <trkpt lat="44.91121" lon="4.18601">
        <ele>1634.724976</ele>
        <time>2009-07-23T09:53:58Z</time>
      </trkpt>
      <trkpt lat="44.91114" lon="4.1861">
        <ele>1635.731201</ele>
        <time>2009-07-23T09:54:06Z</time>
      </trkpt>
      <trkpt lat="44.91114" lon="4.18623">
        <ele>1637.665039</ele>
        <time>2009-07-23T09:54:28Z</time>
      </trkpt>
      <trkpt lat="44.91121" lon="4.18632">
        <ele>1639.227539</ele>
        <time>2009-07-23T09:54:41Z</time>
      </trkpt>
      <trkpt lat="44.9113" lon="4.1864">
        <ele>1640.790161</ele>
        <time>2009-07-23T09:54:50Z</time>
      </trkpt>
      <trkpt lat="44.91129" lon="4.18654">
        <ele>1642.9375</ele>
        <time>2009-07-23T09:55:07Z</time>
      </trkpt>
      <trkpt lat="44.91133" lon="4.18665">
        <ele>1645.044678</ele>
        <time>2009-07-23T09:55:21Z</time>
      </trkpt>
      <trkpt lat="44.9114" lon="4.18675">
        <ele>1646.987671</ele>
        <time>2009-07-23T09:55:30Z</time>
      </trkpt>
      <trkpt lat="44.91149" lon="4.18679">
        <ele>1648.063232</ele>
        <time>2009-07-23T09:56:12Z</time>
      </trkpt>
      <trkpt lat="44.91151" lon="4.18692">
        <ele>1650.486084</ele>
        <time>2009-07-23T09:56:44Z</time>
      </trkpt>
      <trkpt lat="44.91157" lon="4.18704">
        <ele>1652.837524</ele>
        <time>2009-07-23T09:57:00Z</time>
      </trkpt>
      <trkpt lat="44.91161" lon="4.18716">
        <ele>1655.26001</ele>
        <time>2009-07-23T09:57:15Z</time>
      </trkpt>
      <trkpt lat="44.91164" lon="4.18729">
        <ele>1657.657471</ele>
        <time>2009-07-23T09:57:36Z</time>
      </trkpt>
      <trkpt lat="44.91163" lon="4.18743">
        <ele>1659.941284</ele>
        <time>2009-07-23T09:57:56Z</time>
      </trkpt>
      <trkpt lat="44.91162" lon="4.18756">
        <ele>1662.217529</ele>
        <time>2009-07-23T09:58:13Z</time>
      </trkpt>
      <trkpt lat="44.91164" lon="4.18769">
        <ele>1664.61499</ele>
        <time>2009-07-23T09:58:27Z</time>
      </trkpt>
      <trkpt lat="44.9116" lon="4.18781">
        <ele>1666.721069</ele>
        <time>2009-07-23T09:58:43Z</time>
      </trkpt>
      <trkpt lat="44.91157" lon="4.18794">
        <ele>1668.935547</ele>
        <time>2009-07-23T09:58:56Z</time>
      </trkpt>
      <trkpt lat="44.91157" lon="4.18807">
        <ele>1671.472534</ele>
        <time>2009-07-23T09:59:11Z</time>
      </trkpt>
      <trkpt lat="44.91162" lon="4.18819">
        <ele>1674.073853</ele>
        <time>2009-07-23T09:59:24Z</time>
      </trkpt>
      <trkpt lat="44.91168" lon="4.18831">
        <ele>1676.829346</ele>
        <time>2009-07-23T09:59:40Z</time>
      </trkpt>
      <trkpt lat="44.91171" lon="4.18843">
        <ele>1679.856201</ele>
        <time>2009-07-23T10:00:39Z</time>
      </trkpt>
      <trkpt lat="44.91167" lon="4.18856">
        <ele>1682.351196</ele>
        <time>2009-07-23T10:00:56Z</time>
      </trkpt>
      <trkpt lat="44.91165" lon="4.18869">
        <ele>1685.178345</ele>
        <time>2009-07-23T10:01:16Z</time>
      </trkpt>
      <trkpt lat="44.91162" lon="4.18883">
        <ele>1687.959961</ele>
        <time>2009-07-23T10:01:30Z</time>
      </trkpt>
      <trkpt lat="44.9116" lon="4.18895">
        <ele>1690.736572</ele>
        <time>2009-07-23T10:01:46Z</time>
      </trkpt>
      <trkpt lat="44.91165" lon="4.18906">
        <ele>1693.963257</ele>
        <time>2009-07-23T10:02:02Z</time>
      </trkpt>
      <trkpt lat="44.91174" lon="4.18911">
        <ele>1695.748535</ele>
        <time>2009-07-23T10:02:31Z</time>
      </trkpt>
      <trkpt lat="44.91184" lon="4.18914">
        <ele>1696.774536</ele>
        <time>2009-07-23T10:02:47Z</time>
      </trkpt>
      <trkpt lat="44.91193" lon="4.18919">
        <ele>1698.158447</ele>
        <time>2009-07-23T10:03:00Z</time>
      </trkpt>
      <trkpt lat="44.91201" lon="4.18926">
        <ele>1700.0354</ele>
        <time>2009-07-23T10:03:13Z</time>
      </trkpt>
      <trkpt lat="44.9121" lon="4.1893">
        <ele>1701.411011</ele>
        <time>2009-07-23T10:03:25Z</time>
      </trkpt>
      <trkpt lat="44.9122" lon="4.18932">
        <ele>1702.471558</ele>
        <time>2009-07-23T10:03:38Z</time>
      </trkpt>
      <trkpt lat="44.9123" lon="4.18933">
        <ele>1703.361816</ele>
        <time>2009-07-23T10:03:50Z</time>
      </trkpt>
      <trkpt lat="44.91239" lon="4.18937">
        <ele>1704.9104</ele>
        <time>2009-07-23T10:04:04Z</time>
      </trkpt>
      <trkpt lat="44.91248" lon="4.18941">
        <ele>1706.310059</ele>
        <time>2009-07-23T10:04:16Z</time>
      </trkpt>
      <trkpt lat="44.91258" lon="4.18939">
        <ele>1706.762573</ele>
        <time>2009-07-23T10:04:32Z</time>
      </trkpt>
      <trkpt lat="44.91268" lon="4.18937">
        <ele>1707.39624</ele>
        <time>2009-07-23T10:04:48Z</time>
      </trkpt>
      <trkpt lat="44.91278" lon="4.18938">
        <ele>1708.492065</ele>
        <time>2009-07-23T10:05:03Z</time>
      </trkpt>
      <trkpt lat="44.91287" lon="4.18937">
        <ele>1709.278687</ele>
        <time>2009-07-23T10:05:15Z</time>
      </trkpt>
      <trkpt lat="44.91297" lon="4.18937">
        <ele>1710.056641</ele>
        <time>2009-07-23T10:05:29Z</time>
      </trkpt>
      <trkpt lat="44.91307" lon="4.18936">
        <ele>1711.14856</ele>
        <time>2009-07-23T10:05:43Z</time>
      </trkpt>
      <trkpt lat="44.91317" lon="4.18937">
        <ele>1712.476929</ele>
        <time>2009-07-23T10:05:53Z</time>
      </trkpt>
      <trkpt lat="44.91326" lon="4.18937">
        <ele>1713.783325</ele>
        <time>2009-07-23T10:06:08Z</time>
      </trkpt>
      <trkpt lat="44.91336" lon="4.18942">
        <ele>1715.628052</ele>
        <time>2009-07-23T10:06:20Z</time>
      </trkpt>
      <trkpt lat="44.91343" lon="4.18953">
        <ele>1717.92749</ele>
        <time>2009-07-23T10:06:40Z</time>
      </trkpt>
      <trkpt lat="44.91347" lon="4.18965">
        <ele>1719.459473</ele>
        <time>2009-07-23T10:06:55Z</time>
      </trkpt>
      <trkpt lat="44.91352" lon="4.18977">
        <ele>1719.807983</ele>
        <time>2009-07-23T10:07:09Z</time>
      </trkpt>
      <trkpt lat="44.91354" lon="4.1899">
        <ele>1719.855225</ele>
        <time>2009-07-23T10:07:24Z</time>
      </trkpt>
      <trkpt lat="44.91358" lon="4.19002">
        <ele>1719.687988</ele>
        <time>2009-07-23T10:07:41Z</time>
      </trkpt>
      <trkpt lat="44.91366" lon="4.19009">
        <ele>1719.180786</ele>
        <time>2009-07-23T10:07:58Z</time>
      </trkpt>
      <trkpt lat="44.91372" lon="4.1902">
        <ele>1718.374634</ele>
        <time>2009-07-23T10:08:21Z</time>
      </trkpt>
      <trkpt lat="44.91382" lon="4.19019">
        <ele>1717.74231</ele>
        <time>2009-07-23T10:08:36Z</time>
      </trkpt>
      <trkpt lat="44.9139" lon="4.19012">
        <ele>1716.543213</ele>
        <time>2009-07-23T10:08:51Z</time>
      </trkpt>
      <trkpt lat="44.91398" lon="4.19005">
        <ele>1714.768433</ele>
        <time>2009-07-23T10:09:06Z</time>
      </trkpt>
      <trkpt lat="44.91405" lon="4.18995">
        <ele>1713.928467</ele>
        <time>2009-07-23T10:09:24Z</time>
      </trkpt>
      <trkpt lat="44.91412" lon="4.19005">
        <ele>1710.869507</ele>
        <time>2009-07-23T10:10:02Z</time>
      </trkpt>
      <trkpt lat="44.91421" lon="4.19001">
        <ele>1708.797119</ele>
        <time>2009-07-23T10:10:21Z</time>
      </trkpt>
      <trkpt lat="44.91418" lon="4.19014">
        <ele>1707.740112</ele>
        <time>2009-07-23T10:15:17Z</time>
      </trkpt>
      <trkpt lat="44.91411" lon="4.19023">
        <ele>1708.710449</ele>
        <time>2009-07-23T10:15:34Z</time>
      </trkpt>
      <trkpt lat="44.91403" lon="4.1903">
        <ele>1710.478882</ele>
        <time>2009-07-23T10:16:12Z</time>
      </trkpt>
      <trkpt lat="44.91396" lon="4.1904">
        <ele>1711.045898</ele>
        <time>2009-07-23T10:16:27Z</time>
      </trkpt>
      <trkpt lat="44.91388" lon="4.19046">
        <ele>1712.653931</ele>
        <time>2009-07-23T10:16:39Z</time>
      </trkpt>
      <trkpt lat="44.9138" lon="4.19053">
        <ele>1713.112549</ele>
        <time>2009-07-23T10:16:47Z</time>
      </trkpt>
      <trkpt lat="44.91372" lon="4.19061">
        <ele>1712.67395</ele>
        <time>2009-07-23T10:16:55Z</time>
      </trkpt>
      <trkpt lat="44.91364" lon="4.19069">
        <ele>1712.530273</ele>
        <time>2009-07-23T10:17:06Z</time>
      </trkpt>
      <trkpt lat="44.91354" lon="4.19074">
        <ele>1712.877441</ele>
        <time>2009-07-23T10:17:15Z</time>
      </trkpt>
      <trkpt lat="44.91346" lon="4.19082">
        <ele>1712.80957</ele>
        <time>2009-07-23T10:17:26Z</time>
      </trkpt>
      <trkpt lat="44.91338" lon="4.19088">
        <ele>1712.955566</ele>
        <time>2009-07-23T10:17:36Z</time>
      </trkpt>
      <trkpt lat="44.91329" lon="4.19095">
        <ele>1712.500122</ele>
        <time>2009-07-23T10:17:44Z</time>
      </trkpt>
      <trkpt lat="44.9132" lon="4.19101">
        <ele>1712.18457</ele>
        <time>2009-07-23T10:17:51Z</time>
      </trkpt>
      <trkpt lat="44.91312" lon="4.19109">
        <ele>1711.633179</ele>
        <time>2009-07-23T10:18:00Z</time>
      </trkpt>
      <trkpt lat="44.91304" lon="4.19115">
        <ele>1711.420776</ele>
        <time>2009-07-23T10:18:08Z</time>
      </trkpt>
      <trkpt lat="44.91294" lon="4.19122">
        <ele>1711.416992</ele>
        <time>2009-07-23T10:18:18Z</time>
      </trkpt>
      <trkpt lat="44.91286" lon="4.19128">
        <ele>1711.938477</ele>
        <time>2009-07-23T10:18:25Z</time>
      </trkpt>
      <trkpt lat="44.91277" lon="4.19132">
        <ele>1713.076172</ele>
        <time>2009-07-23T10:18:35Z</time>
      </trkpt>
      <trkpt lat="44.91268" lon="4.19136">
        <ele>1714.572021</ele>
        <time>2009-07-23T10:18:45Z</time>
      </trkpt>
      <trkpt lat="44.91257" lon="4.19138">
        <ele>1716.442017</ele>
        <time>2009-07-23T10:18:56Z</time>
      </trkpt>
      <trkpt lat="44.91247" lon="4.19139">
        <ele>1718.426636</ele>
        <time>2009-07-23T10:19:06Z</time>
      </trkpt>
      <trkpt lat="44.91238" lon="4.19139">
        <ele>1719.827515</ele>
        <time>2009-07-23T10:19:15Z</time>
      </trkpt>
      <trkpt lat="44.91229" lon="4.19133">
        <ele>1721.277222</ele>
        <time>2009-07-23T10:19:30Z</time>
      </trkpt>
      <trkpt lat="44.91219" lon="4.19131">
        <ele>1722.697876</ele>
        <time>2009-07-23T10:19:48Z</time>
      </trkpt>
      <trkpt lat="44.91209" lon="4.19131">
        <ele>1724.074463</ele>
        <time>2009-07-23T10:19:59Z</time>
      </trkpt>
      <trkpt lat="44.91199" lon="4.19133">
        <ele>1725.407593</ele>
        <time>2009-07-23T10:20:10Z</time>
      </trkpt>
      <trkpt lat="44.9119" lon="4.19133">
        <ele>1726.427979</ele>
        <time>2009-07-23T10:20:21Z</time>
      </trkpt>
      <trkpt lat="44.91179" lon="4.19133">
        <ele>1727.523315</ele>
        <time>2009-07-23T10:20:33Z</time>
      </trkpt>
      <trkpt lat="44.9117" lon="4.19131">
        <ele>1728.515991</ele>
        <time>2009-07-23T10:20:46Z</time>
      </trkpt>
      <trkpt lat="44.9116" lon="4.19128">
        <ele>1729.505371</ele>
        <time>2009-07-23T10:20:57Z</time>
      </trkpt>
      <trkpt lat="44.91151" lon="4.19123">
        <ele>1730.48877</ele>
        <time>2009-07-23T10:21:11Z</time>
      </trkpt>
      <trkpt lat="44.91141" lon="4.19121">
        <ele>1731.526245</ele>
        <time>2009-07-23T10:21:43Z</time>
      </trkpt>
      <trkpt lat="44.91133" lon="4.19114">
        <ele>1732.368774</ele>
        <time>2009-07-23T10:21:57Z</time>
      </trkpt>
      <trkpt lat="44.91125" lon="4.19107">
        <ele>1733.19751</ele>
        <time>2009-07-23T10:22:12Z</time>
      </trkpt>
      <trkpt lat="44.91116" lon="4.19103">
        <ele>1734.131226</ele>
        <time>2009-07-23T10:22:24Z</time>
      </trkpt>
      <trkpt lat="44.91109" lon="4.19094">
        <ele>1734.422485</ele>
        <time>2009-07-23T10:22:38Z</time>
      </trkpt>
      <trkpt lat="44.911" lon="4.19087">
        <ele>1734.69043</ele>
        <time>2009-07-23T10:24:08Z</time>
      </trkpt>
      <trkpt lat="44.91105" lon="4.19099">
        <ele>1734.617554</ele>
        <time>2009-07-23T10:26:27Z</time>
      </trkpt>
      <trkpt lat="44.91114" lon="4.19104">
        <ele>1734.283691</ele>
        <time>2009-07-23T10:26:44Z</time>
      </trkpt>
      <trkpt lat="44.91123" lon="4.1911">
        <ele>1733.377441</ele>
        <time>2009-07-23T10:27:03Z</time>
      </trkpt>
      <trkpt lat="44.91132" lon="4.19114">
        <ele>1732.444946</ele>
        <time>2009-07-23T10:27:19Z</time>
      </trkpt>
      <trkpt lat="44.91141" lon="4.19121">
        <ele>1731.526245</ele>
        <time>2009-07-23T10:27:37Z</time>
      </trkpt>
      <trkpt lat="44.9115" lon="4.19126">
        <ele>1730.607544</ele>
        <time>2009-07-23T10:27:57Z</time>
      </trkpt>
      <trkpt lat="44.91159" lon="4.19132">
        <ele>1729.67981</ele>
        <time>2009-07-23T10:28:13Z</time>
      </trkpt>
      <trkpt lat="44.91169" lon="4.19132">
        <ele>1728.682129</ele>
        <time>2009-07-23T10:28:31Z</time>
      </trkpt>
      <trkpt lat="44.91178" lon="4.19136">
        <ele>1727.738892</ele>
        <time>2009-07-23T10:28:43Z</time>
      </trkpt>
      <trkpt lat="44.91187" lon="4.19136">
        <ele>1726.719116</ele>
        <time>2009-07-23T10:28:54Z</time>
      </trkpt>
      <trkpt lat="44.91197" lon="4.19133">
        <ele>1725.683472</ele>
        <time>2009-07-23T10:29:05Z</time>
      </trkpt>
      <trkpt lat="44.91206" lon="4.19132">
        <ele>1724.543091</ele>
        <time>2009-07-23T10:29:14Z</time>
      </trkpt>
      <trkpt lat="44.91216" lon="4.19132">
        <ele>1723.134644</ele>
        <time>2009-07-23T10:29:27Z</time>
      </trkpt>
      <trkpt lat="44.91225" lon="4.19136">
        <ele>1721.793823</ele>
        <time>2009-07-23T10:29:45Z</time>
      </trkpt>
      <trkpt lat="44.91234" lon="4.19142">
        <ele>1720.317993</ele>
        <time>2009-07-23T10:30:00Z</time>
      </trkpt>
      <trkpt lat="44.91243" lon="4.19143">
        <ele>1718.847656</ele>
        <time>2009-07-23T10:30:11Z</time>
      </trkpt>
      <trkpt lat="44.91251" lon="4.19134">
        <ele>1717.872803</ele>
        <time>2009-07-23T10:30:23Z</time>
      </trkpt>
      <trkpt lat="44.91259" lon="4.19124">
        <ele>1716.844971</ele>
        <time>2009-07-23T10:30:34Z</time>
      </trkpt>
      <trkpt lat="44.91264" lon="4.19113">
        <ele>1716.788574</ele>
        <time>2009-07-23T10:30:44Z</time>
      </trkpt>
      <trkpt lat="44.91266" lon="4.19098">
        <ele>1717.59729</ele>
        <time>2009-07-23T10:30:54Z</time>
      </trkpt>
      <trkpt lat="44.91269" lon="4.19085">
        <ele>1718.167725</ele>
        <time>2009-07-23T10:31:04Z</time>
      </trkpt>
      <trkpt lat="44.91272" lon="4.19072">
        <ele>1717.972412</ele>
        <time>2009-07-23T10:31:13Z</time>
      </trkpt>
      <trkpt lat="44.91274" lon="4.19059">
        <ele>1717.93042</ele>
        <time>2009-07-23T10:31:22Z</time>
      </trkpt>
      <trkpt lat="44.91275" lon="4.19044">
        <ele>1717.993042</ele>
        <time>2009-07-23T10:31:32Z</time>
      </trkpt>
      <trkpt lat="44.91276" lon="4.19031">
        <ele>1718.094604</ele>
        <time>2009-07-23T10:31:43Z</time>
      </trkpt>
      <trkpt lat="44.91276" lon="4.19017">
        <ele>1717.736206</ele>
        <time>2009-07-23T10:31:52Z</time>
      </trkpt>
      <trkpt lat="44.91275" lon="4.19004">
        <ele>1716.377075</ele>
        <time>2009-07-23T10:32:02Z</time>
      </trkpt>
      <trkpt lat="44.91276" lon="4.1899">
        <ele>1715.099609</ele>
        <time>2009-07-23T10:32:11Z</time>
      </trkpt>
      <trkpt lat="44.91271" lon="4.18978">
        <ele>1713.671631</ele>
        <time>2009-07-23T10:32:22Z</time>
      </trkpt>
      <trkpt lat="44.91264" lon="4.1897">
        <ele>1712.298462</ele>
        <time>2009-07-23T10:32:36Z</time>
      </trkpt>
      <trkpt lat="44.91258" lon="4.18959">
        <ele>1710.695313</ele>
        <time>2009-07-23T10:32:55Z</time>
      </trkpt>
      <trkpt lat="44.91256" lon="4.18946">
        <ele>1707.857056</ele>
        <time>2009-07-23T10:33:11Z</time>
      </trkpt>
      <trkpt lat="44.91248" lon="4.18939">
        <ele>1705.893311</ele>
        <time>2009-07-23T10:33:24Z</time>
      </trkpt>
      <trkpt lat="44.91239" lon="4.18933">
        <ele>1704.015015</ele>
        <time>2009-07-23T10:33:33Z</time>
      </trkpt>
      <trkpt lat="44.9123" lon="4.18929">
        <ele>1702.595093</ele>
        <time>2009-07-23T10:33:44Z</time>
      </trkpt>
      <trkpt lat="44.9122" lon="4.18928">
        <ele>1701.726685</ele>
        <time>2009-07-23T10:33:52Z</time>
      </trkpt>
      <trkpt lat="44.9121" lon="4.18926">
        <ele>1700.410522</ele>
        <time>2009-07-23T10:34:02Z</time>
      </trkpt>
      <trkpt lat="44.91203" lon="4.18917">
        <ele>1698.082153</ele>
        <time>2009-07-23T10:34:12Z</time>
      </trkpt>
      <trkpt lat="44.91193" lon="4.18912">
        <ele>1696.692139</ele>
        <time>2009-07-23T10:34:21Z</time>
      </trkpt>
      <trkpt lat="44.91185" lon="4.18909">
        <ele>1695.463623</ele>
        <time>2009-07-23T10:34:30Z</time>
      </trkpt>
      <trkpt lat="44.91174" lon="4.18909">
        <ele>1695.036011</ele>
        <time>2009-07-23T10:34:42Z</time>
      </trkpt>
      <trkpt lat="44.91166" lon="4.18902">
        <ele>1693.036743</ele>
        <time>2009-07-23T10:34:53Z</time>
      </trkpt>
      <trkpt lat="44.91163" lon="4.18889">
        <ele>1689.443848</ele>
        <time>2009-07-23T10:35:10Z</time>
      </trkpt>
      <trkpt lat="44.91165" lon="4.18875">
        <ele>1686.562622</ele>
        <time>2009-07-23T10:35:23Z</time>
      </trkpt>
      <trkpt lat="44.91165" lon="4.18861">
        <ele>1683.401733</ele>
        <time>2009-07-23T10:35:37Z</time>
      </trkpt>
      <trkpt lat="44.91169" lon="4.18848">
        <ele>1680.709961</ele>
        <time>2009-07-23T10:35:49Z</time>
      </trkpt>
      <trkpt lat="44.91161" lon="4.1884">
        <ele>1678.27002</ele>
        <time>2009-07-23T10:35:59Z</time>
      </trkpt>
      <trkpt lat="44.91151" lon="4.18836">
        <ele>1676.675049</ele>
        <time>2009-07-23T10:36:09Z</time>
      </trkpt>
      <trkpt lat="44.91142" lon="4.18837">
        <ele>1676.10498</ele>
        <time>2009-07-23T10:36:18Z</time>
      </trkpt>
      <trkpt lat="44.91132" lon="4.1884">
        <ele>1675.869995</ele>
        <time>2009-07-23T10:36:28Z</time>
      </trkpt>
      <trkpt lat="44.91122" lon="4.18837">
        <ele>1674.484985</ele>
        <time>2009-07-23T10:36:39Z</time>
      </trkpt>
      <trkpt lat="44.91113" lon="4.18833">
        <ele>1672.949951</ele>
        <time>2009-07-23T10:36:49Z</time>
      </trkpt>
      <trkpt lat="44.91105" lon="4.18826">
        <ele>1670.706421</ele>
        <time>2009-07-23T10:36:59Z</time>
      </trkpt>
      <trkpt lat="44.91096" lon="4.18819">
        <ele>1668.801636</ele>
        <time>2009-07-23T10:37:11Z</time>
      </trkpt>
      <trkpt lat="44.91087" lon="4.18814">
        <ele>1667.15625</ele>
        <time>2009-07-23T10:37:23Z</time>
      </trkpt>
      <trkpt lat="44.9108" lon="4.18805">
        <ele>1665.150391</ele>
        <time>2009-07-23T10:37:32Z</time>
      </trkpt>
      <trkpt lat="44.91071" lon="4.18798">
        <ele>1663.507446</ele>
        <time>2009-07-23T10:37:43Z</time>
      </trkpt>
      <trkpt lat="44.91065" lon="4.18787">
        <ele>1661.252441</ele>
        <time>2009-07-23T10:37:55Z</time>
      </trkpt>
      <trkpt lat="44.91055" lon="4.18784">
        <ele>1660.232544</ele>
        <time>2009-07-23T10:38:03Z</time>
      </trkpt>
      <trkpt lat="44.91047" lon="4.18777">
        <ele>1658.58252</ele>
        <time>2009-07-23T10:38:11Z</time>
      </trkpt>
      <trkpt lat="44.91037" lon="4.18775">
        <ele>1657.70752</ele>
        <time>2009-07-23T10:38:18Z</time>
      </trkpt>
      <trkpt lat="44.91028" lon="4.18769">
        <ele>1656.252197</ele>
        <time>2009-07-23T10:38:25Z</time>
      </trkpt>
      <trkpt lat="44.91017" lon="4.18767">
        <ele>1655.104004</ele>
        <time>2009-07-23T10:38:34Z</time>
      </trkpt>
      <trkpt lat="44.91006" lon="4.18771">
        <ele>1655.069458</ele>
        <time>2009-07-23T10:38:43Z</time>
      </trkpt>
      <trkpt lat="44.90997" lon="4.18775">
        <ele>1654.892456</ele>
        <time>2009-07-23T10:38:52Z</time>
      </trkpt>
      <trkpt lat="44.90988" lon="4.18778">
        <ele>1654.714966</ele>
        <time>2009-07-23T10:39:01Z</time>
      </trkpt>
      <trkpt lat="44.90978" lon="4.18784">
        <ele>1654.619995</ele>
        <time>2009-07-23T10:39:11Z</time>
      </trkpt>
      <trkpt lat="44.90973" lon="4.18796">
        <ele>1655.630005</ele>
        <time>2009-07-23T10:39:20Z</time>
      </trkpt>
      <trkpt lat="44.90966" lon="4.18805">
        <ele>1656.310059</ele>
        <time>2009-07-23T10:39:29Z</time>
      </trkpt>
      <trkpt lat="44.90955" lon="4.18805">
        <ele>1655.319946</ele>
        <time>2009-07-23T10:39:37Z</time>
      </trkpt>
      <trkpt lat="44.90945" lon="4.18805">
        <ele>1654.459961</ele>
        <time>2009-07-23T10:39:48Z</time>
      </trkpt>
      <trkpt lat="44.90936" lon="4.18808">
        <ele>1653.911255</ele>
        <time>2009-07-23T10:39:56Z</time>
      </trkpt>
      <trkpt lat="44.90927" lon="4.18813">
        <ele>1653.176025</ele>
        <time>2009-07-23T10:40:05Z</time>
      </trkpt>
      <trkpt lat="44.90916" lon="4.18815">
        <ele>1651.959839</ele>
        <time>2009-07-23T10:40:16Z</time>
      </trkpt>
      <trkpt lat="44.90907" lon="4.18812">
        <ele>1650.124756</ele>
        <time>2009-07-23T10:40:26Z</time>
      </trkpt>
      <trkpt lat="44.90897" lon="4.18806">
        <ele>1647.979492</ele>
        <time>2009-07-23T10:40:34Z</time>
      </trkpt>
      <trkpt lat="44.90888" lon="4.188">
        <ele>1645.932983</ele>
        <time>2009-07-23T10:40:44Z</time>
      </trkpt>
      <trkpt lat="44.90879" lon="4.18805">
        <ele>1645.034424</ele>
        <time>2009-07-23T10:40:58Z</time>
      </trkpt>
      <trkpt lat="44.90869" lon="4.18807">
        <ele>1643.481567</ele>
        <time>2009-07-23T10:41:26Z</time>
      </trkpt>
      <trkpt lat="44.9086" lon="4.18804">
        <ele>1641.492432</ele>
        <time>2009-07-23T10:41:33Z</time>
      </trkpt>
      <trkpt lat="44.90851" lon="4.18796">
        <ele>1639.286865</ele>
        <time>2009-07-23T10:41:42Z</time>
      </trkpt>
      <trkpt lat="44.90844" lon="4.18787">
        <ele>1637.199097</ele>
        <time>2009-07-23T10:41:51Z</time>
      </trkpt>
      <trkpt lat="44.90834" lon="4.18781">
        <ele>1635.265747</ele>
        <time>2009-07-23T10:42:01Z</time>
      </trkpt>
      <trkpt lat="44.90825" lon="4.18785">
        <ele>1634.215942</ele>
        <time>2009-07-23T10:42:09Z</time>
      </trkpt>
      <trkpt lat="44.90816" lon="4.1878">
        <ele>1632.521118</ele>
        <time>2009-07-23T10:42:18Z</time>
      </trkpt>
      <trkpt lat="44.90808" lon="4.18774">
        <ele>1630.854858</ele>
        <time>2009-07-23T10:42:28Z</time>
      </trkpt>
      <trkpt lat="44.90799" lon="4.18769">
        <ele>1629.4375</ele>
        <time>2009-07-23T10:42:42Z</time>
      </trkpt>
      <trkpt lat="44.90789" lon="4.18769">
        <ele>1628.382446</ele>
        <time>2009-07-23T10:42:54Z</time>
      </trkpt>
      <trkpt lat="44.9078" lon="4.18767">
        <ele>1627.182495</ele>
        <time>2009-07-23T10:43:04Z</time>
      </trkpt>
      <trkpt lat="44.9077" lon="4.18762">
        <ele>1625.842529</ele>
        <time>2009-07-23T10:43:14Z</time>
      </trkpt>
      <trkpt lat="44.9076" lon="4.18762">
        <ele>1624.72998</ele>
        <time>2009-07-23T10:43:23Z</time>
      </trkpt>
      <trkpt lat="44.90751" lon="4.18757">
        <ele>1623.584961</ele>
        <time>2009-07-23T10:43:33Z</time>
      </trkpt>
      <trkpt lat="44.90742" lon="4.18751">
        <ele>1622.396118</ele>
        <time>2009-07-23T10:43:43Z</time>
      </trkpt>
      <trkpt lat="44.90733" lon="4.1875">
        <ele>1621.477905</ele>
        <time>2009-07-23T10:43:49Z</time>
      </trkpt>
      <trkpt lat="44.90723" lon="4.18747">
        <ele>1620.415771</ele>
        <time>2009-07-23T10:43:58Z</time>
      </trkpt>
      <trkpt lat="44.90715" lon="4.18741">
        <ele>1619.084961</ele>
        <time>2009-07-23T10:44:07Z</time>
      </trkpt>
      <trkpt lat="44.90704" lon="4.18739">
        <ele>1618.030029</ele>
        <time>2009-07-23T10:44:14Z</time>
      </trkpt>
      <trkpt lat="44.90695" lon="4.18737">
        <ele>1617.037476</ele>
        <time>2009-07-23T10:44:20Z</time>
      </trkpt>
      <trkpt lat="44.90684" lon="4.18738">
        <ele>1616.19751</ele>
        <time>2009-07-23T10:44:28Z</time>
      </trkpt>
      <trkpt lat="44.90672" lon="4.18743">
        <ele>1615.675049</ele>
        <time>2009-07-23T10:44:41Z</time>
      </trkpt>
      <trkpt lat="44.90661" lon="4.18743">
        <ele>1614.565674</ele>
        <time>2009-07-23T10:44:51Z</time>
      </trkpt>
      <trkpt lat="44.9065" lon="4.18744">
        <ele>1613.489502</ele>
        <time>2009-07-23T10:44:58Z</time>
      </trkpt>
      <trkpt lat="44.9064" lon="4.18745">
        <ele>1612.473022</ele>
        <time>2009-07-23T10:45:06Z</time>
      </trkpt>
      <trkpt lat="44.9063" lon="4.18745">
        <ele>1611.370728</ele>
        <time>2009-07-23T10:45:15Z</time>
      </trkpt>
      <trkpt lat="44.90623" lon="4.18735">
        <ele>1609.8125</ele>
        <time>2009-07-23T10:45:29Z</time>
      </trkpt>
      <trkpt lat="44.90613" lon="4.18738">
        <ele>1608.931274</ele>
        <time>2009-07-23T10:45:35Z</time>
      </trkpt>
      <trkpt lat="44.90604" lon="4.18734">
        <ele>1607.59375</ele>
        <time>2009-07-23T10:45:45Z</time>
      </trkpt>
      <trkpt lat="44.90593" lon="4.18733">
        <ele>1606.412476</ele>
        <time>2009-07-23T10:45:54Z</time>
      </trkpt>
      <trkpt lat="44.90584" lon="4.18737">
        <ele>1605.806274</ele>
        <time>2009-07-23T10:46:04Z</time>
      </trkpt>
      <trkpt lat="44.90574" lon="4.18744">
        <ele>1605.08374</ele>
        <time>2009-07-23T10:46:13Z</time>
      </trkpt>
      <trkpt lat="44.90563" lon="4.18748">
        <ele>1603.920044</ele>
        <time>2009-07-23T10:46:24Z</time>
      </trkpt>
      <trkpt lat="44.90554" lon="4.18757">
        <ele>1603.030029</ele>
        <time>2009-07-23T10:46:34Z</time>
      </trkpt>
      <trkpt lat="44.90546" lon="4.18751">
        <ele>1601.640015</ele>
        <time>2009-07-23T10:46:46Z</time>
      </trkpt>
      <trkpt lat="44.90536" lon="4.18749">
        <ele>1600.30249</ele>
        <time>2009-07-23T10:47:01Z</time>
      </trkpt>
      <trkpt lat="44.90526" lon="4.18752">
        <ele>1598.991821</ele>
        <time>2009-07-23T10:47:13Z</time>
      </trkpt>
      <trkpt lat="44.90517" lon="4.18758">
        <ele>1597.866577</ele>
        <time>2009-07-23T10:47:23Z</time>
      </trkpt>
      <trkpt lat="44.9051" lon="4.18767">
        <ele>1597.09729</ele>
        <time>2009-07-23T10:47:32Z</time>
      </trkpt>
      <trkpt lat="44.90506" lon="4.1878">
        <ele>1597.134766</ele>
        <time>2009-07-23T10:47:41Z</time>
      </trkpt>
      <trkpt lat="44.90498" lon="4.18789">
        <ele>1596.468384</ele>
        <time>2009-07-23T10:47:53Z</time>
      </trkpt>
      <trkpt lat="44.90492" lon="4.188">
        <ele>1596.130615</ele>
        <time>2009-07-23T10:48:01Z</time>
      </trkpt>
      <trkpt lat="44.90486" lon="4.18816">
        <ele>1595.71875</ele>
        <time>2009-07-23T10:48:10Z</time>
      </trkpt>
      <trkpt lat="44.90478" lon="4.18805">
        <ele>1594.1427</ele>
        <time>2009-07-23T10:48:33Z</time>
      </trkpt>
      <trkpt lat="44.90478" lon="4.18791">
        <ele>1593.473633</ele>
        <time>2009-07-23T10:48:41Z</time>
      </trkpt>
      <trkpt lat="44.90475" lon="4.18778">
        <ele>1592.338501</ele>
        <time>2009-07-23T10:48:53Z</time>
      </trkpt>
      <trkpt lat="44.90475" lon="4.18763">
        <ele>1591.689331</ele>
        <time>2009-07-23T10:49:02Z</time>
      </trkpt>
      <trkpt lat="44.90468" lon="4.18754">
        <ele>1590.154785</ele>
        <time>2009-07-23T10:49:13Z</time>
      </trkpt>
      <trkpt lat="44.90464" lon="4.18743">
        <ele>1588.975708</ele>
        <time>2009-07-23T10:49:23Z</time>
      </trkpt>
      <trkpt lat="44.90463" lon="4.18728">
        <ele>1587.630005</ele>
        <time>2009-07-23T10:49:30Z</time>
      </trkpt>
      <trkpt lat="44.90454" lon="4.18718">
        <ele>1585.543823</ele>
        <time>2009-07-23T10:49:40Z</time>
      </trkpt>
      <trkpt lat="44.90449" lon="4.18706">
        <ele>1583.746216</ele>
        <time>2009-07-23T10:49:50Z</time>
      </trkpt>
      <trkpt lat="44.90449" lon="4.18692">
        <ele>1582.642456</ele>
        <time>2009-07-23T10:50:00Z</time>
      </trkpt>
      <trkpt lat="44.9045" lon="4.18679">
        <ele>1581.626221</ele>
        <time>2009-07-23T10:50:09Z</time>
      </trkpt>
      <trkpt lat="44.90441" lon="4.18671">
        <ele>1579.770508</ele>
        <time>2009-07-23T10:50:19Z</time>
      </trkpt>
      <trkpt lat="44.90446" lon="4.18657">
        <ele>1578.964966</ele>
        <time>2009-07-23T10:50:25Z</time>
      </trkpt>
      <trkpt lat="44.90444" lon="4.18643">
        <ele>1577.349365</ele>
        <time>2009-07-23T10:50:39Z</time>
      </trkpt>
      <trkpt lat="44.90439" lon="4.18631">
        <ele>1575.569824</ele>
        <time>2009-07-23T10:50:50Z</time>
      </trkpt>
      <trkpt lat="44.90427" lon="4.18624">
        <ele>1573.400635</ele>
        <time>2009-07-23T10:50:59Z</time>
      </trkpt>
      <trkpt lat="44.90418" lon="4.1862">
        <ele>1571.868286</ele>
        <time>2009-07-23T10:51:07Z</time>
      </trkpt>
      <trkpt lat="44.90408" lon="4.18623">
        <ele>1570.875</ele>
        <time>2009-07-23T10:51:19Z</time>
      </trkpt>
      <trkpt lat="44.904" lon="4.18631">
        <ele>1570.73999</ele>
        <time>2009-07-23T10:51:30Z</time>
      </trkpt>
      <trkpt lat="44.90392" lon="4.18639">
        <ele>1570.742065</ele>
        <time>2009-07-23T10:51:47Z</time>
      </trkpt>
      <trkpt lat="44.9038" lon="4.18645">
        <ele>1569.915527</ele>
        <time>2009-07-23T10:51:52Z</time>
      </trkpt>
      <trkpt lat="44.9038" lon="4.18631">
        <ele>1568.298584</ele>
        <time>2009-07-23T10:52:09Z</time>
      </trkpt>
      <trkpt lat="44.90383" lon="4.18617">
        <ele>1566.988281</ele>
        <time>2009-07-23T10:52:21Z</time>
      </trkpt>
      <trkpt lat="44.90388" lon="4.18605">
        <ele>1566.180298</ele>
        <time>2009-07-23T10:52:33Z</time>
      </trkpt>
      <trkpt lat="44.90389" lon="4.18592">
        <ele>1564.783813</ele>
        <time>2009-07-23T10:52:41Z</time>
      </trkpt>
      <trkpt lat="44.9038" lon="4.18597">
        <ele>1564.190552</ele>
        <time>2009-07-23T10:52:57Z</time>
      </trkpt>
      <trkpt lat="44.9037" lon="4.18599">
        <ele>1563.04541</ele>
        <time>2009-07-23T10:53:08Z</time>
      </trkpt>
      <trkpt lat="44.9036" lon="4.186">
        <ele>1561.873657</ele>
        <time>2009-07-23T10:53:14Z</time>
      </trkpt>
      <trkpt lat="44.90353" lon="4.18609">
        <ele>1561.824829</ele>
        <time>2009-07-23T10:53:28Z</time>
      </trkpt>
      <trkpt lat="44.90341" lon="4.18607">
        <ele>1559.62561</ele>
        <time>2009-07-23T10:53:40Z</time>
      </trkpt>
      <trkpt lat="44.90333" lon="4.18613">
        <ele>1558.986694</ele>
        <time>2009-07-23T10:53:52Z</time>
      </trkpt>
      <trkpt lat="44.90322" lon="4.18615">
        <ele>1557.350464</ele>
        <time>2009-07-23T10:53:59Z</time>
      </trkpt>
      <trkpt lat="44.90321" lon="4.18601">
        <ele>1555.479126</ele>
        <time>2009-07-23T10:54:11Z</time>
      </trkpt>
      <trkpt lat="44.90316" lon="4.18587">
        <ele>1552.944092</ele>
        <time>2009-07-23T10:54:25Z</time>
      </trkpt>
      <trkpt lat="44.90307" lon="4.18591">
        <ele>1551.790894</ele>
        <time>2009-07-23T10:54:40Z</time>
      </trkpt>
      <trkpt lat="44.90298" lon="4.18598">
        <ele>1551.011353</ele>
        <time>2009-07-23T10:54:53Z</time>
      </trkpt>
      <trkpt lat="44.90288" lon="4.18598">
        <ele>1549.087891</ele>
        <time>2009-07-23T10:55:02Z</time>
      </trkpt>
      <trkpt lat="44.90276" lon="4.18598">
        <ele>1546.81311</ele>
        <time>2009-07-23T10:55:08Z</time>
      </trkpt>
      <trkpt lat="44.90267" lon="4.18601">
        <ele>1545.377686</ele>
        <time>2009-07-23T10:55:17Z</time>
      </trkpt>
      <trkpt lat="44.90258" lon="4.18607">
        <ele>1543.514648</ele>
        <time>2009-07-23T10:55:26Z</time>
      </trkpt>
      <trkpt lat="44.90252" lon="4.18618">
        <ele>1542.766235</ele>
        <time>2009-07-23T10:55:35Z</time>
      </trkpt>
      <trkpt lat="44.90245" lon="4.18608">
        <ele>1540.187378</ele>
        <time>2009-07-23T10:55:49Z</time>
      </trkpt>
      <trkpt lat="44.90248" lon="4.18594">
        <ele>1540.209473</ele>
        <time>2009-07-23T10:55:57Z</time>
      </trkpt>
      <trkpt lat="44.90244" lon="4.18583">
        <ele>1538.66626</ele>
        <time>2009-07-23T10:56:05Z</time>
      </trkpt>
      <trkpt lat="44.90238" lon="4.18572">
        <ele>1537.06311</ele>
        <time>2009-07-23T10:56:12Z</time>
      </trkpt>
      <trkpt lat="44.90229" lon="4.18568">
        <ele>1535.198975</ele>
        <time>2009-07-23T10:56:32Z</time>
      </trkpt>
      <trkpt lat="44.9022" lon="4.18574">
        <ele>1533.445923</ele>
        <time>2009-07-23T10:56:41Z</time>
      </trkpt>
      <trkpt lat="44.90215" lon="4.18585">
        <ele>1532.485596</ele>
        <time>2009-07-23T10:56:51Z</time>
      </trkpt>
      <trkpt lat="44.90213" lon="4.18598">
        <ele>1531.838867</ele>
        <time>2009-07-23T10:57:01Z</time>
      </trkpt>
      <trkpt lat="44.90213" lon="4.18613">
        <ele>1531.771362</ele>
        <time>2009-07-23T10:57:12Z</time>
      </trkpt>
      <trkpt lat="44.90205" lon="4.18619">
        <ele>1529.582275</ele>
        <time>2009-07-23T10:57:24Z</time>
      </trkpt>
      <trkpt lat="44.90196" lon="4.18616">
        <ele>1527.283447</ele>
        <time>2009-07-23T10:57:33Z</time>
      </trkpt>
      <trkpt lat="44.90185" lon="4.18614">
        <ele>1524.513184</ele>
        <time>2009-07-23T10:57:40Z</time>
      </trkpt>
      <trkpt lat="44.90177" lon="4.18606">
        <ele>1522.86499</ele>
        <time>2009-07-23T10:57:46Z</time>
      </trkpt>
      <trkpt lat="44.90169" lon="4.18596">
        <ele>1521.952515</ele>
        <time>2009-07-23T10:57:57Z</time>
      </trkpt>
      <trkpt lat="44.90161" lon="4.18589">
        <ele>1520.865967</ele>
        <time>2009-07-23T10:58:10Z</time>
      </trkpt>
      <trkpt lat="44.90155" lon="4.18575">
        <ele>1520.795776</ele>
        <time>2009-07-23T10:58:21Z</time>
      </trkpt>
      <trkpt lat="44.90147" lon="4.18566">
        <ele>1520.203979</ele>
        <time>2009-07-23T10:58:30Z</time>
      </trkpt>
      <trkpt lat="44.90141" lon="4.18555">
        <ele>1520.138306</ele>
        <time>2009-07-23T10:58:37Z</time>
      </trkpt>
      <trkpt lat="44.90132" lon="4.18547">
        <ele>1519.265015</ele>
        <time>2009-07-23T10:58:45Z</time>
      </trkpt>
      <trkpt lat="44.90122" lon="4.18547">
        <ele>1517.642456</ele>
        <time>2009-07-23T10:59:01Z</time>
      </trkpt>
      <trkpt lat="44.90109" lon="4.1855">
        <ele>1515.377441</ele>
        <time>2009-07-23T10:59:07Z</time>
      </trkpt>
      <trkpt lat="44.90099" lon="4.18548">
        <ele>1513.922485</ele>
        <time>2009-07-23T10:59:20Z</time>
      </trkpt>
      <trkpt lat="44.90092" lon="4.18538">
        <ele>1513.680054</ele>
        <time>2009-07-23T10:59:28Z</time>
      </trkpt>
      <trkpt lat="44.90083" lon="4.18537">
        <ele>1512.577515</ele>
        <time>2009-07-23T10:59:34Z</time>
      </trkpt>
      <trkpt lat="44.90078" lon="4.18525">
        <ele>1512.522461</ele>
        <time>2009-07-23T10:59:46Z</time>
      </trkpt>
      <trkpt lat="44.9007" lon="4.18516">
        <ele>1512.047485</ele>
        <time>2009-07-23T10:59:54Z</time>
      </trkpt>
      <trkpt lat="44.90063" lon="4.18507">
        <ele>1511.694946</ele>
        <time>2009-07-23T11:00:07Z</time>
      </trkpt>
      <trkpt lat="44.90053" lon="4.18504">
        <ele>1510.910034</ele>
        <time>2009-07-23T11:00:20Z</time>
      </trkpt>
      <trkpt lat="44.90044" lon="4.18504">
        <ele>1510.057373</ele>
        <time>2009-07-23T11:00:29Z</time>
      </trkpt>
      <trkpt lat="44.90034" lon="4.18511">
        <ele>1509.337524</ele>
        <time>2009-07-23T11:00:46Z</time>
      </trkpt>
      <trkpt lat="44.90026" lon="4.18519">
        <ele>1508.681763</ele>
        <time>2009-07-23T11:00:55Z</time>
      </trkpt>
      <trkpt lat="44.90018" lon="4.18526">
        <ele>1508.101074</ele>
        <time>2009-07-23T11:01:05Z</time>
      </trkpt>
      <trkpt lat="44.90008" lon="4.1853">
        <ele>1507.562256</ele>
        <time>2009-07-23T11:01:22Z</time>
      </trkpt>
      <trkpt lat="44.89998" lon="4.18531">
        <ele>1507.075439</ele>
        <time>2009-07-23T11:01:29Z</time>
      </trkpt>
      <trkpt lat="44.89988" lon="4.18533">
        <ele>1506.152954</ele>
        <time>2009-07-23T11:01:42Z</time>
      </trkpt>
      <trkpt lat="44.89978" lon="4.18537">
        <ele>1505.078735</ele>
        <time>2009-07-23T11:01:52Z</time>
      </trkpt>
      <trkpt lat="44.8997" lon="4.18544">
        <ele>1503.280029</ele>
        <time>2009-07-23T11:02:15Z</time>
      </trkpt>
      <trkpt lat="44.89973" lon="4.18557">
        <ele>1501.699951</ele>
        <time>2009-07-23T11:03:42Z</time>
      </trkpt>
      <trkpt lat="44.89968" lon="4.18545">
        <ele>1502.984985</ele>
        <time>2009-07-23T11:04:12Z</time>
      </trkpt>
      <trkpt lat="44.89963" lon="4.18533">
        <ele>1503.966187</ele>
        <time>2009-07-23T11:04:41Z</time>
      </trkpt>
      <trkpt lat="44.89966" lon="4.18547">
        <ele>1502.556274</ele>
        <time>2009-07-23T11:05:47Z</time>
      </trkpt>
      <trkpt lat="44.89956" lon="4.18552">
        <ele>1500.907471</ele>
        <time>2009-07-23T11:17:49Z</time>
      </trkpt>
      <trkpt lat="44.89947" lon="4.18556">
        <ele>1499.554932</ele>
        <time>2009-07-23T11:18:00Z</time>
      </trkpt>
      <trkpt lat="44.89936" lon="4.18553">
        <ele>1499.089722</ele>
        <time>2009-07-23T11:18:11Z</time>
      </trkpt>
      <trkpt lat="44.89926" lon="4.18552">
        <ele>1498.365601</ele>
        <time>2009-07-23T11:18:20Z</time>
      </trkpt>
      <trkpt lat="44.89924" lon="4.1854">
        <ele>1500.168579</ele>
        <time>2009-07-23T11:18:35Z</time>
      </trkpt>
      <trkpt lat="44.89914" lon="4.1854">
        <ele>1499.442261</ele>
        <time>2009-07-23T11:18:47Z</time>
      </trkpt>
      <trkpt lat="44.89922" lon="4.18531">
        <ele>1501.077881</ele>
        <time>2009-07-23T11:19:33Z</time>
      </trkpt>
      <trkpt lat="44.89915" lon="4.18541">
        <ele>1499.235596</ele>
        <time>2009-07-23T11:19:57Z</time>
      </trkpt>
      <trkpt lat="44.89906" lon="4.18544">
        <ele>1498.258545</ele>
        <time>2009-07-23T11:20:00Z</time>
      </trkpt>
      <trkpt lat="44.89909" lon="4.18531">
        <ele>1500.224121</ele>
        <time>2009-07-23T11:20:29Z</time>
      </trkpt>
      <trkpt lat="44.89906" lon="4.18544">
        <ele>1498.258545</ele>
        <time>2009-07-23T11:26:08Z</time>
      </trkpt>
      <trkpt lat="44.89912" lon="4.18534">
        <ele>1500.206909</ele>
        <time>2009-07-23T11:27:31Z</time>
      </trkpt>
      <trkpt lat="44.89922" lon="4.18531">
        <ele>1501.077881</ele>
        <time>2009-07-23T11:33:33Z</time>
      </trkpt>
      <trkpt lat="44.89912" lon="4.1854">
        <ele>1499.285889</ele>
        <time>2009-07-23T11:33:46Z</time>
      </trkpt>
      <trkpt lat="44.89907" lon="4.18528">
        <ele>1500.50708</ele>
        <time>2009-07-23T11:35:21Z</time>
      </trkpt>
      <trkpt lat="44.89915" lon="4.18536">
        <ele>1500.098389</ele>
        <time>2009-07-23T11:36:02Z</time>
      </trkpt>
      <trkpt lat="44.89924" lon="4.18532">
        <ele>1501.147705</ele>
        <time>2009-07-23T11:39:14Z</time>
      </trkpt>
      <trkpt lat="44.89914" lon="4.18535">
        <ele>1500.207886</ele>
        <time>2009-07-23T11:39:55Z</time>
      </trkpt>
      <trkpt lat="44.89906" lon="4.18528">
        <ele>1500.528076</ele>
        <time>2009-07-23T11:44:05Z</time>
      </trkpt>
      <trkpt lat="44.89898" lon="4.18522">
        <ele>1501.231445</ele>
        <time>2009-07-23T11:44:16Z</time>
      </trkpt>
      <trkpt lat="44.89908" lon="4.18525">
        <ele>1500.703979</ele>
        <time>2009-07-23T11:44:40Z</time>
      </trkpt>
      <trkpt lat="44.89915" lon="4.18535">
        <ele>1500.24585</ele>
        <time>2009-07-23T11:45:06Z</time>
      </trkpt>
      <trkpt lat="44.89905" lon="4.18535">
        <ele>1499.837158</ele>
        <time>2009-07-23T11:47:02Z</time>
      </trkpt>
      <trkpt lat="44.89915" lon="4.18534">
        <ele>1500.393188</ele>
        <time>2009-07-23T11:48:27Z</time>
      </trkpt>
      <trkpt lat="44.89924" lon="4.1854">
        <ele>1500.168579</ele>
        <time>2009-07-23T11:56:32Z</time>
      </trkpt>
      <trkpt lat="44.89933" lon="4.18536">
        <ele>1501.401611</ele>
        <time>2009-07-23T11:56:43Z</time>
      </trkpt>
      <trkpt lat="44.89942" lon="4.18532">
        <ele>1502.346191</ele>
        <time>2009-07-23T11:56:53Z</time>
      </trkpt>
      <trkpt lat="44.89951" lon="4.18531">
        <ele>1503.071533</ele>
        <time>2009-07-23T11:57:03Z</time>
      </trkpt>
      <trkpt lat="44.89961" lon="4.18536">
        <ele>1503.59375</ele>
        <time>2009-07-23T11:57:18Z</time>
      </trkpt>
      <trkpt lat="44.8997" lon="4.18534">
        <ele>1504.552002</ele>
        <time>2009-07-23T11:57:32Z</time>
      </trkpt>
      <trkpt lat="44.89979" lon="4.18529">
        <ele>1505.507935</ele>
        <time>2009-07-23T11:57:58Z</time>
      </trkpt>
      <trkpt lat="44.89972" lon="4.18521">
        <ele>1505.121948</ele>
        <time>2009-07-23T11:58:54Z</time>
      </trkpt>
      <trkpt lat="44.89976" lon="4.18532">
        <ele>1505.127197</ele>
        <time>2009-07-23T12:00:00Z</time>
      </trkpt>
      <trkpt lat="44.89969" lon="4.18541">
        <ele>1503.612549</ele>
        <time>2009-07-23T12:00:30Z</time>
      </trkpt>
      <trkpt lat="44.89972" lon="4.18554">
        <ele>1502.14624</ele>
        <time>2009-07-23T12:05:29Z</time>
      </trkpt>
      <trkpt lat="44.89963" lon="4.18549">
        <ele>1501.943726</ele>
        <time>2009-07-23T12:07:12Z</time>
      </trkpt>
      <trkpt lat="44.89966" lon="4.18537">
        <ele>1504.002563</ele>
        <time>2009-07-23T12:07:47Z</time>
      </trkpt>
      <trkpt lat="44.89964" lon="4.18524">
        <ele>1504.377197</ele>
        <time>2009-07-23T12:08:07Z</time>
      </trkpt>
      <trkpt lat="44.89962" lon="4.18538">
        <ele>1503.456299</ele>
        <time>2009-07-23T12:08:29Z</time>
      </trkpt>
      <trkpt lat="44.89959" lon="4.1855">
        <ele>1501.39624</ele>
        <time>2009-07-23T12:08:50Z</time>
      </trkpt>
      <trkpt lat="44.89965" lon="4.18563">
        <ele>1500.160034</ele>
        <time>2009-07-23T12:08:58Z</time>
      </trkpt>
      <trkpt lat="44.89972" lon="4.18572">
        <ele>1499.55249</ele>
        <time>2009-07-23T12:09:06Z</time>
      </trkpt>
      <trkpt lat="44.89977" lon="4.18583">
        <ele>1498.584961</ele>
        <time>2009-07-23T12:09:12Z</time>
      </trkpt>
      <trkpt lat="44.89986" lon="4.1859">
        <ele>1498.39502</ele>
        <time>2009-07-23T12:09:23Z</time>
      </trkpt>
      <trkpt lat="44.89995" lon="4.186">
        <ele>1497.83374</ele>
        <time>2009-07-23T12:09:30Z</time>
      </trkpt>
      <trkpt lat="44.90003" lon="4.18608">
        <ele>1497.292725</ele>
        <time>2009-07-23T12:09:40Z</time>
      </trkpt>
      <trkpt lat="44.90013" lon="4.18612">
        <ele>1497.570679</ele>
        <time>2009-07-23T12:09:49Z</time>
      </trkpt>
      <trkpt lat="44.90021" lon="4.18622">
        <ele>1497.018555</ele>
        <time>2009-07-23T12:09:58Z</time>
      </trkpt>
      <trkpt lat="44.90028" lon="4.18634">
        <ele>1496.20813</ele>
        <time>2009-07-23T12:10:05Z</time>
      </trkpt>
      <trkpt lat="44.90029" lon="4.18647">
        <ele>1494.431274</ele>
        <time>2009-07-23T12:10:15Z</time>
      </trkpt>
      <trkpt lat="44.90023" lon="4.18659">
        <ele>1491.942139</ele>
        <time>2009-07-23T12:10:24Z</time>
      </trkpt>
      <trkpt lat="44.90015" lon="4.18668">
        <ele>1489.173584</ele>
        <time>2009-07-23T12:10:32Z</time>
      </trkpt>
      <trkpt lat="44.90007" lon="4.18674">
        <ele>1486.585571</ele>
        <time>2009-07-23T12:10:50Z</time>
      </trkpt>
      <trkpt lat="44.90016" lon="4.18671">
        <ele>1488.908447</ele>
        <time>2009-07-23T12:12:32Z</time>
      </trkpt>
      <trkpt lat="44.90026" lon="4.18671">
        <ele>1490.517944</ele>
        <time>2009-07-23T12:12:41Z</time>
      </trkpt>
      <trkpt lat="44.90035" lon="4.18675">
        <ele>1491.274658</ele>
        <time>2009-07-23T12:12:51Z</time>
      </trkpt>
      <trkpt lat="44.90044" lon="4.18678">
        <ele>1492.505737</ele>
        <time>2009-07-23T12:12:59Z</time>
      </trkpt>
      <trkpt lat="44.90054" lon="4.18677">
        <ele>1494.268921</ele>
        <time>2009-07-23T12:13:08Z</time>
      </trkpt>
      <trkpt lat="44.90064" lon="4.18677">
        <ele>1495.972046</ele>
        <time>2009-07-23T12:13:18Z</time>
      </trkpt>
      <trkpt lat="44.90073" lon="4.18681">
        <ele>1496.993774</ele>
        <time>2009-07-23T12:13:26Z</time>
      </trkpt>
      <trkpt lat="44.90081" lon="4.18691">
        <ele>1496.932739</ele>
        <time>2009-07-23T12:13:38Z</time>
      </trkpt>
      <trkpt lat="44.90088" lon="4.18702">
        <ele>1496.930664</ele>
        <time>2009-07-23T12:13:48Z</time>
      </trkpt>
      <trkpt lat="44.90094" lon="4.18714">
        <ele>1497.026611</ele>
        <time>2009-07-23T12:13:56Z</time>
      </trkpt>
      <trkpt lat="44.90099" lon="4.18727">
        <ele>1496.610596</ele>
        <time>2009-07-23T12:14:05Z</time>
      </trkpt>
      <trkpt lat="44.90106" lon="4.18736">
        <ele>1497.4375</ele>
        <time>2009-07-23T12:14:14Z</time>
      </trkpt>
      <trkpt lat="44.90114" lon="4.18749">
        <ele>1497.80249</ele>
        <time>2009-07-23T12:14:24Z</time>
      </trkpt>
      <trkpt lat="44.9012" lon="4.1876">
        <ele>1497.984985</ele>
        <time>2009-07-23T12:14:33Z</time>
      </trkpt>
      <trkpt lat="44.90125" lon="4.18772">
        <ele>1497.817505</ele>
        <time>2009-07-23T12:14:41Z</time>
      </trkpt>
      <trkpt lat="44.9013" lon="4.18786">
        <ele>1497.355225</ele>
        <time>2009-07-23T12:14:51Z</time>
      </trkpt>
      <trkpt lat="44.90138" lon="4.18794">
        <ele>1498.914795</ele>
        <time>2009-07-23T12:14:57Z</time>
      </trkpt>
      <trkpt lat="44.90144" lon="4.18804">
        <ele>1499.998779</ele>
        <time>2009-07-23T12:15:04Z</time>
      </trkpt>
      <trkpt lat="44.9015" lon="4.18814">
        <ele>1501.052856</ele>
        <time>2009-07-23T12:15:11Z</time>
      </trkpt>
      <trkpt lat="44.90155" lon="4.18826">
        <ele>1501.64502</ele>
        <time>2009-07-23T12:15:18Z</time>
      </trkpt>
      <trkpt lat="44.90158" lon="4.18839">
        <ele>1501.324219</ele>
        <time>2009-07-23T12:15:27Z</time>
      </trkpt>
      <trkpt lat="44.90164" lon="4.18851">
        <ele>1502.234253</ele>
        <time>2009-07-23T12:15:35Z</time>
      </trkpt>
      <trkpt lat="44.90169" lon="4.18864">
        <ele>1502.694946</ele>
        <time>2009-07-23T12:15:43Z</time>
      </trkpt>
      <trkpt lat="44.90169" lon="4.18877">
        <ele>1500.655029</ele>
        <time>2009-07-23T12:15:51Z</time>
      </trkpt>
      <trkpt lat="44.90169" lon="4.18891">
        <ele>1498.61499</ele>
        <time>2009-07-23T12:15:59Z</time>
      </trkpt>
      <trkpt lat="44.90169" lon="4.18905">
        <ele>1496.425049</ele>
        <time>2009-07-23T12:16:06Z</time>
      </trkpt>
      <trkpt lat="44.90173" lon="4.18918">
        <ele>1496.382813</ele>
        <time>2009-07-23T12:16:14Z</time>
      </trkpt>
      <trkpt lat="44.90173" lon="4.18931">
        <ele>1493.956543</ele>
        <time>2009-07-23T12:16:21Z</time>
      </trkpt>
      <trkpt lat="44.90176" lon="4.18946">
        <ele>1492.328857</ele>
        <time>2009-07-23T12:16:29Z</time>
      </trkpt>
      <trkpt lat="44.90178" lon="4.18958">
        <ele>1491.027466</ele>
        <time>2009-07-23T12:16:37Z</time>
      </trkpt>
      <trkpt lat="44.90183" lon="4.18971">
        <ele>1490.547241</ele>
        <time>2009-07-23T12:16:46Z</time>
      </trkpt>
      <trkpt lat="44.90183" lon="4.18985">
        <ele>1487.603027</ele>
        <time>2009-07-23T12:16:56Z</time>
      </trkpt>
      <trkpt lat="44.90189" lon="4.18997">
        <ele>1487.855957</ele>
        <time>2009-07-23T12:17:05Z</time>
      </trkpt>
      <trkpt lat="44.90191" lon="4.19009">
        <ele>1486.418335</ele>
        <time>2009-07-23T12:17:14Z</time>
      </trkpt>
      <trkpt lat="44.90193" lon="4.19023">
        <ele>1484.363281</ele>
        <time>2009-07-23T12:17:21Z</time>
      </trkpt>
      <trkpt lat="44.90195" lon="4.19036">
        <ele>1482.201782</ele>
        <time>2009-07-23T12:17:29Z</time>
      </trkpt>
      <trkpt lat="44.90201" lon="4.1905">
        <ele>1480.988525</ele>
        <time>2009-07-23T12:17:36Z</time>
      </trkpt>
      <trkpt lat="44.90209" lon="4.19059">
        <ele>1481.703003</ele>
        <time>2009-07-23T12:17:44Z</time>
      </trkpt>
      <trkpt lat="44.90215" lon="4.19071">
        <ele>1480.844238</ele>
        <time>2009-07-23T12:17:53Z</time>
      </trkpt>
      <trkpt lat="44.90221" lon="4.19082">
        <ele>1480.773926</ele>
        <time>2009-07-23T12:17:57Z</time>
      </trkpt>
      <trkpt lat="44.90222" lon="4.19096">
        <ele>1478.217529</ele>
        <time>2009-07-23T12:18:05Z</time>
      </trkpt>
      <trkpt lat="44.90231" lon="4.19102">
        <ele>1480.299194</ele>
        <time>2009-07-23T12:18:12Z</time>
      </trkpt>
      <trkpt lat="44.90238" lon="4.19115">
        <ele>1479.545166</ele>
        <time>2009-07-23T12:18:23Z</time>
      </trkpt>
      <trkpt lat="44.90248" lon="4.19123">
        <ele>1480.915894</ele>
        <time>2009-07-23T12:18:34Z</time>
      </trkpt>
      <trkpt lat="44.90251" lon="4.19138">
        <ele>1478.697632</ele>
        <time>2009-07-23T12:18:41Z</time>
      </trkpt>
      <trkpt lat="44.90256" lon="4.19149">
        <ele>1477.923706</ele>
        <time>2009-07-23T12:18:49Z</time>
      </trkpt>
      <trkpt lat="44.90262" lon="4.1916">
        <ele>1477.417603</ele>
        <time>2009-07-23T12:18:57Z</time>
      </trkpt>
      <trkpt lat="44.90267" lon="4.19173">
        <ele>1476.096558</ele>
        <time>2009-07-23T12:19:05Z</time>
      </trkpt>
      <trkpt lat="44.90268" lon="4.19186">
        <ele>1473.83667</ele>
        <time>2009-07-23T12:19:13Z</time>
      </trkpt>
      <trkpt lat="44.9027" lon="4.19201">
        <ele>1471.820435</ele>
        <time>2009-07-23T12:19:23Z</time>
      </trkpt>
      <trkpt lat="44.90276" lon="4.19211">
        <ele>1471.827881</ele>
        <time>2009-07-23T12:19:30Z</time>
      </trkpt>
      <trkpt lat="44.90283" lon="4.1922">
        <ele>1471.686768</ele>
        <time>2009-07-23T12:19:37Z</time>
      </trkpt>
      <trkpt lat="44.90288" lon="4.19233">
        <ele>1470.709961</ele>
        <time>2009-07-23T12:19:45Z</time>
      </trkpt>
      <trkpt lat="44.90293" lon="4.19245">
        <ele>1469.566284</ele>
        <time>2009-07-23T12:19:53Z</time>
      </trkpt>
      <trkpt lat="44.90297" lon="4.19257">
        <ele>1468.356201</ele>
        <time>2009-07-23T12:20:01Z</time>
      </trkpt>
      <trkpt lat="44.90301" lon="4.19269">
        <ele>1467.503784</ele>
        <time>2009-07-23T12:20:11Z</time>
      </trkpt>
      <trkpt lat="44.90309" lon="4.1928">
        <ele>1467.473389</ele>
        <time>2009-07-23T12:20:21Z</time>
      </trkpt>
      <trkpt lat="44.90319" lon="4.19284">
        <ele>1469.115601</ele>
        <time>2009-07-23T12:20:28Z</time>
      </trkpt>
      <trkpt lat="44.90328" lon="4.19291">
        <ele>1469.951294</ele>
        <time>2009-07-23T12:20:35Z</time>
      </trkpt>
      <trkpt lat="44.90335" lon="4.193">
        <ele>1469.948242</ele>
        <time>2009-07-23T12:20:44Z</time>
      </trkpt>
      <trkpt lat="44.90343" lon="4.19308">
        <ele>1470.448486</ele>
        <time>2009-07-23T12:20:53Z</time>
      </trkpt>
      <trkpt lat="44.9035" lon="4.19319">
        <ele>1471.380005</ele>
        <time>2009-07-23T12:21:01Z</time>
      </trkpt>
      <trkpt lat="44.90355" lon="4.19331">
        <ele>1471.994995</ele>
        <time>2009-07-23T12:21:07Z</time>
      </trkpt>
      <trkpt lat="44.9036" lon="4.19344">
        <ele>1472.66748</ele>
        <time>2009-07-23T12:21:18Z</time>
      </trkpt>
      <trkpt lat="44.90368" lon="4.19352">
        <ele>1474.297485</ele>
        <time>2009-07-23T12:21:28Z</time>
      </trkpt>
      <trkpt lat="44.90375" lon="4.19361">
        <ele>1475.683716</ele>
        <time>2009-07-23T12:21:34Z</time>
      </trkpt>
      <trkpt lat="44.90382" lon="4.1937">
        <ele>1477.037476</ele>
        <time>2009-07-23T12:21:41Z</time>
      </trkpt>
      <trkpt lat="44.90387" lon="4.19384">
        <ele>1477.947144</ele>
        <time>2009-07-23T12:21:48Z</time>
      </trkpt>
      <trkpt lat="44.90388" lon="4.19397">
        <ele>1477.538818</ele>
        <time>2009-07-23T12:21:58Z</time>
      </trkpt>
      <trkpt lat="44.90393" lon="4.19409">
        <ele>1478.309814</ele>
        <time>2009-07-23T12:22:07Z</time>
      </trkpt>
      <trkpt lat="44.90397" lon="4.19422">
        <ele>1478.781982</ele>
        <time>2009-07-23T12:22:19Z</time>
      </trkpt>
      <trkpt lat="44.90404" lon="4.19432">
        <ele>1479.705933</ele>
        <time>2009-07-23T12:22:24Z</time>
      </trkpt>
      <trkpt lat="44.9041" lon="4.19446">
        <ele>1480.781616</ele>
        <time>2009-07-23T12:22:31Z</time>
      </trkpt>
      <trkpt lat="44.9041" lon="4.1946">
        <ele>1480.976929</ele>
        <time>2009-07-23T12:22:37Z</time>
      </trkpt>
      <trkpt lat="44.90403" lon="4.1947">
        <ele>1479.503784</ele>
        <time>2009-07-23T12:22:47Z</time>
      </trkpt>
      <trkpt lat="44.90404" lon="4.19484">
        <ele>1479.85144</ele>
        <time>2009-07-23T12:22:57Z</time>
      </trkpt>
      <trkpt lat="44.90403" lon="4.19497">
        <ele>1479.828369</ele>
        <time>2009-07-23T12:23:05Z</time>
      </trkpt>
      <trkpt lat="44.90399" lon="4.1951">
        <ele>1479.475952</ele>
        <time>2009-07-23T12:23:14Z</time>
      </trkpt>
      <trkpt lat="44.90397" lon="4.19525">
        <ele>1479.609375</ele>
        <time>2009-07-23T12:23:26Z</time>
      </trkpt>
      <trkpt lat="44.90403" lon="4.19537">
        <ele>1480.820923</ele>
        <time>2009-07-23T12:23:33Z</time>
      </trkpt>
      <trkpt lat="44.90403" lon="4.19551">
        <ele>1481.318359</ele>
        <time>2009-07-23T12:23:42Z</time>
      </trkpt>
      <trkpt lat="44.90398" lon="4.19564">
        <ele>1480.826782</ele>
        <time>2009-07-23T12:23:49Z</time>
      </trkpt>
      <trkpt lat="44.90392" lon="4.19573">
        <ele>1479.291382</ele>
        <time>2009-07-23T12:23:57Z</time>
      </trkpt>
      <trkpt lat="44.90394" lon="4.19588">
        <ele>1478.754272</ele>
        <time>2009-07-23T12:24:06Z</time>
      </trkpt>
      <trkpt lat="44.90396" lon="4.19601">
        <ele>1478.253052</ele>
        <time>2009-07-23T12:24:14Z</time>
      </trkpt>
      <trkpt lat="44.90394" lon="4.19615">
        <ele>1477.218872</ele>
        <time>2009-07-23T12:24:24Z</time>
      </trkpt>
      <trkpt lat="44.90393" lon="4.19628">
        <ele>1476.223145</ele>
        <time>2009-07-23T12:24:32Z</time>
      </trkpt>
      <trkpt lat="44.90387" lon="4.19639">
        <ele>1474.450317</ele>
        <time>2009-07-23T12:24:40Z</time>
      </trkpt>
      <trkpt lat="44.90387" lon="4.19653">
        <ele>1472.687744</ele>
        <time>2009-07-23T12:24:52Z</time>
      </trkpt>
      <trkpt lat="44.90397" lon="4.19655">
        <ele>1472.750488</ele>
        <time>2009-07-23T12:25:07Z</time>
      </trkpt>
      <trkpt lat="44.90405" lon="4.19663">
        <ele>1471.8927</ele>
        <time>2009-07-23T12:25:15Z</time>
      </trkpt>
      <trkpt lat="44.90413" lon="4.19673">
        <ele>1470.624878</ele>
        <time>2009-07-23T12:25:27Z</time>
      </trkpt>
      <trkpt lat="44.90409" lon="4.19686">
        <ele>1468.616089</ele>
        <time>2009-07-23T12:25:33Z</time>
      </trkpt>
      <trkpt lat="44.9041" lon="4.197">
        <ele>1466.006348</ele>
        <time>2009-07-23T12:25:44Z</time>
      </trkpt>
      <trkpt lat="44.90404" lon="4.19715">
        <ele>1463.30249</ele>
        <time>2009-07-23T12:25:54Z</time>
      </trkpt>
      <trkpt lat="44.90401" lon="4.19727">
        <ele>1461.011597</ele>
        <time>2009-07-23T12:26:05Z</time>
      </trkpt>
      <trkpt lat="44.9039" lon="4.19732">
        <ele>1460.263428</ele>
        <time>2009-07-23T12:26:08Z</time>
      </trkpt>
      <trkpt lat="44.90387" lon="4.19745">
        <ele>1458.127808</ele>
        <time>2009-07-23T12:26:18Z</time>
      </trkpt>
      <trkpt lat="44.9038" lon="4.19755">
        <ele>1456.528076</ele>
        <time>2009-07-23T12:26:26Z</time>
      </trkpt>
      <trkpt lat="44.90369" lon="4.19761">
        <ele>1455.631348</ele>
        <time>2009-07-23T12:26:36Z</time>
      </trkpt>
      <trkpt lat="44.90376" lon="4.19771">
        <ele>1453.646484</ele>
        <time>2009-07-23T12:26:58Z</time>
      </trkpt>
      <trkpt lat="44.90387" lon="4.1977">
        <ele>1453.375977</ele>
        <time>2009-07-23T12:27:11Z</time>
      </trkpt>
      <trkpt lat="44.90397" lon="4.19768">
        <ele>1453.272949</ele>
        <time>2009-07-23T12:27:24Z</time>
      </trkpt>
      <trkpt lat="44.90409" lon="4.19768">
        <ele>1452.778076</ele>
        <time>2009-07-23T12:27:34Z</time>
      </trkpt>
      <trkpt lat="44.90418" lon="4.1977">
        <ele>1451.997681</ele>
        <time>2009-07-23T12:27:42Z</time>
      </trkpt>
      <trkpt lat="44.90428" lon="4.19769">
        <ele>1451.737549</ele>
        <time>2009-07-23T12:27:49Z</time>
      </trkpt>
      <trkpt lat="44.90438" lon="4.19776">
        <ele>1449.456787</ele>
        <time>2009-07-23T12:28:07Z</time>
      </trkpt>
      <trkpt lat="44.90448" lon="4.19781">
        <ele>1447.277344</ele>
        <time>2009-07-23T12:28:14Z</time>
      </trkpt>
      <trkpt lat="44.90458" lon="4.19782">
        <ele>1446.110962</ele>
        <time>2009-07-23T12:28:20Z</time>
      </trkpt>
      <trkpt lat="44.90466" lon="4.19792">
        <ele>1442.952393</ele>
        <time>2009-07-23T12:28:27Z</time>
      </trkpt>
      <trkpt lat="44.90476" lon="4.19798">
        <ele>1440.222656</ele>
        <time>2009-07-23T12:28:34Z</time>
      </trkpt>
      <trkpt lat="44.90478" lon="4.19813">
        <ele>1436.088623</ele>
        <time>2009-07-23T12:28:43Z</time>
      </trkpt>
      <trkpt lat="44.90471" lon="4.19823">
        <ele>1434.505737</ele>
        <time>2009-07-23T12:28:51Z</time>
      </trkpt>
      <trkpt lat="44.90463" lon="4.19831">
        <ele>1433.077393</ele>
        <time>2009-07-23T12:28:55Z</time>
      </trkpt>
      <trkpt lat="44.90457" lon="4.19842">
        <ele>1430.495605</ele>
        <time>2009-07-23T12:29:01Z</time>
      </trkpt>
      <trkpt lat="44.90449" lon="4.19849">
        <ele>1429.453735</ele>
        <time>2009-07-23T12:29:11Z</time>
      </trkpt>
      <trkpt lat="44.9044" lon="4.19852">
        <ele>1430.057495</ele>
        <time>2009-07-23T12:29:21Z</time>
      </trkpt>
      <trkpt lat="44.90429" lon="4.19856">
        <ele>1430.519165</ele>
        <time>2009-07-23T12:29:32Z</time>
      </trkpt>
      <trkpt lat="44.9042" lon="4.19856">
        <ele>1431.400757</ele>
        <time>2009-07-23T12:29:43Z</time>
      </trkpt>
      <trkpt lat="44.90409" lon="4.19856">
        <ele>1432.467285</ele>
        <time>2009-07-23T12:29:50Z</time>
      </trkpt>
      <trkpt lat="44.90417" lon="4.19865">
        <ele>1429.233398</ele>
        <time>2009-07-23T12:30:02Z</time>
      </trkpt>
      <trkpt lat="44.90406" lon="4.19872">
        <ele>1428.746338</ele>
        <time>2009-07-23T12:30:14Z</time>
      </trkpt>
      <trkpt lat="44.90416" lon="4.19877">
        <ele>1426.063965</ele>
        <time>2009-07-23T12:30:18Z</time>
      </trkpt>
      <trkpt lat="44.90429" lon="4.19877">
        <ele>1424.268066</ele>
        <time>2009-07-23T12:30:29Z</time>
      </trkpt>
      <trkpt lat="44.90437" lon="4.19885">
        <ele>1420.858032</ele>
        <time>2009-07-23T12:30:33Z</time>
      </trkpt>
      <trkpt lat="44.90442" lon="4.19898">
        <ele>1416.820068</ele>
        <time>2009-07-23T12:30:52Z</time>
      </trkpt>
      <trkpt lat="44.90448" lon="4.1991">
        <ele>1412.792969</ele>
        <time>2009-07-23T12:31:04Z</time>
      </trkpt>
      <trkpt lat="44.90458" lon="4.19914">
        <ele>1410.276855</ele>
        <time>2009-07-23T12:31:10Z</time>
      </trkpt>
      <trkpt lat="44.90468" lon="4.19918">
        <ele>1407.89624</ele>
        <time>2009-07-23T12:31:14Z</time>
      </trkpt>
      <trkpt lat="44.90472" lon="4.1993">
        <ele>1404.170044</ele>
        <time>2009-07-23T12:31:28Z</time>
      </trkpt>
      <trkpt lat="44.90478" lon="4.1994">
        <ele>1400.858521</ele>
        <time>2009-07-23T12:31:49Z</time>
      </trkpt>
      <trkpt lat="44.90487" lon="4.19944">
        <ele>1398.696899</ele>
        <time>2009-07-23T12:31:59Z</time>
      </trkpt>
      <trkpt lat="44.90498" lon="4.19943">
        <ele>1397.275879</ele>
        <time>2009-07-23T12:32:07Z</time>
      </trkpt>
      <trkpt lat="44.90509" lon="4.19941">
        <ele>1396.089478</ele>
        <time>2009-07-23T12:32:14Z</time>
      </trkpt>
      <trkpt lat="44.90517" lon="4.19934">
        <ele>1396.456543</ele>
        <time>2009-07-23T12:32:37Z</time>
      </trkpt>
      <trkpt lat="44.90513" lon="4.19945">
        <ele>1394.491333</ele>
        <time>2009-07-23T12:33:03Z</time>
      </trkpt>
      <trkpt lat="44.90505" lon="4.19955">
        <ele>1394.496826</ele>
        <time>2009-07-23T12:33:13Z</time>
      </trkpt>
      <trkpt lat="44.90497" lon="4.19964">
        <ele>1394.715698</ele>
        <time>2009-07-23T12:33:25Z</time>
      </trkpt>
      <trkpt lat="44.9049" lon="4.19973">
        <ele>1394.676025</ele>
        <time>2009-07-23T12:33:35Z</time>
      </trkpt>
      <trkpt lat="44.90484" lon="4.19983">
        <ele>1394.351807</ele>
        <time>2009-07-23T12:33:46Z</time>
      </trkpt>
      <trkpt lat="44.90475" lon="4.1999">
        <ele>1394.491699</ele>
        <time>2009-07-23T12:33:58Z</time>
      </trkpt>
      <trkpt lat="44.90465" lon="4.19998">
        <ele>1394.538696</ele>
        <time>2009-07-23T12:34:13Z</time>
      </trkpt>
      <trkpt lat="44.90456" lon="4.20006">
        <ele>1394.16272</ele>
        <time>2009-07-23T12:34:25Z</time>
      </trkpt>
      <trkpt lat="44.90447" lon="4.2001">
        <ele>1394.118652</ele>
        <time>2009-07-23T12:34:35Z</time>
      </trkpt>
      <trkpt lat="44.90437" lon="4.20005">
        <ele>1395.539917</ele>
        <time>2009-07-23T12:34:49Z</time>
      </trkpt>
      <trkpt lat="44.90427" lon="4.20009">
        <ele>1395.502563</ele>
        <time>2009-07-23T12:34:59Z</time>
      </trkpt>
      <trkpt lat="44.90419" lon="4.20017">
        <ele>1394.712891</ele>
        <time>2009-07-23T12:35:12Z</time>
      </trkpt>
      <trkpt lat="44.90415" lon="4.2003">
        <ele>1393.089355</ele>
        <time>2009-07-23T12:35:30Z</time>
      </trkpt>
      <trkpt lat="44.90424" lon="4.20035">
        <ele>1392.374512</ele>
        <time>2009-07-23T12:35:56Z</time>
      </trkpt>
      <trkpt lat="44.90435" lon="4.20039">
        <ele>1391.321533</ele>
        <time>2009-07-23T12:36:02Z</time>
      </trkpt>
      <trkpt lat="44.90443" lon="4.20048">
        <ele>1389.860474</ele>
        <time>2009-07-23T12:36:14Z</time>
      </trkpt>
      <trkpt lat="44.90448" lon="4.20059">
        <ele>1388.219238</ele>
        <time>2009-07-23T12:36:34Z</time>
      </trkpt>
      <trkpt lat="44.90448" lon="4.20073">
        <ele>1386.679199</ele>
        <time>2009-07-23T12:36:48Z</time>
      </trkpt>
      <trkpt lat="44.90441" lon="4.20083">
        <ele>1385.966064</ele>
        <time>2009-07-23T12:36:58Z</time>
      </trkpt>
      <trkpt lat="44.90442" lon="4.20096">
        <ele>1384.643066</ele>
        <time>2009-07-23T12:37:14Z</time>
      </trkpt>
      <trkpt lat="44.90441" lon="4.2011">
        <ele>1383.354248</ele>
        <time>2009-07-23T12:37:29Z</time>
      </trkpt>
      <trkpt lat="44.90436" lon="4.20122">
        <ele>1382.14209</ele>
        <time>2009-07-23T12:37:39Z</time>
      </trkpt>
      <trkpt lat="44.9043" lon="4.20132">
        <ele>1381.140747</ele>
        <time>2009-07-23T12:37:48Z</time>
      </trkpt>
      <trkpt lat="44.90429" lon="4.20147">
        <ele>1379.77002</ele>
        <time>2009-07-23T12:37:58Z</time>
      </trkpt>
      <trkpt lat="44.90431" lon="4.2016">
        <ele>1378.494995</ele>
        <time>2009-07-23T12:38:08Z</time>
      </trkpt>
      <trkpt lat="44.90434" lon="4.20173">
        <ele>1377.310059</ele>
        <time>2009-07-23T12:38:17Z</time>
      </trkpt>
      <trkpt lat="44.90436" lon="4.20186">
        <ele>1376.035034</ele>
        <time>2009-07-23T12:38:29Z</time>
      </trkpt>
      <trkpt lat="44.9044" lon="4.20199">
        <ele>1374.849976</ele>
        <time>2009-07-23T12:38:38Z</time>
      </trkpt>
      <trkpt lat="44.90443" lon="4.20212">
        <ele>1373.589966</ele>
        <time>2009-07-23T12:38:52Z</time>
      </trkpt>
      <trkpt lat="44.90448" lon="4.20225">
        <ele>1372.412476</ele>
        <time>2009-07-23T12:39:04Z</time>
      </trkpt>
      <trkpt lat="44.90454" lon="4.20236">
        <ele>1371.407471</ele>
        <time>2009-07-23T12:39:14Z</time>
      </trkpt>
      <trkpt lat="44.90459" lon="4.20247">
        <ele>1370.319946</ele>
        <time>2009-07-23T12:39:24Z</time>
      </trkpt>
      <trkpt lat="44.90464" lon="4.20259">
        <ele>1369.227539</ele>
        <time>2009-07-23T12:39:38Z</time>
      </trkpt>
      <trkpt lat="44.90469" lon="4.20271">
        <ele>1367.922485</ele>
        <time>2009-07-23T12:39:46Z</time>
      </trkpt>
      <trkpt lat="44.90476" lon="4.2028">
        <ele>1366.775024</ele>
        <time>2009-07-23T12:39:56Z</time>
      </trkpt>
      <trkpt lat="44.90484" lon="4.20289">
        <ele>1365.599976</ele>
        <time>2009-07-23T12:40:03Z</time>
      </trkpt>
      <trkpt lat="44.90491" lon="4.20298">
        <ele>1364.339966</ele>
        <time>2009-07-23T12:40:12Z</time>
      </trkpt>
      <trkpt lat="44.90494" lon="4.20311">
        <ele>1363.037476</ele>
        <time>2009-07-23T12:40:19Z</time>
      </trkpt>
      <trkpt lat="44.90497" lon="4.20324">
        <ele>1361.61499</ele>
        <time>2009-07-23T12:40:27Z</time>
      </trkpt>
      <trkpt lat="44.90498" lon="4.20339">
        <ele>1360.095825</ele>
        <time>2009-07-23T12:40:38Z</time>
      </trkpt>
      <trkpt lat="44.90496" lon="4.20353">
        <ele>1358.675293</ele>
        <time>2009-07-23T12:40:47Z</time>
      </trkpt>
      <trkpt lat="44.90496" lon="4.20368">
        <ele>1357.200195</ele>
        <time>2009-07-23T12:40:57Z</time>
      </trkpt>
      <trkpt lat="44.90497" lon="4.20381">
        <ele>1355.814941</ele>
        <time>2009-07-23T12:41:11Z</time>
      </trkpt>
      <trkpt lat="44.90498" lon="4.20395">
        <ele>1354.387451</ele>
        <time>2009-07-23T12:41:49Z</time>
      </trkpt>
      <trkpt lat="44.905" lon="4.20408">
        <ele>1352.900024</ele>
        <time>2009-07-23T12:42:13Z</time>
      </trkpt>
      <trkpt lat="44.90503" lon="4.20421">
        <ele>1351.535034</ele>
        <time>2009-07-23T12:42:27Z</time>
      </trkpt>
      <trkpt lat="44.90507" lon="4.20433">
        <ele>1350.142456</ele>
        <time>2009-07-23T12:42:38Z</time>
      </trkpt>
      <trkpt lat="44.90507" lon="4.20447">
        <ele>1348.61499</ele>
        <time>2009-07-23T12:42:51Z</time>
      </trkpt>
      <trkpt lat="44.90513" lon="4.20459">
        <ele>1346.996948</ele>
        <time>2009-07-23T12:43:01Z</time>
      </trkpt>
      <trkpt lat="44.90521" lon="4.20468">
        <ele>1345.755859</ele>
        <time>2009-07-23T12:43:10Z</time>
      </trkpt>
      <trkpt lat="44.90523" lon="4.20481">
        <ele>1344.344604</ele>
        <time>2009-07-23T12:43:19Z</time>
      </trkpt>
      <trkpt lat="44.9053" lon="4.20491">
        <ele>1343.120239</ele>
        <time>2009-07-23T12:43:27Z</time>
      </trkpt>
      <trkpt lat="44.90533" lon="4.20503">
        <ele>1341.752808</ele>
        <time>2009-07-23T12:43:39Z</time>
      </trkpt>
      <trkpt lat="44.90533" lon="4.20518">
        <ele>1340.280029</ele>
        <time>2009-07-23T12:43:51Z</time>
      </trkpt>
      <trkpt lat="44.90539" lon="4.20528">
        <ele>1338.983765</ele>
        <time>2009-07-23T12:44:02Z</time>
      </trkpt>
      <trkpt lat="44.90542" lon="4.20542">
        <ele>1337.436279</ele>
        <time>2009-07-23T12:44:19Z</time>
      </trkpt>
      <trkpt lat="44.90543" lon="4.20555">
        <ele>1335.913696</ele>
        <time>2009-07-23T12:44:31Z</time>
      </trkpt>
      <trkpt lat="44.90551" lon="4.20563">
        <ele>1334.967529</ele>
        <time>2009-07-23T12:44:37Z</time>
      </trkpt>
      <trkpt lat="44.90561" lon="4.20571">
        <ele>1333.883789</ele>
        <time>2009-07-23T12:44:45Z</time>
      </trkpt>
      <trkpt lat="44.90572" lon="4.20572">
        <ele>1333.483765</ele>
        <time>2009-07-23T12:45:03Z</time>
      </trkpt>
      <trkpt lat="44.90582" lon="4.20571">
        <ele>1333.492554</ele>
        <time>2009-07-23T12:45:10Z</time>
      </trkpt>
      <trkpt lat="44.90591" lon="4.20566">
        <ele>1333.831299</ele>
        <time>2009-07-23T12:45:20Z</time>
      </trkpt>
      <trkpt lat="44.90602" lon="4.20571">
        <ele>1333.099121</ele>
        <time>2009-07-23T12:45:32Z</time>
      </trkpt>
      <trkpt lat="44.90613" lon="4.20571">
        <ele>1332.847412</ele>
        <time>2009-07-23T12:45:42Z</time>
      </trkpt>
      <trkpt lat="44.90622" lon="4.20574">
        <ele>1332.272583</ele>
        <time>2009-07-23T12:45:46Z</time>
      </trkpt>
      <trkpt lat="44.90632" lon="4.20573">
        <ele>1332.14563</ele>
        <time>2009-07-23T12:45:56Z</time>
      </trkpt>
      <trkpt lat="44.90642" lon="4.20576">
        <ele>1331.675049</ele>
        <time>2009-07-23T12:46:03Z</time>
      </trkpt>
      <trkpt lat="44.90653" lon="4.20582">
        <ele>1330.869995</ele>
        <time>2009-07-23T12:46:10Z</time>
      </trkpt>
      <trkpt lat="44.90662" lon="4.20579">
        <ele>1331.040039</ele>
        <time>2009-07-23T12:46:31Z</time>
      </trkpt>
      <trkpt lat="44.90673" lon="4.20582">
        <ele>1330.474976</ele>
        <time>2009-07-23T12:46:34Z</time>
      </trkpt>
      <trkpt lat="44.90683" lon="4.20581">
        <ele>1330.382446</ele>
        <time>2009-07-23T12:46:52Z</time>
      </trkpt>
      <trkpt lat="44.90692" lon="4.20583">
        <ele>1330.400635</ele>
        <time>2009-07-23T12:46:59Z</time>
      </trkpt>
      <trkpt lat="44.90702" lon="4.20578">
        <ele>1331.109131</ele>
        <time>2009-07-23T12:47:12Z</time>
      </trkpt>
      <trkpt lat="44.90712" lon="4.20578">
        <ele>1331.321777</ele>
        <time>2009-07-23T12:47:19Z</time>
      </trkpt>
      <trkpt lat="44.9072" lon="4.20572">
        <ele>1331.951782</ele>
        <time>2009-07-23T12:47:29Z</time>
      </trkpt>
      <trkpt lat="44.9073" lon="4.20573">
        <ele>1332.067871</ele>
        <time>2009-07-23T12:47:34Z</time>
      </trkpt>
      <trkpt lat="44.9074" lon="4.20574">
        <ele>1332.07019</ele>
        <time>2009-07-23T12:47:42Z</time>
      </trkpt>
      <trkpt lat="44.90749" lon="4.20578">
        <ele>1331.824341</ele>
        <time>2009-07-23T12:47:48Z</time>
      </trkpt>
      <trkpt lat="44.90759" lon="4.2058">
        <ele>1331.72937</ele>
        <time>2009-07-23T12:47:59Z</time>
      </trkpt>
      <trkpt lat="44.90768" lon="4.20586">
        <ele>1331.198486</ele>
        <time>2009-07-23T12:48:05Z</time>
      </trkpt>
      <trkpt lat="44.90781" lon="4.20584">
        <ele>1331.434814</ele>
        <time>2009-07-23T12:48:30Z</time>
      </trkpt>
      <trkpt lat="44.90791" lon="4.20584">
        <ele>1331.500366</ele>
        <time>2009-07-23T12:48:37Z</time>
      </trkpt>
      <trkpt lat="44.90802" lon="4.20585">
        <ele>1331.470337</ele>
        <time>2009-07-23T12:51:28Z</time>
      </trkpt>
      <trkpt lat="44.9081" lon="4.2058">
        <ele>1332.077759</ele>
        <time>2009-07-23T12:52:09Z</time>
      </trkpt>
      <trkpt lat="44.90821" lon="4.20582">
        <ele>1331.955078</ele>
        <time>2009-07-23T12:52:22Z</time>
      </trkpt>
      <trkpt lat="44.90832" lon="4.2058">
        <ele>1332.263062</ele>
        <time>2009-07-23T12:52:26Z</time>
      </trkpt>
      <trkpt lat="44.90842" lon="4.20582">
        <ele>1332.106323</ele>
        <time>2009-07-23T12:52:53Z</time>
      </trkpt>
      <trkpt lat="44.90853" lon="4.20583">
        <ele>1332.061279</ele>
        <time>2009-07-23T12:53:11Z</time>
      </trkpt>
      <trkpt lat="44.90864" lon="4.20585">
        <ele>1331.890259</ele>
        <time>2009-07-23T12:53:18Z</time>
      </trkpt>
      <trkpt lat="44.90874" lon="4.20592">
        <ele>1330.867798</ele>
        <time>2009-07-23T12:53:28Z</time>
      </trkpt>
      <trkpt lat="44.90885" lon="4.20597">
        <ele>1329.98999</ele>
        <time>2009-07-23T12:53:33Z</time>
      </trkpt>
      <trkpt lat="44.90894" lon="4.20601">
        <ele>1329.067749</ele>
        <time>2009-07-23T12:53:38Z</time>
      </trkpt>
      <trkpt lat="44.90903" lon="4.20607">
        <ele>1327.720215</ele>
        <time>2009-07-23T12:53:43Z</time>
      </trkpt>
      <trkpt lat="44.90911" lon="4.20616">
        <ele>1325.785156</ele>
        <time>2009-07-23T12:53:51Z</time>
      </trkpt>
      <trkpt lat="44.90919" lon="4.20625">
        <ele>1324.036255</ele>
        <time>2009-07-23T12:53:59Z</time>
      </trkpt>
      <trkpt lat="44.90928" lon="4.20629">
        <ele>1323.069336</ele>
        <time>2009-07-23T12:54:06Z</time>
      </trkpt>
      <trkpt lat="44.90937" lon="4.20633">
        <ele>1322.23877</ele>
        <time>2009-07-23T12:54:42Z</time>
      </trkpt>
      <trkpt lat="44.90946" lon="4.20639">
        <ele>1320.705078</ele>
        <time>2009-07-23T12:58:36Z</time>
      </trkpt>
      <trkpt lat="44.90955" lon="4.20638">
        <ele>1321.150269</ele>
        <time>2009-07-23T12:58:53Z</time>
      </trkpt>
      <trkpt lat="44.90966" lon="4.20635">
        <ele>1322.718872</ele>
        <time>2009-07-23T12:59:01Z</time>
      </trkpt>
      <trkpt lat="44.90976" lon="4.20633">
        <ele>1324.228638</ele>
        <time>2009-07-23T12:59:08Z</time>
      </trkpt>
      <trkpt lat="44.90985" lon="4.20635">
        <ele>1324.312988</ele>
        <time>2009-07-23T12:59:15Z</time>
      </trkpt>
      <trkpt lat="44.90993" lon="4.20643">
        <ele>1322.811279</ele>
        <time>2009-07-23T12:59:26Z</time>
      </trkpt>
      <trkpt lat="44.91002" lon="4.20649">
        <ele>1322.498169</ele>
        <time>2009-07-23T12:59:36Z</time>
      </trkpt>
      <trkpt lat="44.9101" lon="4.20656">
        <ele>1321.939331</ele>
        <time>2009-07-23T12:59:43Z</time>
      </trkpt>
      <trkpt lat="44.9102" lon="4.20661">
        <ele>1321.988159</ele>
        <time>2009-07-23T12:59:53Z</time>
      </trkpt>
      <trkpt lat="44.91031" lon="4.20664">
        <ele>1322.91626</ele>
        <time>2009-07-23T12:59:59Z</time>
      </trkpt>
      <trkpt lat="44.91039" lon="4.2067">
        <ele>1322.219238</ele>
        <time>2009-07-23T13:00:09Z</time>
      </trkpt>
      <trkpt lat="44.91049" lon="4.20678">
        <ele>1321.035156</ele>
        <time>2009-07-23T13:00:17Z</time>
      </trkpt>
      <trkpt lat="44.91058" lon="4.20685">
        <ele>1320.106323</ele>
        <time>2009-07-23T13:00:27Z</time>
      </trkpt>
      <trkpt lat="44.91066" lon="4.20693">
        <ele>1318.496338</ele>
        <time>2009-07-23T13:00:35Z</time>
      </trkpt>
      <trkpt lat="44.91073" lon="4.20704">
        <ele>1315.444458</ele>
        <time>2009-07-23T13:00:47Z</time>
      </trkpt>
      <trkpt lat="44.91081" lon="4.20711">
        <ele>1314.350342</ele>
        <time>2009-07-23T13:00:55Z</time>
      </trkpt>
      <trkpt lat="44.91088" lon="4.20721">
        <ele>1311.705444</ele>
        <time>2009-07-23T13:01:02Z</time>
      </trkpt>
      <trkpt lat="44.91095" lon="4.2073">
        <ele>1309.035034</ele>
        <time>2009-07-23T13:01:09Z</time>
      </trkpt>
      <trkpt lat="44.911" lon="4.20741">
        <ele>1305.433716</ele>
        <time>2009-07-23T13:01:15Z</time>
      </trkpt>
      <trkpt lat="44.91109" lon="4.20747">
        <ele>1304.153809</ele>
        <time>2009-07-23T13:01:25Z</time>
      </trkpt>
      <trkpt lat="44.91118" lon="4.20749">
        <ele>1303.796265</ele>
        <time>2009-07-23T13:01:33Z</time>
      </trkpt>
      <trkpt lat="44.91128" lon="4.20749">
        <ele>1304.331299</ele>
        <time>2009-07-23T13:01:39Z</time>
      </trkpt>
      <trkpt lat="44.91139" lon="4.20746">
        <ele>1305.508057</ele>
        <time>2009-07-23T13:01:46Z</time>
      </trkpt>
      <trkpt lat="44.91149" lon="4.20743">
        <ele>1306.184692</ele>
        <time>2009-07-23T13:01:55Z</time>
      </trkpt>
      <trkpt lat="44.91159" lon="4.2074">
        <ele>1306.925049</ele>
        <time>2009-07-23T13:02:02Z</time>
      </trkpt>
      <trkpt lat="44.91168" lon="4.20737">
        <ele>1308.038696</ele>
        <time>2009-07-23T13:02:09Z</time>
      </trkpt>
      <trkpt lat="44.91178" lon="4.20734">
        <ele>1308.936768</ele>
        <time>2009-07-23T13:02:16Z</time>
      </trkpt>
      <trkpt lat="44.91187" lon="4.2073">
        <ele>1310.872681</ele>
        <time>2009-07-23T13:02:25Z</time>
      </trkpt>
      <trkpt lat="44.91197" lon="4.20726">
        <ele>1312.449097</ele>
        <time>2009-07-23T13:02:34Z</time>
      </trkpt>
      <trkpt lat="44.91206" lon="4.20722">
        <ele>1313.99646</ele>
        <time>2009-07-23T13:02:43Z</time>
      </trkpt>
      <trkpt lat="44.91216" lon="4.20722">
        <ele>1314.561523</ele>
        <time>2009-07-23T13:02:50Z</time>
      </trkpt>
      <trkpt lat="44.91226" lon="4.20725">
        <ele>1313.650269</ele>
        <time>2009-07-23T13:02:58Z</time>
      </trkpt>
      <trkpt lat="44.91236" lon="4.20728">
        <ele>1313.061646</ele>
        <time>2009-07-23T13:03:06Z</time>
      </trkpt>
      <trkpt lat="44.91245" lon="4.20732">
        <ele>1311.994751</ele>
        <time>2009-07-23T13:03:15Z</time>
      </trkpt>
      <trkpt lat="44.91255" lon="4.20732">
        <ele>1312.370483</ele>
        <time>2009-07-23T13:03:22Z</time>
      </trkpt>
      <trkpt lat="44.91265" lon="4.20734">
        <ele>1312.248291</ele>
        <time>2009-07-23T13:03:29Z</time>
      </trkpt>
      <trkpt lat="44.91275" lon="4.20736">
        <ele>1311.945679</ele>
        <time>2009-07-23T13:03:36Z</time>
      </trkpt>
      <trkpt lat="44.91284" lon="4.20736">
        <ele>1312.050293</ele>
        <time>2009-07-23T13:03:43Z</time>
      </trkpt>
      <trkpt lat="44.91294" lon="4.20739">
        <ele>1311.522949</ele>
        <time>2009-07-23T13:03:51Z</time>
      </trkpt>
      <trkpt lat="44.91304" lon="4.20737">
        <ele>1312.051636</ele>
        <time>2009-07-23T13:03:59Z</time>
      </trkpt>
      <trkpt lat="44.91313" lon="4.20735">
        <ele>1312.421143</ele>
        <time>2009-07-23T13:04:06Z</time>
      </trkpt>
      <trkpt lat="44.91322" lon="4.20731">
        <ele>1312.855835</ele>
        <time>2009-07-23T13:04:14Z</time>
      </trkpt>
      <trkpt lat="44.91331" lon="4.20726">
        <ele>1313.68042</ele>
        <time>2009-07-23T13:04:23Z</time>
      </trkpt>
      <trkpt lat="44.91341" lon="4.2072">
        <ele>1314.63147</ele>
        <time>2009-07-23T13:04:33Z</time>
      </trkpt>
      <trkpt lat="44.9135" lon="4.20715">
        <ele>1315.166138</ele>
        <time>2009-07-23T13:04:42Z</time>
      </trkpt>
      <trkpt lat="44.9136" lon="4.20713">
        <ele>1315.374023</ele>
        <time>2009-07-23T13:04:52Z</time>
      </trkpt>
      <trkpt lat="44.9137" lon="4.2071">
        <ele>1315.691772</ele>
        <time>2009-07-23T13:05:00Z</time>
      </trkpt>
      <trkpt lat="44.9138" lon="4.20708">
        <ele>1315.799561</ele>
        <time>2009-07-23T13:05:08Z</time>
      </trkpt>
      <trkpt lat="44.9139" lon="4.20704">
        <ele>1316.244629</ele>
        <time>2009-07-23T13:05:17Z</time>
      </trkpt>
      <trkpt lat="44.91401" lon="4.20703">
        <ele>1316.304077</ele>
        <time>2009-07-23T13:05:25Z</time>
      </trkpt>
      <trkpt lat="44.91411" lon="4.207">
        <ele>1316.940796</ele>
        <time>2009-07-23T13:05:32Z</time>
      </trkpt>
      <trkpt lat="44.91421" lon="4.20698">
        <ele>1317.427856</ele>
        <time>2009-07-23T13:05:41Z</time>
      </trkpt>
      <trkpt lat="44.9143" lon="4.20695">
        <ele>1318.050659</ele>
        <time>2009-07-23T13:05:49Z</time>
      </trkpt>
      <trkpt lat="44.9144" lon="4.20692">
        <ele>1318.821533</ele>
        <time>2009-07-23T13:05:56Z</time>
      </trkpt>
      <trkpt lat="44.91449" lon="4.20692">
        <ele>1319.056763</ele>
        <time>2009-07-23T13:06:03Z</time>
      </trkpt>
      <trkpt lat="44.91459" lon="4.20693">
        <ele>1319.439819</ele>
        <time>2009-07-23T13:06:12Z</time>
      </trkpt>
      <trkpt lat="44.91469" lon="4.20694">
        <ele>1319.828613</ele>
        <time>2009-07-23T13:06:20Z</time>
      </trkpt>
      <trkpt lat="44.91479" lon="4.20696">
        <ele>1319.97168</ele>
        <time>2009-07-23T13:06:27Z</time>
      </trkpt>
      <trkpt lat="44.91489" lon="4.20698">
        <ele>1320.276855</ele>
        <time>2009-07-23T13:06:34Z</time>
      </trkpt>
      <trkpt lat="44.91499" lon="4.207">
        <ele>1320.175049</ele>
        <time>2009-07-23T13:06:42Z</time>
      </trkpt>
      <trkpt lat="44.91509" lon="4.20703">
        <ele>1319.800049</ele>
        <time>2009-07-23T13:06:51Z</time>
      </trkpt>
      <trkpt lat="44.91519" lon="4.20705">
        <ele>1319.425049</ele>
        <time>2009-07-23T13:06:59Z</time>
      </trkpt>
      <trkpt lat="44.91529" lon="4.20707">
        <ele>1319.199951</ele>
        <time>2009-07-23T13:07:07Z</time>
      </trkpt>
      <trkpt lat="44.91538" lon="4.20707">
        <ele>1319.13562</ele>
        <time>2009-07-23T13:07:15Z</time>
      </trkpt>
      <trkpt lat="44.91548" lon="4.20706">
        <ele>1318.657959</ele>
        <time>2009-07-23T13:07:23Z</time>
      </trkpt>
      <trkpt lat="44.91557" lon="4.20704">
        <ele>1318.307983</ele>
        <time>2009-07-23T13:07:31Z</time>
      </trkpt>
      <trkpt lat="44.91566" lon="4.20701">
        <ele>1318.224365</ele>
        <time>2009-07-23T13:07:40Z</time>
      </trkpt>
      <trkpt lat="44.91576" lon="4.20698">
        <ele>1317.879639</ele>
        <time>2009-07-23T13:07:48Z</time>
      </trkpt>
      <trkpt lat="44.91585" lon="4.20695">
        <ele>1317.907471</ele>
        <time>2009-07-23T13:07:56Z</time>
      </trkpt>
      <trkpt lat="44.91595" lon="4.20691">
        <ele>1318.194946</ele>
        <time>2009-07-23T13:08:04Z</time>
      </trkpt>
      <trkpt lat="44.91605" lon="4.20686">
        <ele>1318.579956</ele>
        <time>2009-07-23T13:08:12Z</time>
      </trkpt>
      <trkpt lat="44.91615" lon="4.20683">
        <ele>1318.857544</ele>
        <time>2009-07-23T13:08:20Z</time>
      </trkpt>
      <trkpt lat="44.91624" lon="4.20679">
        <ele>1319.160034</ele>
        <time>2009-07-23T13:08:27Z</time>
      </trkpt>
      <trkpt lat="44.91633" lon="4.20674">
        <ele>1319.885254</ele>
        <time>2009-07-23T13:08:35Z</time>
      </trkpt>
      <trkpt lat="44.91643" lon="4.20672">
        <ele>1320.065918</ele>
        <time>2009-07-23T13:08:44Z</time>
      </trkpt>
      <trkpt lat="44.91652" lon="4.20668">
        <ele>1320.768555</ele>
        <time>2009-07-23T13:08:52Z</time>
      </trkpt>
      <trkpt lat="44.91661" lon="4.20664">
        <ele>1321.356201</ele>
        <time>2009-07-23T13:09:01Z</time>
      </trkpt>
      <trkpt lat="44.9167" lon="4.20658">
        <ele>1322.514404</ele>
        <time>2009-07-23T13:09:10Z</time>
      </trkpt>
      <trkpt lat="44.9168" lon="4.20661">
        <ele>1322.939331</ele>
        <time>2009-07-23T13:09:18Z</time>
      </trkpt>
      <trkpt lat="44.9169" lon="4.2066">
        <ele>1324.64209</ele>
        <time>2009-07-23T13:09:26Z</time>
      </trkpt>
      <trkpt lat="44.917" lon="4.20665">
        <ele>1325.054321</ele>
        <time>2009-07-23T13:09:34Z</time>
      </trkpt>
      <trkpt lat="44.9171" lon="4.20668">
        <ele>1325.886353</ele>
        <time>2009-07-23T13:09:41Z</time>
      </trkpt>
      <trkpt lat="44.91719" lon="4.20671">
        <ele>1326.62561</ele>
        <time>2009-07-23T13:09:50Z</time>
      </trkpt>
      <trkpt lat="44.9173" lon="4.20674">
        <ele>1328.592285</ele>
        <time>2009-07-23T13:10:00Z</time>
      </trkpt>
      <trkpt lat="44.9174" lon="4.20674">
        <ele>1331.410767</ele>
        <time>2009-07-23T13:10:09Z</time>
      </trkpt>
      <trkpt lat="44.9175" lon="4.20674">
        <ele>1333.901978</ele>
        <time>2009-07-23T13:10:20Z</time>
      </trkpt>
      <trkpt lat="44.91759" lon="4.20678">
        <ele>1335.01062</ele>
        <time>2009-07-23T13:10:28Z</time>
      </trkpt>
      <trkpt lat="44.91768" lon="4.20683">
        <ele>1335.635864</ele>
        <time>2009-07-23T13:10:33Z</time>
      </trkpt>
      <trkpt lat="44.91776" lon="4.20691">
        <ele>1335.908203</ele>
        <time>2009-07-23T13:10:41Z</time>
      </trkpt>
      <trkpt lat="44.91781" lon="4.20703">
        <ele>1335.663696</ele>
        <time>2009-07-23T13:10:46Z</time>
      </trkpt>
      <trkpt lat="44.91793" lon="4.20696">
        <ele>1338.421875</ele>
        <time>2009-07-23T13:10:51Z</time>
      </trkpt>
      <trkpt lat="44.91795" lon="4.2071">
        <ele>1337.360962</ele>
        <time>2009-07-23T13:10:57Z</time>
      </trkpt>
      <trkpt lat="44.91798" lon="4.20723">
        <ele>1336.51062</ele>
        <time>2009-07-23T13:11:02Z</time>
      </trkpt>
      <trkpt lat="44.91804" lon="4.20736">
        <ele>1336.126831</ele>
        <time>2009-07-23T13:11:11Z</time>
      </trkpt>
      <trkpt lat="44.91807" lon="4.20749">
        <ele>1335.109985</ele>
        <time>2009-07-23T13:11:18Z</time>
      </trkpt>
      <trkpt lat="44.91811" lon="4.20762">
        <ele>1335.111572</ele>
        <time>2009-07-23T13:11:26Z</time>
      </trkpt>
      <trkpt lat="44.91819" lon="4.20772">
        <ele>1335.425293</ele>
        <time>2009-07-23T13:11:36Z</time>
      </trkpt>
      <trkpt lat="44.91824" lon="4.20784">
        <ele>1335.411743</ele>
        <time>2009-07-23T13:11:44Z</time>
      </trkpt>
      <trkpt lat="44.9183" lon="4.20793">
        <ele>1335.5177</ele>
        <time>2009-07-23T13:11:57Z</time>
      </trkpt>
      <trkpt lat="44.91838" lon="4.20801">
        <ele>1335.758911</ele>
        <time>2009-07-23T13:12:08Z</time>
      </trkpt>
      <trkpt lat="44.91848" lon="4.20808">
        <ele>1336.168213</ele>
        <time>2009-07-23T13:13:20Z</time>
      </trkpt>
      <trkpt lat="44.91858" lon="4.2081">
        <ele>1336.384033</ele>
        <time>2009-07-23T13:13:32Z</time>
      </trkpt>
      <trkpt lat="44.91868" lon="4.20808">
        <ele>1336.77124</ele>
        <time>2009-07-23T13:13:43Z</time>
      </trkpt>
      <trkpt lat="44.91877" lon="4.20806">
        <ele>1337.128906</ele>
        <time>2009-07-23T13:13:54Z</time>
      </trkpt>
      <trkpt lat="44.91887" lon="4.20803">
        <ele>1337.568481</ele>
        <time>2009-07-23T13:14:03Z</time>
      </trkpt>
      <trkpt lat="44.91898" lon="4.20802">
        <ele>1337.907471</ele>
        <time>2009-07-23T13:14:11Z</time>
      </trkpt>
      <trkpt lat="44.91907" lon="4.20799">
        <ele>1338.367432</ele>
        <time>2009-07-23T13:14:20Z</time>
      </trkpt>
      <trkpt lat="44.91917" lon="4.20797">
        <ele>1338.72998</ele>
        <time>2009-07-23T13:14:29Z</time>
      </trkpt>
      <trkpt lat="44.91928" lon="4.20794">
        <ele>1339.147461</ele>
        <time>2009-07-23T13:14:38Z</time>
      </trkpt>
      <trkpt lat="44.91937" lon="4.20795">
        <ele>1339.32251</ele>
        <time>2009-07-23T13:14:48Z</time>
      </trkpt>
      <trkpt lat="44.91947" lon="4.20795">
        <ele>1339.76355</ele>
        <time>2009-07-23T13:14:58Z</time>
      </trkpt>
      <trkpt lat="44.91956" lon="4.20791">
        <ele>1340.589966</ele>
        <time>2009-07-23T13:15:08Z</time>
      </trkpt>
      <trkpt lat="44.91965" lon="4.20787">
        <ele>1341.348633</ele>
        <time>2009-07-23T13:15:16Z</time>
      </trkpt>
      <trkpt lat="44.91975" lon="4.20785">
        <ele>1342.064209</ele>
        <time>2009-07-23T13:15:26Z</time>
      </trkpt>
      <trkpt lat="44.91985" lon="4.20785">
        <ele>1342.631226</ele>
        <time>2009-07-23T13:15:35Z</time>
      </trkpt>
      <trkpt lat="44.91995" lon="4.20789">
        <ele>1342.913574</ele>
        <time>2009-07-23T13:15:44Z</time>
      </trkpt>
      <trkpt lat="44.92003" lon="4.20792">
        <ele>1343.11853</ele>
        <time>2009-07-23T13:15:53Z</time>
      </trkpt>
      <trkpt lat="44.92013" lon="4.20796">
        <ele>1343.351196</ele>
        <time>2009-07-23T13:16:03Z</time>
      </trkpt>
      <trkpt lat="44.92022" lon="4.20801">
        <ele>1343.352295</ele>
        <time>2009-07-23T13:16:13Z</time>
      </trkpt>
      <trkpt lat="44.92031" lon="4.20808">
        <ele>1343.303345</ele>
        <time>2009-07-23T13:16:25Z</time>
      </trkpt>
      <trkpt lat="44.92039" lon="4.20816">
        <ele>1343.259766</ele>
        <time>2009-07-23T13:16:33Z</time>
      </trkpt>
      <trkpt lat="44.92047" lon="4.20821">
        <ele>1343.583008</ele>
        <time>2009-07-23T13:16:43Z</time>
      </trkpt>
      <trkpt lat="44.92056" lon="4.20827">
        <ele>1344.118652</ele>
        <time>2009-07-23T13:16:53Z</time>
      </trkpt>
      <trkpt lat="44.92066" lon="4.2083">
        <ele>1344.834839</ele>
        <time>2009-07-23T13:17:02Z</time>
      </trkpt>
      <trkpt lat="44.92076" lon="4.20831">
        <ele>1346.123779</ele>
        <time>2009-07-23T13:17:11Z</time>
      </trkpt>
      <trkpt lat="44.92086" lon="4.20831">
        <ele>1348.658691</ele>
        <time>2009-07-23T13:17:20Z</time>
      </trkpt>
      <trkpt lat="44.92095" lon="4.2083">
        <ele>1351.265015</ele>
        <time>2009-07-23T13:17:29Z</time>
      </trkpt>
      <trkpt lat="44.92105" lon="4.20832">
        <ele>1353.777466</ele>
        <time>2009-07-23T13:17:37Z</time>
      </trkpt>
      <trkpt lat="44.92115" lon="4.20838">
        <ele>1356.07251</ele>
        <time>2009-07-23T13:17:48Z</time>
      </trkpt>
      <trkpt lat="44.92123" lon="4.20845">
        <ele>1359.207397</ele>
        <time>2009-07-23T13:17:59Z</time>
      </trkpt>
      <trkpt lat="44.92127" lon="4.20858">
        <ele>1361.093628</ele>
        <time>2009-07-23T13:18:14Z</time>
      </trkpt>
      <trkpt lat="44.92129" lon="4.20875">
        <ele>1361.033936</ele>
        <time>2009-07-23T13:18:29Z</time>
      </trkpt>
      <trkpt lat="44.92131" lon="4.20888">
        <ele>1361.917725</ele>
        <time>2009-07-23T13:18:37Z</time>
      </trkpt>
      <trkpt lat="44.92136" lon="4.20899">
        <ele>1364.630981</ele>
        <time>2009-07-23T13:18:47Z</time>
      </trkpt>
      <trkpt lat="44.92131" lon="4.20912">
        <ele>1362.654175</ele>
        <time>2009-07-23T13:18:56Z</time>
      </trkpt>
      <trkpt lat="44.9213" lon="4.20925">
        <ele>1362.316162</ele>
        <time>2009-07-23T13:19:03Z</time>
      </trkpt>
      <trkpt lat="44.9213" lon="4.2094">
        <ele>1362.729858</ele>
        <time>2009-07-23T13:19:09Z</time>
      </trkpt>
      <trkpt lat="44.92128" lon="4.20953">
        <ele>1362.327637</ele>
        <time>2009-07-23T13:19:14Z</time>
      </trkpt>
      <trkpt lat="44.92123" lon="4.20967">
        <ele>1361.268921</ele>
        <time>2009-07-23T13:19:21Z</time>
      </trkpt>
      <trkpt lat="44.92119" lon="4.20978">
        <ele>1360.259155</ele>
        <time>2009-07-23T13:19:31Z</time>
      </trkpt>
      <trkpt lat="44.9211" lon="4.20984">
        <ele>1357.688843</ele>
        <time>2009-07-23T13:19:40Z</time>
      </trkpt>
      <trkpt lat="44.92103" lon="4.20993">
        <ele>1356.451294</ele>
        <time>2009-07-23T13:19:50Z</time>
      </trkpt>
      <trkpt lat="44.92096" lon="4.21003">
        <ele>1355.251099</ele>
        <time>2009-07-23T13:20:00Z</time>
      </trkpt>
      <trkpt lat="44.92088" lon="4.2101">
        <ele>1353.327026</ele>
        <time>2009-07-23T13:20:09Z</time>
      </trkpt>
      <trkpt lat="44.9208" lon="4.21018">
        <ele>1352.677002</ele>
        <time>2009-07-23T13:20:17Z</time>
      </trkpt>
      <trkpt lat="44.92072" lon="4.21027">
        <ele>1353.047485</ele>
        <time>2009-07-23T13:20:27Z</time>
      </trkpt>
      <trkpt lat="44.92064" lon="4.21037">
        <ele>1354.843018</ele>
        <time>2009-07-23T13:20:34Z</time>
      </trkpt>
      <trkpt lat="44.92059" lon="4.21049">
        <ele>1357.594727</ele>
        <time>2009-07-23T13:20:43Z</time>
      </trkpt>
      <trkpt lat="44.92056" lon="4.21061">
        <ele>1360.723022</ele>
        <time>2009-07-23T13:20:52Z</time>
      </trkpt>
      <trkpt lat="44.92053" lon="4.21074">
        <ele>1363.747314</ele>
        <time>2009-07-23T13:21:01Z</time>
      </trkpt>
      <trkpt lat="44.9205" lon="4.21087">
        <ele>1365.839478</ele>
        <time>2009-07-23T13:21:11Z</time>
      </trkpt>
      <trkpt lat="44.92047" lon="4.211">
        <ele>1367.728882</ele>
        <time>2009-07-23T13:21:20Z</time>
      </trkpt>
      <trkpt lat="44.92046" lon="4.21114">
        <ele>1370.067139</ele>
        <time>2009-07-23T13:21:30Z</time>
      </trkpt>
      <trkpt lat="44.92045" lon="4.21128">
        <ele>1372.636719</ele>
        <time>2009-07-23T13:21:40Z</time>
      </trkpt>
      <trkpt lat="44.92044" lon="4.21143">
        <ele>1374.317871</ele>
        <time>2009-07-23T13:21:51Z</time>
      </trkpt>
      <trkpt lat="44.9204" lon="4.21155">
        <ele>1374.443481</ele>
        <time>2009-07-23T13:22:02Z</time>
      </trkpt>
      <trkpt lat="44.92043" lon="4.21169">
        <ele>1375.392456</ele>
        <time>2009-07-23T13:22:12Z</time>
      </trkpt>
      <trkpt lat="44.92045" lon="4.21183">
        <ele>1376.231201</ele>
        <time>2009-07-23T13:22:21Z</time>
      </trkpt>
      <trkpt lat="44.92044" lon="4.21197">
        <ele>1376.682861</ele>
        <time>2009-07-23T13:22:29Z</time>
      </trkpt>
      <trkpt lat="44.92042" lon="4.2121">
        <ele>1376.297119</ele>
        <time>2009-07-23T13:22:37Z</time>
      </trkpt>
      <trkpt lat="44.9204" lon="4.21225">
        <ele>1375.659302</ele>
        <time>2009-07-23T13:22:46Z</time>
      </trkpt>
      <trkpt lat="44.92037" lon="4.21237">
        <ele>1375.161621</ele>
        <time>2009-07-23T13:22:56Z</time>
      </trkpt>
      <trkpt lat="44.92037" lon="4.21251">
        <ele>1374.740112</ele>
        <time>2009-07-23T13:23:07Z</time>
      </trkpt>
      <trkpt lat="44.92044" lon="4.2126">
        <ele>1374.202759</ele>
        <time>2009-07-23T13:23:19Z</time>
      </trkpt>
      <trkpt lat="44.92052" lon="4.21268">
        <ele>1373.145264</ele>
        <time>2009-07-23T13:23:32Z</time>
      </trkpt>
      <trkpt lat="44.92062" lon="4.21266">
        <ele>1372.97229</ele>
        <time>2009-07-23T13:25:35Z</time>
      </trkpt>
      <trkpt lat="44.92058" lon="4.21278">
        <ele>1371.019897</ele>
        <time>2009-07-23T13:30:49Z</time>
      </trkpt>
      <trkpt lat="44.92067" lon="4.21283">
        <ele>1369.282227</ele>
        <time>2009-07-23T13:31:08Z</time>
      </trkpt>
      <trkpt lat="44.92077" lon="4.21287">
        <ele>1365.30481</ele>
        <time>2009-07-23T13:31:23Z</time>
      </trkpt>
      <trkpt lat="44.92086" lon="4.21293">
        <ele>1361.199097</ele>
        <time>2009-07-23T13:31:37Z</time>
      </trkpt>
      <trkpt lat="44.92095" lon="4.21291">
        <ele>1358.486938</ele>
        <time>2009-07-23T13:31:52Z</time>
      </trkpt>
      <trkpt lat="44.92105" lon="4.21291">
        <ele>1355.378174</ele>
        <time>2009-07-23T13:32:04Z</time>
      </trkpt>
      <trkpt lat="44.92115" lon="4.21293">
        <ele>1351.688354</ele>
        <time>2009-07-23T13:32:18Z</time>
      </trkpt>
      <trkpt lat="44.92124" lon="4.21289">
        <ele>1349.301392</ele>
        <time>2009-07-23T13:32:32Z</time>
      </trkpt>
      <trkpt lat="44.92134" lon="4.21287">
        <ele>1346.601929</ele>
        <time>2009-07-23T13:32:42Z</time>
      </trkpt>
      <trkpt lat="44.92141" lon="4.21278">
        <ele>1345.935547</ele>
        <time>2009-07-23T13:32:49Z</time>
      </trkpt>
      <trkpt lat="44.9215" lon="4.2127">
        <ele>1344.715576</ele>
        <time>2009-07-23T13:32:56Z</time>
      </trkpt>
      <trkpt lat="44.9216" lon="4.21268">
        <ele>1341.969971</ele>
        <time>2009-07-23T13:33:03Z</time>
      </trkpt>
      <trkpt lat="44.92169" lon="4.21263">
        <ele>1340.057495</ele>
        <time>2009-07-23T13:33:14Z</time>
      </trkpt>
      <trkpt lat="44.92179" lon="4.2126">
        <ele>1337.869995</ele>
        <time>2009-07-23T13:33:29Z</time>
      </trkpt>
      <trkpt lat="44.92189" lon="4.21256">
        <ele>1335.662476</ele>
        <time>2009-07-23T13:33:39Z</time>
      </trkpt>
      <trkpt lat="44.92197" lon="4.21248">
        <ele>1335.045044</ele>
        <time>2009-07-23T13:33:49Z</time>
      </trkpt>
      <trkpt lat="44.92204" lon="4.2124">
        <ele>1334.804077</ele>
        <time>2009-07-23T13:33:57Z</time>
      </trkpt>
      <trkpt lat="44.92216" lon="4.21237">
        <ele>1332.368408</ele>
        <time>2009-07-23T13:34:13Z</time>
      </trkpt>
      <trkpt lat="44.92225" lon="4.21232">
        <ele>1331.118042</ele>
        <time>2009-07-23T13:34:19Z</time>
      </trkpt>
      <trkpt lat="44.92234" lon="4.21227">
        <ele>1329.316895</ele>
        <time>2009-07-23T13:34:30Z</time>
      </trkpt>
      <trkpt lat="44.92242" lon="4.21218">
        <ele>1328.77002</ele>
        <time>2009-07-23T13:34:39Z</time>
      </trkpt>
      <trkpt lat="44.92251" lon="4.21214">
        <ele>1327.193359</ele>
        <time>2009-07-23T13:34:47Z</time>
      </trkpt>
      <trkpt lat="44.92261" lon="4.21213">
        <ele>1325.300537</ele>
        <time>2009-07-23T13:34:56Z</time>
      </trkpt>
      <trkpt lat="44.92272" lon="4.21205">
        <ele>1324.537354</ele>
        <time>2009-07-23T13:35:08Z</time>
      </trkpt>
      <trkpt lat="44.92279" lon="4.21196">
        <ele>1325.091919</ele>
        <time>2009-07-23T13:35:18Z</time>
      </trkpt>
      <trkpt lat="44.92287" lon="4.21188">
        <ele>1325.389282</ele>
        <time>2009-07-23T13:35:27Z</time>
      </trkpt>
      <trkpt lat="44.92296" lon="4.21183">
        <ele>1324.770264</ele>
        <time>2009-07-23T13:35:38Z</time>
      </trkpt>
      <trkpt lat="44.92304" lon="4.21177">
        <ele>1325.200439</ele>
        <time>2009-07-23T13:35:51Z</time>
      </trkpt>
      <trkpt lat="44.92314" lon="4.21173">
        <ele>1324.741333</ele>
        <time>2009-07-23T13:36:02Z</time>
      </trkpt>
      <trkpt lat="44.92324" lon="4.2117">
        <ele>1324.094116</ele>
        <time>2009-07-23T13:36:11Z</time>
      </trkpt>
      <trkpt lat="44.92333" lon="4.21175">
        <ele>1321.852539</ele>
        <time>2009-07-23T13:36:19Z</time>
      </trkpt>
      <trkpt lat="44.92342" lon="4.2118">
        <ele>1320.044556</ele>
        <time>2009-07-23T13:36:29Z</time>
      </trkpt>
      <trkpt lat="44.92351" lon="4.21181">
        <ele>1318.975342</ele>
        <time>2009-07-23T13:36:37Z</time>
      </trkpt>
      <trkpt lat="44.92361" lon="4.21184">
        <ele>1317.697876</ele>
        <time>2009-07-23T13:36:46Z</time>
      </trkpt>
      <trkpt lat="44.92372" lon="4.21181">
        <ele>1317.234863</ele>
        <time>2009-07-23T13:36:54Z</time>
      </trkpt>
      <trkpt lat="44.92381" lon="4.21174">
        <ele>1317.584473</ele>
        <time>2009-07-23T13:37:04Z</time>
      </trkpt>
      <trkpt lat="44.92391" lon="4.21174">
        <ele>1316.786011</ele>
        <time>2009-07-23T13:37:13Z</time>
      </trkpt>
      <trkpt lat="44.924" lon="4.21172">
        <ele>1316.303101</ele>
        <time>2009-07-23T13:37:21Z</time>
      </trkpt>
      <trkpt lat="44.92411" lon="4.21173">
        <ele>1315.35791</ele>
        <time>2009-07-23T13:37:29Z</time>
      </trkpt>
      <trkpt lat="44.92421" lon="4.21175">
        <ele>1314.404175</ele>
        <time>2009-07-23T13:37:37Z</time>
      </trkpt>
      <trkpt lat="44.9243" lon="4.21177">
        <ele>1313.491089</ele>
        <time>2009-07-23T13:37:45Z</time>
      </trkpt>
      <trkpt lat="44.92441" lon="4.21178">
        <ele>1312.837158</ele>
        <time>2009-07-23T13:37:53Z</time>
      </trkpt>
      <trkpt lat="44.92451" lon="4.21177">
        <ele>1312.40918</ele>
        <time>2009-07-23T13:38:01Z</time>
      </trkpt>
      <trkpt lat="44.9246" lon="4.21179">
        <ele>1311.679565</ele>
        <time>2009-07-23T13:38:08Z</time>
      </trkpt>
      <trkpt lat="44.9247" lon="4.21178">
        <ele>1311.27356</ele>
        <time>2009-07-23T13:38:16Z</time>
      </trkpt>
      <trkpt lat="44.9248" lon="4.21178">
        <ele>1310.879517</ele>
        <time>2009-07-23T13:38:24Z</time>
      </trkpt>
      <trkpt lat="44.9249" lon="4.21178">
        <ele>1310.578857</ele>
        <time>2009-07-23T13:38:32Z</time>
      </trkpt>
      <trkpt lat="44.925" lon="4.21177">
        <ele>1310.344116</ele>
        <time>2009-07-23T13:38:40Z</time>
      </trkpt>
      <trkpt lat="44.9251" lon="4.21175">
        <ele>1310.189331</ele>
        <time>2009-07-23T13:38:48Z</time>
      </trkpt>
      <trkpt lat="44.9252" lon="4.21173">
        <ele>1310.119995</ele>
        <time>2009-07-23T13:38:56Z</time>
      </trkpt>
      <trkpt lat="44.9253" lon="4.2117">
        <ele>1310.722534</ele>
        <time>2009-07-23T13:39:04Z</time>
      </trkpt>
      <trkpt lat="44.9254" lon="4.21165">
        <ele>1311.390015</ele>
        <time>2009-07-23T13:39:13Z</time>
      </trkpt>
      <trkpt lat="44.92549" lon="4.2116">
        <ele>1312.142456</ele>
        <time>2009-07-23T13:39:22Z</time>
      </trkpt>
      <trkpt lat="44.92557" lon="4.21154">
        <ele>1312.966675</ele>
        <time>2009-07-23T13:39:31Z</time>
      </trkpt>
      <trkpt lat="44.92568" lon="4.21152">
        <ele>1313.55835</ele>
        <time>2009-07-23T13:39:41Z</time>
      </trkpt>
      <trkpt lat="44.92576" lon="4.21146">
        <ele>1314.826782</ele>
        <time>2009-07-23T13:39:50Z</time>
      </trkpt>
      <trkpt lat="44.92586" lon="4.21143">
        <ele>1315.752808</ele>
        <time>2009-07-23T13:39:58Z</time>
      </trkpt>
      <trkpt lat="44.92594" lon="4.21139">
        <ele>1316.799927</ele>
        <time>2009-07-23T13:40:06Z</time>
      </trkpt>
      <trkpt lat="44.92604" lon="4.21134">
        <ele>1318.209717</ele>
        <time>2009-07-23T13:40:16Z</time>
      </trkpt>
      <trkpt lat="44.92614" lon="4.21135">
        <ele>1318.727539</ele>
        <time>2009-07-23T13:40:25Z</time>
      </trkpt>
      <trkpt lat="44.92624" lon="4.21133">
        <ele>1319.73999</ele>
        <time>2009-07-23T13:40:34Z</time>
      </trkpt>
      <trkpt lat="44.92633" lon="4.21129">
        <ele>1320.98999</ele>
        <time>2009-07-23T13:40:43Z</time>
      </trkpt>
      <trkpt lat="44.92643" lon="4.21131">
        <ele>1321.410034</ele>
        <time>2009-07-23T13:40:52Z</time>
      </trkpt>
      <trkpt lat="44.92653" lon="4.21132">
        <ele>1321.997559</ele>
        <time>2009-07-23T13:41:02Z</time>
      </trkpt>
      <trkpt lat="44.92663" lon="4.21133">
        <ele>1322.929321</ele>
        <time>2009-07-23T13:41:10Z</time>
      </trkpt>
      <trkpt lat="44.92673" lon="4.21137">
        <ele>1323.28479</ele>
        <time>2009-07-23T13:41:17Z</time>
      </trkpt>
      <trkpt lat="44.92683" lon="4.2114">
        <ele>1323.996704</ele>
        <time>2009-07-23T13:41:28Z</time>
      </trkpt>
      <trkpt lat="44.92691" lon="4.21146">
        <ele>1324.009155</ele>
        <time>2009-07-23T13:41:34Z</time>
      </trkpt>
      <trkpt lat="44.92701" lon="4.2115">
        <ele>1324.528198</ele>
        <time>2009-07-23T13:41:41Z</time>
      </trkpt>
      <trkpt lat="44.9271" lon="4.21146">
        <ele>1325.825073</ele>
        <time>2009-07-23T13:41:50Z</time>
      </trkpt>
      <trkpt lat="44.9272" lon="4.21146">
        <ele>1326.721069</ele>
        <time>2009-07-23T13:41:58Z</time>
      </trkpt>
      <trkpt lat="44.9273" lon="4.21149">
        <ele>1327.223755</ele>
        <time>2009-07-23T13:42:06Z</time>
      </trkpt>
      <trkpt lat="44.9274" lon="4.21148">
        <ele>1328.255615</ele>
        <time>2009-07-23T13:42:15Z</time>
      </trkpt>
      <trkpt lat="44.9275" lon="4.21152">
        <ele>1328.574463</ele>
        <time>2009-07-23T13:42:23Z</time>
      </trkpt>
      <trkpt lat="44.9276" lon="4.21154">
        <ele>1329.08313</ele>
        <time>2009-07-23T13:42:34Z</time>
      </trkpt>
      <trkpt lat="44.9277" lon="4.21154">
        <ele>1329.835938</ele>
        <time>2009-07-23T13:42:42Z</time>
      </trkpt>
      <trkpt lat="44.9278" lon="4.21155">
        <ele>1330.309692</ele>
        <time>2009-07-23T13:42:50Z</time>
      </trkpt>
      <trkpt lat="44.92789" lon="4.21155">
        <ele>1331.017456</ele>
        <time>2009-07-23T13:42:57Z</time>
      </trkpt>
      <trkpt lat="44.92798" lon="4.21161">
        <ele>1331.118774</ele>
        <time>2009-07-23T13:43:06Z</time>
      </trkpt>
      <trkpt lat="44.92808" lon="4.21163">
        <ele>1331.755005</ele>
        <time>2009-07-23T13:43:14Z</time>
      </trkpt>
      <trkpt lat="44.92817" lon="4.21162">
        <ele>1332.773804</ele>
        <time>2009-07-23T13:43:21Z</time>
      </trkpt>
      <trkpt lat="44.92827" lon="4.21163">
        <ele>1333.431274</ele>
        <time>2009-07-23T13:43:29Z</time>
      </trkpt>
      <trkpt lat="44.92837" lon="4.21165">
        <ele>1334.339355</ele>
        <time>2009-07-23T13:43:39Z</time>
      </trkpt>
      <trkpt lat="44.92847" lon="4.21165">
        <ele>1335.736206</ele>
        <time>2009-07-23T13:43:48Z</time>
      </trkpt>
      <trkpt lat="44.92857" lon="4.21168">
        <ele>1336.862549</ele>
        <time>2009-07-23T13:43:56Z</time>
      </trkpt>
      <trkpt lat="44.92867" lon="4.21172">
        <ele>1337.835938</ele>
        <time>2009-07-23T13:44:09Z</time>
      </trkpt>
      <trkpt lat="44.92875" lon="4.21179">
        <ele>1338.321533</ele>
        <time>2009-07-23T13:44:19Z</time>
      </trkpt>
      <trkpt lat="44.92883" lon="4.21188">
        <ele>1338.622559</ele>
        <time>2009-07-23T13:44:25Z</time>
      </trkpt>
      <trkpt lat="44.92891" lon="4.21196">
        <ele>1339.210815</ele>
        <time>2009-07-23T13:44:34Z</time>
      </trkpt>
      <trkpt lat="44.92899" lon="4.21203">
        <ele>1339.961182</ele>
        <time>2009-07-23T13:44:42Z</time>
      </trkpt>
      <trkpt lat="44.92906" lon="4.21215">
        <ele>1340.166748</ele>
        <time>2009-07-23T13:44:50Z</time>
      </trkpt>
      <trkpt lat="44.92914" lon="4.21224">
        <ele>1340.88208</ele>
        <time>2009-07-23T13:44:59Z</time>
      </trkpt>
      <trkpt lat="44.92921" lon="4.21234">
        <ele>1341.645142</ele>
        <time>2009-07-23T13:45:07Z</time>
      </trkpt>
      <trkpt lat="44.92929" lon="4.21242">
        <ele>1342.855103</ele>
        <time>2009-07-23T13:45:20Z</time>
      </trkpt>
      <trkpt lat="44.92935" lon="4.21252">
        <ele>1343.556763</ele>
        <time>2009-07-23T13:45:31Z</time>
      </trkpt>
      <trkpt lat="44.92944" lon="4.2126">
        <ele>1344.691162</ele>
        <time>2009-07-23T13:45:38Z</time>
      </trkpt>
      <trkpt lat="44.92953" lon="4.21256">
        <ele>1346.065918</ele>
        <time>2009-07-23T13:45:48Z</time>
      </trkpt>
      <trkpt lat="44.92961" lon="4.21244">
        <ele>1347.239868</ele>
        <time>2009-07-23T13:45:59Z</time>
      </trkpt>
      <trkpt lat="44.92968" lon="4.21232">
        <ele>1348.045044</ele>
        <time>2009-07-23T13:46:14Z</time>
      </trkpt>
      <trkpt lat="44.92975" lon="4.21224">
        <ele>1348.933716</ele>
        <time>2009-07-23T13:46:21Z</time>
      </trkpt>
      <trkpt lat="44.92984" lon="4.21216">
        <ele>1349.837524</ele>
        <time>2009-07-23T13:46:33Z</time>
      </trkpt>
      <trkpt lat="44.92991" lon="4.21207">
        <ele>1350.763794</ele>
        <time>2009-07-23T13:46:41Z</time>
      </trkpt>
      <trkpt lat="44.93" lon="4.21208">
        <ele>1351.337524</ele>
        <time>2009-07-23T13:46:50Z</time>
      </trkpt>
      <trkpt lat="44.93011" lon="4.21206">
        <ele>1352.155029</ele>
        <time>2009-07-23T13:47:01Z</time>
      </trkpt>
      <trkpt lat="44.9302" lon="4.21202">
        <ele>1352.39624</ele>
        <time>2009-07-23T13:47:12Z</time>
      </trkpt>
      <trkpt lat="44.93029" lon="4.21198">
        <ele>1352.495361</ele>
        <time>2009-07-23T13:47:23Z</time>
      </trkpt>
      <trkpt lat="44.9304" lon="4.21195">
        <ele>1352.477417</ele>
        <time>2009-07-23T13:47:33Z</time>
      </trkpt>
      <trkpt lat="44.93049" lon="4.21195">
        <ele>1352.355835</ele>
        <time>2009-07-23T13:47:39Z</time>
      </trkpt>
      <trkpt lat="44.93059" lon="4.21194">
        <ele>1352.203247</ele>
        <time>2009-07-23T13:47:47Z</time>
      </trkpt>
      <trkpt lat="44.9307" lon="4.21193">
        <ele>1351.604004</ele>
        <time>2009-07-23T13:48:00Z</time>
      </trkpt>
      <trkpt lat="44.9308" lon="4.21199">
        <ele>1350.855835</ele>
        <time>2009-07-23T13:48:13Z</time>
      </trkpt>
      <trkpt lat="44.93088" lon="4.21208">
        <ele>1350.242432</ele>
        <time>2009-07-23T13:49:04Z</time>
      </trkpt>
      <trkpt lat="44.93097" lon="4.21205">
        <ele>1349.782593</ele>
        <time>2009-07-23T13:51:37Z</time>
      </trkpt>
      <trkpt lat="44.93108" lon="4.21205">
        <ele>1348.996216</ele>
        <time>2009-07-23T13:51:48Z</time>
      </trkpt>
      <trkpt lat="44.93115" lon="4.21196">
        <ele>1348.532471</ele>
        <time>2009-07-23T13:51:58Z</time>
      </trkpt>
      <trkpt lat="44.93124" lon="4.2119">
        <ele>1347.842529</ele>
        <time>2009-07-23T13:52:06Z</time>
      </trkpt>
      <trkpt lat="44.93134" lon="4.21186">
        <ele>1347.068726</ele>
        <time>2009-07-23T13:52:15Z</time>
      </trkpt>
      <trkpt lat="44.93143" lon="4.21179">
        <ele>1346.39624</ele>
        <time>2009-07-23T13:52:25Z</time>
      </trkpt>
      <trkpt lat="44.93152" lon="4.21174">
        <ele>1345.537231</ele>
        <time>2009-07-23T13:52:34Z</time>
      </trkpt>
      <trkpt lat="44.93162" lon="4.21169">
        <ele>1344.459106</ele>
        <time>2009-07-23T13:52:45Z</time>
      </trkpt>
      <trkpt lat="44.9317" lon="4.21163">
        <ele>1343.479248</ele>
        <time>2009-07-23T13:52:53Z</time>
      </trkpt>
      <trkpt lat="44.93178" lon="4.21155">
        <ele>1342.443848</ele>
        <time>2009-07-23T13:53:02Z</time>
      </trkpt>
      <trkpt lat="44.93188" lon="4.21149">
        <ele>1341.244995</ele>
        <time>2009-07-23T13:53:13Z</time>
      </trkpt>
      <trkpt lat="44.93197" lon="4.21142">
        <ele>1340.173706</ele>
        <time>2009-07-23T13:53:21Z</time>
      </trkpt>
      <trkpt lat="44.93206" lon="4.21136">
        <ele>1339.21875</ele>
        <time>2009-07-23T13:53:31Z</time>
      </trkpt>
      <trkpt lat="44.93215" lon="4.21128">
        <ele>1338.306274</ele>
        <time>2009-07-23T13:53:39Z</time>
      </trkpt>
      <trkpt lat="44.93224" lon="4.2112">
        <ele>1337.407471</ele>
        <time>2009-07-23T13:53:47Z</time>
      </trkpt>
      <trkpt lat="44.93234" lon="4.21115">
        <ele>1336.477539</ele>
        <time>2009-07-23T13:53:56Z</time>
      </trkpt>
      <trkpt lat="44.93242" lon="4.21106">
        <ele>1335.593872</ele>
        <time>2009-07-23T13:54:05Z</time>
      </trkpt>
      <trkpt lat="44.9325" lon="4.21097">
        <ele>1334.721924</ele>
        <time>2009-07-23T13:54:14Z</time>
      </trkpt>
      <trkpt lat="44.93258" lon="4.2109">
        <ele>1333.786377</ele>
        <time>2009-07-23T13:54:24Z</time>
      </trkpt>
      <trkpt lat="44.93266" lon="4.21081">
        <ele>1332.819458</ele>
        <time>2009-07-23T13:54:34Z</time>
      </trkpt>
      <trkpt lat="44.93274" lon="4.21075">
        <ele>1331.819824</ele>
        <time>2009-07-23T13:54:42Z</time>
      </trkpt>
      <trkpt lat="44.93282" lon="4.21067">
        <ele>1330.741821</ele>
        <time>2009-07-23T13:54:51Z</time>
      </trkpt>
      <trkpt lat="44.93291" lon="4.21061">
        <ele>1329.762451</ele>
        <time>2009-07-23T13:54:58Z</time>
      </trkpt>
      <trkpt lat="44.93302" lon="4.21057">
        <ele>1328.587524</ele>
        <time>2009-07-23T13:55:08Z</time>
      </trkpt>
      <trkpt lat="44.93311" lon="4.21053">
        <ele>1327.688599</ele>
        <time>2009-07-23T13:55:16Z</time>
      </trkpt>
      <trkpt lat="44.93319" lon="4.2104">
        <ele>1326.63855</ele>
        <time>2009-07-23T13:55:28Z</time>
      </trkpt>
      <trkpt lat="44.93329" lon="4.21034">
        <ele>1325.520996</ele>
        <time>2009-07-23T13:55:37Z</time>
      </trkpt>
      <trkpt lat="44.93337" lon="4.21026">
        <ele>1324.442505</ele>
        <time>2009-07-23T13:55:46Z</time>
      </trkpt>
      <trkpt lat="44.93345" lon="4.21018">
        <ele>1323.280029</ele>
        <time>2009-07-23T13:55:54Z</time>
      </trkpt>
      <trkpt lat="44.93356" lon="4.21016">
        <ele>1321.997559</ele>
        <time>2009-07-23T13:56:02Z</time>
      </trkpt>
      <trkpt lat="44.93365" lon="4.2102">
        <ele>1321.102539</ele>
        <time>2009-07-23T13:56:07Z</time>
      </trkpt>
      <trkpt lat="44.93375" lon="4.21019">
        <ele>1319.9375</ele>
        <time>2009-07-23T13:56:15Z</time>
      </trkpt>
      <trkpt lat="44.93383" lon="4.21013">
        <ele>1318.817505</ele>
        <time>2009-07-23T13:56:24Z</time>
      </trkpt>
      <trkpt lat="44.93393" lon="4.21012">
        <ele>1317.717529</ele>
        <time>2009-07-23T13:56:33Z</time>
      </trkpt>
      <trkpt lat="44.93402" lon="4.2101">
        <ele>1316.574951</ele>
        <time>2009-07-23T13:56:42Z</time>
      </trkpt>
      <trkpt lat="44.93412" lon="4.21009">
        <ele>1315.487549</ele>
        <time>2009-07-23T13:56:51Z</time>
      </trkpt>
      <trkpt lat="44.93421" lon="4.21006">
        <ele>1314.324463</ele>
        <time>2009-07-23T13:57:01Z</time>
      </trkpt>
      <trkpt lat="44.93431" lon="4.21005">
        <ele>1313.186035</ele>
        <time>2009-07-23T13:57:09Z</time>
      </trkpt>
      <trkpt lat="44.93441" lon="4.21006">
        <ele>1312.098389</ele>
        <time>2009-07-23T13:57:16Z</time>
      </trkpt>
      <trkpt lat="44.93449" lon="4.21">
        <ele>1311.020752</ele>
        <time>2009-07-23T13:57:27Z</time>
      </trkpt>
      <trkpt lat="44.9346" lon="4.20999">
        <ele>1309.765747</ele>
        <time>2009-07-23T13:57:35Z</time>
      </trkpt>
      <trkpt lat="44.9347" lon="4.20995">
        <ele>1308.570679</ele>
        <time>2009-07-23T13:57:43Z</time>
      </trkpt>
      <trkpt lat="44.9348" lon="4.20994">
        <ele>1307.459473</ele>
        <time>2009-07-23T13:57:53Z</time>
      </trkpt>
      <trkpt lat="44.93489" lon="4.20987">
        <ele>1306.648193</ele>
        <time>2009-07-23T13:58:01Z</time>
      </trkpt>
      <trkpt lat="44.93498" lon="4.20982">
        <ele>1305.840332</ele>
        <time>2009-07-23T13:58:08Z</time>
      </trkpt>
      <trkpt lat="44.93506" lon="4.20974">
        <ele>1305.285889</ele>
        <time>2009-07-23T13:58:14Z</time>
      </trkpt>
      <trkpt lat="44.93513" lon="4.20964">
        <ele>1304.912842</ele>
        <time>2009-07-23T13:58:22Z</time>
      </trkpt>
      <trkpt lat="44.93521" lon="4.20955">
        <ele>1304.419434</ele>
        <time>2009-07-23T13:58:29Z</time>
      </trkpt>
      <trkpt lat="44.93526" lon="4.20943">
        <ele>1304.415894</ele>
        <time>2009-07-23T13:58:37Z</time>
      </trkpt>
      <trkpt lat="44.93532" lon="4.2093">
        <ele>1304.389526</ele>
        <time>2009-07-23T13:58:46Z</time>
      </trkpt>
      <trkpt lat="44.93538" lon="4.2092">
        <ele>1304.260254</ele>
        <time>2009-07-23T13:58:56Z</time>
      </trkpt>
      <trkpt lat="44.93545" lon="4.20908">
        <ele>1304.249756</ele>
        <time>2009-07-23T13:59:04Z</time>
      </trkpt>
      <trkpt lat="44.9355" lon="4.20898">
        <ele>1304.294312</ele>
        <time>2009-07-23T13:59:11Z</time>
      </trkpt>
      <trkpt lat="44.93557" lon="4.20887">
        <ele>1304.338013</ele>
        <time>2009-07-23T13:59:19Z</time>
      </trkpt>
      <trkpt lat="44.93562" lon="4.20875">
        <ele>1304.721802</ele>
        <time>2009-07-23T13:59:26Z</time>
      </trkpt>
      <trkpt lat="44.93569" lon="4.20864">
        <ele>1305.138916</ele>
        <time>2009-07-23T13:59:34Z</time>
      </trkpt>
      <trkpt lat="44.93575" lon="4.20854">
        <ele>1305.557373</ele>
        <time>2009-07-23T13:59:42Z</time>
      </trkpt>
      <trkpt lat="44.9358" lon="4.20843">
        <ele>1306.131226</ele>
        <time>2009-07-23T13:59:50Z</time>
      </trkpt>
      <trkpt lat="44.93586" lon="4.20831">
        <ele>1306.737305</ele>
        <time>2009-07-23T13:59:58Z</time>
      </trkpt>
      <trkpt lat="44.93592" lon="4.20821">
        <ele>1307.288452</ele>
        <time>2009-07-23T14:00:05Z</time>
      </trkpt>
      <trkpt lat="44.93598" lon="4.2081">
        <ele>1307.990356</ele>
        <time>2009-07-23T14:00:13Z</time>
      </trkpt>
      <trkpt lat="44.93603" lon="4.20799">
        <ele>1308.52063</ele>
        <time>2009-07-23T14:00:21Z</time>
      </trkpt>
      <trkpt lat="44.93608" lon="4.20786">
        <ele>1309.081299</ele>
        <time>2009-07-23T14:00:29Z</time>
      </trkpt>
      <trkpt lat="44.93615" lon="4.20775">
        <ele>1309.512329</ele>
        <time>2009-07-23T14:00:37Z</time>
      </trkpt>
      <trkpt lat="44.93619" lon="4.20764">
        <ele>1309.959717</ele>
        <time>2009-07-23T14:00:45Z</time>
      </trkpt>
      <trkpt lat="44.93625" lon="4.20751">
        <ele>1310.388062</ele>
        <time>2009-07-23T14:00:53Z</time>
      </trkpt>
      <trkpt lat="44.93631" lon="4.20741">
        <ele>1310.646851</ele>
        <time>2009-07-23T14:01:00Z</time>
      </trkpt>
      <trkpt lat="44.93636" lon="4.2073">
        <ele>1310.953979</ele>
        <time>2009-07-23T14:01:09Z</time>
      </trkpt>
      <trkpt lat="44.93642" lon="4.20718">
        <ele>1311.206543</ele>
        <time>2009-07-23T14:01:18Z</time>
      </trkpt>
      <trkpt lat="44.93648" lon="4.20705">
        <ele>1311.445923</ele>
        <time>2009-07-23T14:01:27Z</time>
      </trkpt>
      <trkpt lat="44.93654" lon="4.20695">
        <ele>1311.685059</ele>
        <time>2009-07-23T14:01:35Z</time>
      </trkpt>
      <trkpt lat="44.93659" lon="4.20682">
        <ele>1312.123779</ele>
        <time>2009-07-23T14:01:44Z</time>
      </trkpt>
      <trkpt lat="44.93666" lon="4.20673">
        <ele>1312.503052</ele>
        <time>2009-07-23T14:01:52Z</time>
      </trkpt>
      <trkpt lat="44.93672" lon="4.20662">
        <ele>1312.920776</ele>
        <time>2009-07-23T14:02:00Z</time>
      </trkpt>
      <trkpt lat="44.93677" lon="4.2065">
        <ele>1313.369873</ele>
        <time>2009-07-23T14:02:08Z</time>
      </trkpt>
      <trkpt lat="44.93683" lon="4.20638">
        <ele>1313.735352</ele>
        <time>2009-07-23T14:02:17Z</time>
      </trkpt>
      <trkpt lat="44.93689" lon="4.20627">
        <ele>1314.01001</ele>
        <time>2009-07-23T14:02:25Z</time>
      </trkpt>
      <trkpt lat="44.93696" lon="4.20617">
        <ele>1314.286499</ele>
        <time>2009-07-23T14:02:33Z</time>
      </trkpt>
      <trkpt lat="44.93702" lon="4.20607">
        <ele>1314.749268</ele>
        <time>2009-07-23T14:02:41Z</time>
      </trkpt>
      <trkpt lat="44.93708" lon="4.20595">
        <ele>1315.233765</ele>
        <time>2009-07-23T14:02:49Z</time>
      </trkpt>
      <trkpt lat="44.93714" lon="4.20585">
        <ele>1315.592651</ele>
        <time>2009-07-23T14:02:56Z</time>
      </trkpt>
      <trkpt lat="44.9372" lon="4.20574">
        <ele>1315.954712</ele>
        <time>2009-07-23T14:03:04Z</time>
      </trkpt>
      <trkpt lat="44.93726" lon="4.20564">
        <ele>1316.221191</ele>
        <time>2009-07-23T14:03:13Z</time>
      </trkpt>
      <trkpt lat="44.93733" lon="4.20554">
        <ele>1316.56604</ele>
        <time>2009-07-23T14:03:21Z</time>
      </trkpt>
      <trkpt lat="44.93739" lon="4.20544">
        <ele>1316.956299</ele>
        <time>2009-07-23T14:03:28Z</time>
      </trkpt>
      <trkpt lat="44.93746" lon="4.20534">
        <ele>1317.290039</ele>
        <time>2009-07-23T14:03:36Z</time>
      </trkpt>
      <trkpt lat="44.93753" lon="4.20524">
        <ele>1317.77002</ele>
        <time>2009-07-23T14:03:45Z</time>
      </trkpt>
      <trkpt lat="44.93759" lon="4.20513">
        <ele>1318.287476</ele>
        <time>2009-07-23T14:03:53Z</time>
      </trkpt>
      <trkpt lat="44.93766" lon="4.20504">
        <ele>1318.726196</ele>
        <time>2009-07-23T14:04:01Z</time>
      </trkpt>
      <trkpt lat="44.93772" lon="4.20492">
        <ele>1319.59314</ele>
        <time>2009-07-23T14:04:11Z</time>
      </trkpt>
      <trkpt lat="44.93777" lon="4.2048">
        <ele>1320.571533</ele>
        <time>2009-07-23T14:04:20Z</time>
      </trkpt>
      <trkpt lat="44.93783" lon="4.2047">
        <ele>1321.353882</ele>
        <time>2009-07-23T14:04:28Z</time>
      </trkpt>
      <trkpt lat="44.93789" lon="4.20457">
        <ele>1322.302246</ele>
        <time>2009-07-23T14:04:37Z</time>
      </trkpt>
      <trkpt lat="44.93792" lon="4.20444">
        <ele>1323.442139</ele>
        <time>2009-07-23T14:04:45Z</time>
      </trkpt>
      <trkpt lat="44.93794" lon="4.2043">
        <ele>1324.663696</ele>
        <time>2009-07-23T14:04:58Z</time>
      </trkpt>
      <trkpt lat="44.93788" lon="4.20419">
        <ele>1325.670044</ele>
        <time>2009-07-23T14:05:13Z</time>
      </trkpt>
      <trkpt lat="44.93778" lon="4.20421">
        <ele>1325.6875</ele>
        <time>2009-07-23T14:05:35Z</time>
      </trkpt>
      <trkpt lat="44.93767" lon="4.2042">
        <ele>1325.974976</ele>
        <time>2009-07-23T14:05:46Z</time>
      </trkpt>
      <trkpt lat="44.93757" lon="4.20417">
        <ele>1326.42749</ele>
        <time>2009-07-23T14:06:00Z</time>
      </trkpt>
      <trkpt lat="44.93748" lon="4.20416">
        <ele>1326.69751</ele>
        <time>2009-07-23T14:06:10Z</time>
      </trkpt>
    </trkseg>
  </trk>
</gpx>